Darstellungsparameter: Aktuell verwendete Einstellungen:
Skalierung der Graphiken ... ?
xyx+y,   Skalierungsfaktor:      Skalierung: Modus: x, Faktor: 1
Darstellungszeitraum ... ?
Vom - - bis: - -   Zeitraum: 05.04.2017 - 25.04.2017
Min/Max/Avg-Anzeige ... ?
Zeige MMA aktuell
Zeige MMA Monat
Zeige MMA alles
Zeige --A aktuell
Zeige --A Monat
Zeige --A alles
Keine MMA-Anzeige
MMA:
Average (ber die Originaldaten)
MMA-Basis: 23.02.2003 - 23.04.2020
Quicknavigation für Darstellung... ?
Tage:      1T, 2T, 3T, 5T -1T -2T -3T -5T +1T +2T +3T +5T
Wochen: 1W, 2W, 3W -1W -2W -3W +1W +2W +3W
Monate: 1M, 3M, 6M -1M -3M -6M +1M +3M +6M
Jahre:    1J, 3J, 5J, 10J -1J -3J -5J -10J +1J +3J +5J +10J
Nutze für die Darstellung ... ?
Originaldaten oder Mittelwerte auf ...
Stundenbasis Tagesbasis Wochenbasis
Monatsbasis Jahresbasis      Datenbasis: Original-Daten
Darstellen als:
Statistik (Auto) Statistik J:M      Darstellung:
Zur Graphik,    zurück zur Übersicht aller Sensoren.
 
Tabellarische Datenbersicht: ?
 
Sensor: Nr:Datum:Temp:Abs-Feuchte:Windchill:Wind:
Aussen-T/F 1 05-04-2017 00:00:00 8.2 C 6.03 g/m*3 8.2 C 0 km/h
2 05-04-2017 00:05:00 8.1 C 5.99 g/m*3 8.1 C 3.2 km/h
3 05-04-2017 00:10:00 7.9 C 6 g/m*3 7.9 C 1.6 km/h
4 05-04-2017 00:15:00 7.9 C 6 g/m*3 7.9 C 4.8 km/h
5 05-04-2017 00:20:00 8 C 6.04 g/m*3 8 C 4.8 km/h
6 05-04-2017 00:25:00 8.1 C 5.91 g/m*3 8.1 C 0 km/h
7 05-04-2017 00:30:00 8.1 C 5.91 g/m*3 8.1 C 0 km/h
8 05-04-2017 00:35:00 8 C 6.04 g/m*3 8 C 0 km/h
9 05-04-2017 00:40:00 7.8 C 6.04 g/m*3 7.8 C 0 km/h
10 05-04-2017 00:45:00 7.6 C 5.88 g/m*3 7.6 C 1.6 km/h
11 05-04-2017 00:50:00 7.4 C 5.81 g/m*3 7.4 C 0 km/h
12 05-04-2017 00:55:00 7.3 C 5.85 g/m*3 7.3 C 0 km/h
13 05-04-2017 01:00:00 7.1 C 5.77 g/m*3 7.1 C 0 km/h
14 05-04-2017 01:05:00 6.9 C 5.7 g/m*3 6.9 C 0 km/h
15 05-04-2017 01:10:00 6.8 C 5.74 g/m*3 6.8 C 0 km/h
16 05-04-2017 01:15:00 6.8 C 5.89 g/m*3 6.8 C 0 km/h
17 05-04-2017 01:20:00 6.6 C 5.89 g/m*3 6.6 C 0 km/h
18 05-04-2017 01:25:00 6.5 C 5.77 g/m*3 6.5 C 0 km/h
19 05-04-2017 01:30:00 6.4 C 5.74 g/m*3 6.4 C 0 km/h
20 05-04-2017 01:35:00 6.3 C 5.77 g/m*3 6.3 C 0 km/h
21 05-04-2017 01:40:00 6.1 C 5.77 g/m*3 6.1 C 0 km/h
22 05-04-2017 01:45:00 5.9 C 5.7 g/m*3 5.9 C 0 km/h
23 05-04-2017 01:50:00 5.8 C 5.73 g/m*3 5.8 C 0 km/h
24 05-04-2017 01:55:00 5.7 C 5.69 g/m*3 5.7 C 0 km/h
25 05-04-2017 02:00:00 5.6 C 5.59 g/m*3 5.6 C 0 km/h
Sensor: Nr:Datum:Temp:Abs-Feuchte:Windchill:Wind:
Aussen-T/F 26 05-04-2017 02:05:00 5.6 C 5.59 g/m*3 5.6 C 0 km/h
27 05-04-2017 02:10:00 5.6 C 5.66 g/m*3 5.6 C 0 km/h
28 05-04-2017 02:15:00 5.5 C 5.69 g/m*3 5.5 C 0 km/h
29 05-04-2017 02:20:00 5.3 C 5.61 g/m*3 5.3 C 0 km/h
30 05-04-2017 02:25:00 5.2 C 5.58 g/m*3 5.2 C 0 km/h
31 05-04-2017 02:30:00 5.1 C 5.61 g/m*3 5.1 C 0 km/h
32 05-04-2017 02:35:00 5.1 C 5.61 g/m*3 5.1 C 0 km/h
33 05-04-2017 02:40:00 5.1 C 5.68 g/m*3 5.1 C 0 km/h
34 05-04-2017 02:45:00 4.9 C 5.54 g/m*3 4.9 C 0 km/h
35 05-04-2017 02:50:00 4.9 C 5.6 g/m*3 4.9 C 0 km/h
36 05-04-2017 02:55:00 4.8 C 5.57 g/m*3 4.8 C 0 km/h
37 05-04-2017 03:00:00 4.7 C 5.53 g/m*3 4.7 C 0 km/h
38 05-04-2017 03:05:00 4.7 C 5.53 g/m*3 4.7 C 0 km/h
39 05-04-2017 03:10:00 4.6 C 5.56 g/m*3 4.6 C 0 km/h
40 05-04-2017 03:15:00 4.6 C 5.56 g/m*3 4.6 C 0 km/h
41 05-04-2017 03:20:00 4.5 C 5.52 g/m*3 4.5 C 3.2 km/h
42 05-04-2017 03:25:00 4.4 C 5.55 g/m*3 4.4 C 1.6 km/h
43 05-04-2017 03:30:00 4.4 C 5.55 g/m*3 4.4 C 0 km/h
44 05-04-2017 03:35:00 4.4 C 5.55 g/m*3 4.4 C 0 km/h
45 05-04-2017 03:40:00 4.4 C 5.55 g/m*3 4.4 C 0 km/h
46 05-04-2017 03:45:00 4.4 C 5.55 g/m*3 4.4 C 0 km/h
47 05-04-2017 03:50:00 4.3 C 5.51 g/m*3 4.3 C 0 km/h
48 05-04-2017 03:55:00 4.3 C 5.58 g/m*3 4.3 C 0 km/h
49 05-04-2017 04:00:00 4.3 C 5.58 g/m*3 4.3 C 0 km/h
50 05-04-2017 04:05:00 4.3 C 5.58 g/m*3 4.3 C 0 km/h
Sensor: Nr:Datum:Temp:Abs-Feuchte:Windchill:Wind:
Aussen-T/F 51 05-04-2017 04:10:00 4.3 C 5.58 g/m*3 4.3 C 0 km/h
52 05-04-2017 04:15:00 4.3 C 5.58 g/m*3 4.3 C 0 km/h
53 05-04-2017 04:20:00 4.2 C 5.61 g/m*3 4.2 C 3.2 km/h
54 05-04-2017 04:25:00 4.2 C 5.54 g/m*3 4.2 C 1.6 km/h
55 05-04-2017 04:30:00 4.2 C 5.54 g/m*3 4.2 C 0 km/h
56 05-04-2017 04:35:00 4.1 C 5.57 g/m*3 4.1 C 0 km/h
57 05-04-2017 04:40:00 4 C 5.47 g/m*3 4 C 0 km/h
58 05-04-2017 04:45:00 3.9 C 5.43 g/m*3 3.9 C 0 km/h
59 05-04-2017 04:50:00 3.7 C 5.42 g/m*3 3.7 C 0 km/h
60 05-04-2017 04:55:00 3.7 C 5.48 g/m*3 3.7 C 1.6 km/h
61 05-04-2017 05:00:00 3.7 C 5.48 g/m*3 3.7 C 0 km/h
62 05-04-2017 05:05:00 3.7 C 5.48 g/m*3 3.7 C 0 km/h
63 05-04-2017 05:10:00 3.7 C 5.48 g/m*3 3.7 C 0 km/h
64 05-04-2017 05:15:00 3.8 C 5.52 g/m*3 3.8 C 0 km/h
65 05-04-2017 05:20:00 3.8 C 5.52 g/m*3 3.8 C 0 km/h
66 05-04-2017 05:25:00 3.7 C 5.42 g/m*3 3.7 C 0 km/h
67 05-04-2017 05:30:00 3.6 C 5.45 g/m*3 3.6 C 0 km/h
68 05-04-2017 05:35:00 3.6 C 5.45 g/m*3 3.6 C 0 km/h
69 05-04-2017 05:40:00 3.5 C 5.41 g/m*3 3.5 C 0 km/h
70 05-04-2017 05:45:00 3.4 C 5.37 g/m*3 3.4 C 0 km/h
71 05-04-2017 05:50:00 3.4 C 5.44 g/m*3 3.4 C 0 km/h
72 05-04-2017 05:55:00 3.4 C 5.44 g/m*3 3.4 C 0 km/h
73 05-04-2017 06:00:00 3.4 C 5.44 g/m*3 3.4 C 0 km/h
74 05-04-2017 06:05:00 3.3 C 5.4 g/m*3 3.3 C 0 km/h
75 05-04-2017 06:10:00 3.2 C 5.36 g/m*3 3.2 C 0 km/h
Sensor: Nr:Datum:Temp:Abs-Feuchte:Windchill:Wind:
Aussen-T/F 76 05-04-2017 06:15:00 3.1 C 5.33 g/m*3 3.1 C 0 km/h
77 05-04-2017 06:20:00 3.1 C 5.33 g/m*3 3.1 C 0 km/h
78 05-04-2017 06:25:00 3 C 5.29 g/m*3 3 C 0 km/h
79 05-04-2017 06:30:00 3 C 5.35 g/m*3 3 C 0 km/h
80 05-04-2017 06:35:00 3 C 5.35 g/m*3 3 C 0 km/h
81 05-04-2017 06:40:00 3 C 5.35 g/m*3 3 C 0 km/h
82 05-04-2017 06:45:00 2.9 C 5.32 g/m*3 2.9 C 0 km/h
83 05-04-2017 06:50:00 2.9 C 5.32 g/m*3 2.9 C 0 km/h
84 05-04-2017 06:55:00 2.8 C 5.28 g/m*3 2.8 C 0 km/h
85 05-04-2017 07:00:00 2.8 C 5.28 g/m*3 2.8 C 0 km/h
86 05-04-2017 07:05:00 2.8 C 5.34 g/m*3 2.8 C 0 km/h
87 05-04-2017 07:10:00 2.9 C 5.37 g/m*3 2.9 C 1.6 km/h
88 05-04-2017 07:15:00 2.9 C 5.37 g/m*3 2.9 C 0 km/h
89 05-04-2017 07:20:00 2.9 C 5.37 g/m*3 2.9 C 1.6 km/h
90 05-04-2017 07:25:00 3.1 C 5.51 g/m*3 3.1 C 0 km/h
91 05-04-2017 07:30:00 3.2 C 5.54 g/m*3 3.2 C 0 km/h
92 05-04-2017 07:35:00 3.3 C 5.52 g/m*3 3.3 C 0 km/h
93 05-04-2017 07:40:00 3.3 C 5.52 g/m*3 3.3 C 0 km/h
94 05-04-2017 07:45:00 3.3 C 5.52 g/m*3 3.3 C 0 km/h
95 05-04-2017 07:50:00 3.3 C 5.52 g/m*3 3.3 C 0 km/h
96 05-04-2017 07:55:00 3.3 C 5.52 g/m*3 3.3 C 0 km/h
97 05-04-2017 08:00:00 3.3 C 5.52 g/m*3 3.3 C 0 km/h
98 05-04-2017 08:05:00 3.4 C 5.56 g/m*3 3.4 C 1.6 km/h
99 05-04-2017 08:10:00 3.5 C 5.6 g/m*3 3.5 C 0 km/h
100 05-04-2017 08:15:00 3.6 C 5.63 g/m*3 3.6 C 0 km/h
Sensor: Nr:Datum:Temp:Abs-Feuchte:Windchill:Wind:
Aussen-T/F 101 05-04-2017 08:20:00 3.6 C 5.63 g/m*3 3.6 C 3.2 km/h
102 05-04-2017 08:25:00 3.7 C 5.67 g/m*3 3.7 C 0 km/h
103 05-04-2017 08:30:00 3.8 C 5.71 g/m*3 3.8 C 1.6 km/h
104 05-04-2017 08:35:00 3.9 C 5.75 g/m*3 3.9 C 0 km/h
105 05-04-2017 08:40:00 4 C 5.79 g/m*3 4 C 1.6 km/h
106 05-04-2017 08:45:00 4.1 C 5.82 g/m*3 4.1 C 1.6 km/h
107 05-04-2017 08:50:00 4.2 C 5.86 g/m*3 4.2 C 1.6 km/h
108 05-04-2017 08:55:00 4.3 C 5.9 g/m*3 4.3 C 0 km/h
109 05-04-2017 09:00:00 4.4 C 5.94 g/m*3 4.4 C 0 km/h
110 05-04-2017 09:05:00 4.5 C 5.98 g/m*3 4.5 C 0 km/h
111 05-04-2017 09:10:00 4.6 C 6.02 g/m*3 4.6 C 0 km/h
112 05-04-2017 09:15:00 4.7 C 6 g/m*3 4.7 C 1.6 km/h
113 05-04-2017 09:20:00 4.8 C 6.1 g/m*3 4.8 C 0 km/h
114 05-04-2017 09:25:00 5 C 6.18 g/m*3 5 C 0 km/h
115 05-04-2017 09:30:00 5.2 C 6.27 g/m*3 5.2 C 0 km/h
116 05-04-2017 09:35:00 5.3 C 6.24 g/m*3 5.3 C 0 km/h
117 05-04-2017 09:40:00 5.6 C 6.29 g/m*3 5.6 C 1.6 km/h
118 05-04-2017 09:45:00 5.7 C 6.33 g/m*3 5.7 C 0 km/h
119 05-04-2017 09:50:00 5.9 C 6.42 g/m*3 5.9 C 0 km/h
120 05-04-2017 09:55:00 6.1 C 6.43 g/m*3 6.1 C 0 km/h
121 05-04-2017 10:00:00 6.2 C 6.47 g/m*3 6.2 C 0 km/h
122 05-04-2017 10:05:00 6.3 C 6.44 g/m*3 6.3 C 0 km/h
123 05-04-2017 10:10:00 6.6 C 6.57 g/m*3 6.6 C 0 km/h
124 05-04-2017 10:15:00 6.7 C 6.61 g/m*3 6.7 C 0 km/h
125 05-04-2017 10:20:00 7 C 6.59 g/m*3 7 C 1.6 km/h
Sensor: Nr:Datum:Temp:Abs-Feuchte:Windchill:Wind:
Aussen-T/F 126 05-04-2017 10:25:00 7.4 C 6.68 g/m*3 5.28 C 11.3 km/h
127 05-04-2017 10:30:00 8 C 6.78 g/m*3 7.06 C 6.4 km/h
128 05-04-2017 10:35:00 8.5 C 6.83 g/m*3 8.5 C 3.2 km/h
129 05-04-2017 10:40:00 8.8 C 6.96 g/m*3 8.8 C 1.6 km/h
130 05-04-2017 10:45:00 9.1 C 6.92 g/m*3 9.1 C 1.6 km/h
131 05-04-2017 10:50:00 9.3 C 7.1 g/m*3 9.3 C 0 km/h
132 05-04-2017 10:55:00 9.5 C 7.1 g/m*3 8.79 C 6.4 km/h
133 05-04-2017 11:00:00 9.9 C 7.19 g/m*3 9.25 C 6.4 km/h
134 05-04-2017 11:05:00 10.2 C 7.23 g/m*3 10.2 C 1.6 km/h
135 05-04-2017 11:10:00 10.3 C 7.18 g/m*3 10.3 C 4.8 km/h
136 05-04-2017 11:15:00 10.6 C 7.22 g/m*3 10.6 C 4.8 km/h
137 05-04-2017 11:20:00 10.9 C 7.26 g/m*3 10.04 C 8.1 km/h
138 05-04-2017 11:25:00 11.3 C 7.24 g/m*3 11.3 C 6.4 km/h
139 05-04-2017 11:30:00 11.7 C 7.22 g/m*3 11.7 C 11.3 km/h
140 05-04-2017 11:35:00 11.9 C 7.2 g/m*3 11.9 C 4.8 km/h
141 05-04-2017 11:40:00 12.2 C 7.23 g/m*3 12.2 C 8.1 km/h
142 05-04-2017 11:45:00 12.3 C 7.28 g/m*3 12.3 C 9.7 km/h
143 05-04-2017 11:50:00 12.5 C 7.26 g/m*3 12.5 C 9.7 km/h
144 05-04-2017 11:55:00 12.7 C 7.46 g/m*3 12.7 C 4.8 km/h
145 05-04-2017 12:00:00 12.9 C 7.33 g/m*3 12.9 C 6.4 km/h
146 05-04-2017 12:05:00 13.2 C 7.35 g/m*3 13.2 C 11.3 km/h
147 05-04-2017 12:10:00 13.4 C 7.09 g/m*3 13.4 C 11.3 km/h
148 05-04-2017 12:15:00 13.6 C 7.3 g/m*3 13.6 C 8.1 km/h
149 05-04-2017 12:20:00 13.7 C 7.46 g/m*3 13.7 C 9.7 km/h
150 05-04-2017 12:25:00 13.9 C 7.43 g/m*3 13.9 C 8.1 km/h
Sensor: Nr:Datum:Temp:Abs-Feuchte:Windchill:Wind:
Aussen-T/F 151 05-04-2017 12:30:00 13.9 C 7.31 g/m*3 13.9 C 6.4 km/h
152 05-04-2017 12:35:00 13.9 C 7.43 g/m*3 13.9 C 9.7 km/h
153 05-04-2017 12:40:00 13.9 C 7.31 g/m*3 13.9 C 11.3 km/h
154 05-04-2017 12:45:00 13.8 C 7.39 g/m*3 13.8 C 9.7 km/h
155 05-04-2017 12:50:00 13.8 C 7.27 g/m*3 13.8 C 14.5 km/h
156 05-04-2017 12:55:00 13.7 C 7.46 g/m*3 13.7 C 12.9 km/h
157 05-04-2017 13:00:00 13.7 C 7.46 g/m*3 13.7 C 12.9 km/h
158 05-04-2017 13:05:00 13.8 C 7.63 g/m*3 13.8 C 11.3 km/h
159 05-04-2017 13:10:00 13.8 C 7.51 g/m*3 13.8 C 12.9 km/h
160 05-04-2017 13:15:00 13.8 C 7.51 g/m*3 13.8 C 9.7 km/h
161 05-04-2017 13:20:00 13.9 C 7.55 g/m*3 13.9 C 20.9 km/h
162 05-04-2017 13:25:00 13.8 C 7.51 g/m*3 13.8 C 20.9 km/h
163 05-04-2017 13:30:00 13.8 C 7.74 g/m*3 13.8 C 12.9 km/h
164 05-04-2017 13:35:00 13.7 C 7.82 g/m*3 13.7 C 14.5 km/h
165 05-04-2017 13:40:00 13.7 C 7.82 g/m*3 13.7 C 16.1 km/h
166 05-04-2017 13:45:00 13.6 C 8 g/m*3 13.6 C 14.5 km/h
167 05-04-2017 13:50:00 13.5 C 7.95 g/m*3 13.5 C 16.1 km/h
168 05-04-2017 13:55:00 13.4 C 8.14 g/m*3 13.4 C 14.5 km/h
169 05-04-2017 14:00:00 13.4 C 8.14 g/m*3 13.4 C 14.5 km/h
170 05-04-2017 14:05:00 13.3 C 8.09 g/m*3 13.3 C 16.1 km/h
171 05-04-2017 14:10:00 13.1 C 8.1 g/m*3 13.1 C 19.3 km/h
172 05-04-2017 14:15:00 12.8 C 7.95 g/m*3 12.8 C 16.1 km/h
173 05-04-2017 14:20:00 12.7 C 7.9 g/m*3 12.7 C 22.5 km/h
174 05-04-2017 14:25:00 12.5 C 7.92 g/m*3 12.5 C 22.5 km/h
175 05-04-2017 14:30:00 12.4 C 7.87 g/m*3 12.4 C 17.7 km/h
Sensor: Nr:Datum:Temp:Abs-Feuchte:Windchill:Wind:
Aussen-T/F 176 05-04-2017 14:35:00 12.2 C 7.99 g/m*3 12.2 C 11.3 km/h
177 05-04-2017 14:40:00 12.1 C 7.94 g/m*3 12.1 C 16.1 km/h
178 05-04-2017 14:45:00 12.1 C 8.04 g/m*3 12.1 C 19.3 km/h
179 05-04-2017 14:50:00 12.3 C 8.04 g/m*3 12.3 C 16.1 km/h
180 05-04-2017 14:55:00 12.4 C 7.98 g/m*3 12.4 C 17.7 km/h
181 05-04-2017 15:00:00 12.2 C 7.88 g/m*3 12.2 C 14.5 km/h
182 05-04-2017 15:05:00 12.2 C 7.77 g/m*3 12.2 C 20.9 km/h
183 05-04-2017 15:10:00 12.1 C 7.83 g/m*3 12.1 C 17.7 km/h
184 05-04-2017 15:15:00 12.2 C 7.88 g/m*3 12.2 C 17.7 km/h
185 05-04-2017 15:20:00 12.3 C 7.82 g/m*3 12.3 C 19.3 km/h
186 05-04-2017 15:25:00 12.5 C 8.03 g/m*3 12.5 C 19.3 km/h
187 05-04-2017 15:30:00 12.7 C 8.01 g/m*3 12.7 C 17.7 km/h
188 05-04-2017 15:35:00 12.8 C 7.84 g/m*3 12.8 C 19.3 km/h
189 05-04-2017 15:40:00 12.7 C 7.9 g/m*3 12.7 C 12.9 km/h
190 05-04-2017 15:45:00 12.8 C 7.95 g/m*3 12.8 C 12.9 km/h
191 05-04-2017 15:50:00 12.8 C 7.73 g/m*3 12.8 C 12.9 km/h
192 05-04-2017 15:55:00 12.8 C 7.84 g/m*3 12.8 C 12.9 km/h
193 05-04-2017 16:00:00 12.7 C 7.79 g/m*3 12.7 C 16.1 km/h
194 05-04-2017 16:05:00 12.4 C 7.76 g/m*3 12.4 C 14.5 km/h
195 05-04-2017 16:10:00 12.4 C 7.87 g/m*3 12.4 C 6.4 km/h
196 05-04-2017 16:15:00 12.4 C 7.87 g/m*3 12.4 C 9.7 km/h
197 05-04-2017 16:20:00 12.4 C 7.87 g/m*3 12.4 C 6.4 km/h
198 05-04-2017 16:25:00 12.5 C 8.03 g/m*3 12.5 C 8.1 km/h
199 05-04-2017 16:30:00 12.6 C 7.74 g/m*3 12.6 C 11.3 km/h
200 05-04-2017 16:35:00 12.6 C 7.63 g/m*3 12.6 C 12.9 km/h
Sensor: Nr:Datum:Temp:Abs-Feuchte:Windchill:Wind:
Aussen-T/F 201 05-04-2017 16:40:00 12.6 C 7.63 g/m*3 12.6 C 12.9 km/h
202 05-04-2017 16:45:00 12.7 C 7.79 g/m*3 12.7 C 8.1 km/h
203 05-04-2017 16:50:00 12.7 C 7.68 g/m*3 12.7 C 12.9 km/h
204 05-04-2017 16:55:00 12.6 C 7.74 g/m*3 12.6 C 11.3 km/h
205 05-04-2017 17:00:00 12.6 C 7.74 g/m*3 12.6 C 12.9 km/h
206 05-04-2017 17:05:00 12.6 C 7.85 g/m*3 12.6 C 9.7 km/h
207 05-04-2017 17:10:00 12.7 C 7.9 g/m*3 12.7 C 6.4 km/h
208 05-04-2017 17:15:00 12.9 C 7.89 g/m*3 12.9 C 11.3 km/h
209 05-04-2017 17:20:00 13 C 7.71 g/m*3 13 C 11.3 km/h
210 05-04-2017 17:25:00 13 C 7.71 g/m*3 13 C 16.1 km/h
211 05-04-2017 17:30:00 13 C 7.71 g/m*3 13 C 14.5 km/h
212 05-04-2017 17:35:00 13 C 7.6 g/m*3 13 C 16.1 km/h
213 05-04-2017 17:40:00 12.9 C 7.66 g/m*3 12.9 C 11.3 km/h
214 05-04-2017 17:45:00 12.8 C 7.62 g/m*3 12.8 C 11.3 km/h
215 05-04-2017 17:50:00 12.8 C 7.73 g/m*3 12.8 C 6.4 km/h
216 05-04-2017 17:55:00 12.8 C 7.62 g/m*3 12.8 C 9.7 km/h
217 05-04-2017 18:00:00 12.8 C 7.62 g/m*3 12.8 C 8.1 km/h
218 05-04-2017 18:05:00 12.8 C 7.5 g/m*3 12.8 C 12.9 km/h
219 05-04-2017 18:10:00 12.7 C 7.46 g/m*3 12.7 C 14.5 km/h
220 05-04-2017 18:15:00 12.7 C 7.46 g/m*3 12.7 C 16.1 km/h
221 05-04-2017 18:20:00 12.7 C 7.57 g/m*3 12.7 C 12.9 km/h
222 05-04-2017 18:25:00 12.6 C 7.52 g/m*3 12.6 C 12.9 km/h
223 05-04-2017 18:30:00 12.6 C 7.52 g/m*3 12.6 C 11.3 km/h
224 05-04-2017 18:35:00 12.5 C 7.59 g/m*3 12.5 C 9.7 km/h
225 05-04-2017 18:40:00 12.4 C 7.54 g/m*3 12.4 C 14.5 km/h
Sensor: Nr:Datum:Temp:Abs-Feuchte:Windchill:Wind:
Aussen-T/F 226 05-04-2017 18:45:00 12.4 C 7.65 g/m*3 12.4 C 12.9 km/h
227 05-04-2017 18:50:00 12.4 C 7.76 g/m*3 12.4 C 14.5 km/h
228 05-04-2017 18:55:00 12.3 C 7.6 g/m*3 12.3 C 11.3 km/h
229 05-04-2017 19:00:00 12.3 C 7.71 g/m*3 12.3 C 14.5 km/h
230 05-04-2017 19:05:00 12.3 C 7.6 g/m*3 12.3 C 12.9 km/h
231 05-04-2017 19:10:00 12.2 C 7.55 g/m*3 12.2 C 11.3 km/h
232 05-04-2017 19:15:00 12.2 C 7.55 g/m*3 12.2 C 8.1 km/h
233 05-04-2017 19:20:00 12.2 C 7.55 g/m*3 12.2 C 11.3 km/h
234 05-04-2017 19:25:00 12.2 C 7.55 g/m*3 12.2 C 11.3 km/h
235 05-04-2017 19:30:00 12.2 C 7.45 g/m*3 12.2 C 8.1 km/h
236 05-04-2017 19:35:00 12.2 C 7.34 g/m*3 12.2 C 8.1 km/h
237 05-04-2017 19:40:00 12.2 C 7.23 g/m*3 12.2 C 9.7 km/h
238 05-04-2017 19:45:00 12.2 C 7.23 g/m*3 12.2 C 6.4 km/h
239 05-04-2017 19:50:00 12.1 C 7.08 g/m*3 12.1 C 4.8 km/h
240 05-04-2017 19:55:00 12.1 C 6.86 g/m*3 12.1 C 11.3 km/h
241 05-04-2017 20:00:00 12 C 6.93 g/m*3 12 C 6.4 km/h
242 05-04-2017 20:05:00 11.9 C 6.99 g/m*3 11.9 C 6.4 km/h
243 05-04-2017 20:10:00 11.7 C 6.9 g/m*3 11.7 C 3.2 km/h
244 05-04-2017 20:15:00 11.6 C 6.86 g/m*3 11.6 C 6.4 km/h
245 05-04-2017 20:20:00 11.4 C 6.88 g/m*3 11.4 C 1.6 km/h
246 05-04-2017 20:25:00 11.2 C 6.89 g/m*3 11.2 C 4.8 km/h
247 05-04-2017 20:30:00 10.9 C 6.76 g/m*3 10.04 C 8.1 km/h
248 05-04-2017 20:35:00 10.9 C 6.76 g/m*3 10.41 C 6.4 km/h
249 05-04-2017 20:40:00 10.8 C 6.72 g/m*3 10.8 C 3.2 km/h
250 05-04-2017 20:45:00 10.7 C 6.78 g/m*3 10.7 C 4.8 km/h
Sensor: Nr:Datum:Temp:Abs-Feuchte:Windchill:Wind:
Aussen-T/F 251 05-04-2017 20:50:00 10.7 C 6.68 g/m*3 9.52 C 9.7 km/h
252 05-04-2017 20:55:00 10.8 C 6.72 g/m*3 10.29 C 6.4 km/h
253 05-04-2017 21:00:00 10.9 C 6.66 g/m*3 10.04 C 8.1 km/h
254 05-04-2017 21:05:00 11.1 C 6.75 g/m*3 11.1 C 11.3 km/h
255 05-04-2017 21:10:00 11.2 C 6.69 g/m*3 11.2 C 11.3 km/h
256 05-04-2017 21:15:00 11.3 C 6.63 g/m*3 11.3 C 12.9 km/h
257 05-04-2017 21:20:00 11.3 C 6.73 g/m*3 11.3 C 11.3 km/h
258 05-04-2017 21:25:00 11.3 C 6.73 g/m*3 11.3 C 14.5 km/h
259 05-04-2017 21:30:00 11.3 C 6.73 g/m*3 11.3 C 11.3 km/h
260 05-04-2017 21:35:00 11.2 C 6.69 g/m*3 11.2 C 14.5 km/h
261 05-04-2017 21:40:00 11.2 C 6.69 g/m*3 11.2 C 17.7 km/h
262 05-04-2017 21:45:00 11.1 C 6.65 g/m*3 11.1 C 16.1 km/h
263 05-04-2017 21:50:00 11 C 6.61 g/m*3 9.4 C 12.9 km/h
264 05-04-2017 21:55:00 10.9 C 6.56 g/m*3 9.51 C 11.3 km/h
265 05-04-2017 22:00:00 10.8 C 6.52 g/m*3 9.64 C 9.7 km/h
266 05-04-2017 22:05:00 10.8 C 6.52 g/m*3 9.16 C 12.9 km/h
267 05-04-2017 22:10:00 10.7 C 6.48 g/m*3 9.26 C 11.3 km/h
268 05-04-2017 22:15:00 10.6 C 6.44 g/m*3 10.06 C 6.4 km/h
269 05-04-2017 22:20:00 10.6 C 6.54 g/m*3 9.4 C 9.7 km/h
270 05-04-2017 22:25:00 10.4 C 6.46 g/m*3 9.83 C 6.4 km/h
271 05-04-2017 22:30:00 10.4 C 6.46 g/m*3 9.16 C 9.7 km/h
272 05-04-2017 22:35:00 10.3 C 6.51 g/m*3 9.34 C 8.1 km/h
273 05-04-2017 22:40:00 10.3 C 6.51 g/m*3 9.72 C 6.4 km/h
274 05-04-2017 22:45:00 10.1 C 6.34 g/m*3 7.73 C 17.7 km/h
275 05-04-2017 22:50:00 10.1 C 6.34 g/m*3 7.91 C 16.1 km/h
Sensor: Nr:Datum:Temp:Abs-Feuchte:Windchill:Wind:
Aussen-T/F 276 05-04-2017 22:55:00 10 C 6.3 g/m*3 7.78 C 16.1 km/h
277 05-04-2017 23:00:00 9.9 C 6.26 g/m*3 9.9 C 4.8 km/h
278 05-04-2017 23:05:00 9.8 C 6.22 g/m*3 9.14 C 6.4 km/h
279 05-04-2017 23:10:00 9.7 C 6.27 g/m*3 8.33 C 9.7 km/h
280 05-04-2017 23:15:00 9.6 C 6.23 g/m*3 7.48 C 14.5 km/h
281 05-04-2017 23:20:00 9.6 C 6.32 g/m*3 8.52 C 8.1 km/h
282 05-04-2017 23:25:00 9.6 C 6.32 g/m*3 7.94 C 11.3 km/h
283 05-04-2017 23:30:00 9.6 C 6.32 g/m*3 7.7 C 12.9 km/h
284 05-04-2017 23:35:00 9.6 C 6.41 g/m*3 7.94 C 11.3 km/h
285 05-04-2017 23:40:00 9.5 C 6.37 g/m*3 8.4 C 8.1 km/h
286 05-04-2017 23:45:00 9.4 C 6.33 g/m*3 9.4 C 3.2 km/h
287 05-04-2017 23:50:00 9.4 C 6.42 g/m*3 7.46 C 12.9 km/h
288 05-04-2017 23:55:00 9.3 C 6.38 g/m*3 8.56 C 6.4 km/h
289 06-04-2017 00:00:00 9.3 C 6.38 g/m*3 7.58 C 11.3 km/h
290 06-04-2017 00:05:00 9.3 C 6.29 g/m*3 6.56 C 19.3 km/h
291 06-04-2017 00:10:00 9.3 C 6.29 g/m*3 7.12 C 14.5 km/h
292 06-04-2017 00:15:00 9.2 C 6.25 g/m*3 7.21 C 12.9 km/h
293 06-04-2017 00:20:00 9.3 C 6.29 g/m*3 7.33 C 12.9 km/h
294 06-04-2017 00:25:00 9.2 C 6.34 g/m*3 7.73 C 9.7 km/h
295 06-04-2017 00:30:00 9.2 C 6.34 g/m*3 7.46 C 11.3 km/h
296 06-04-2017 00:35:00 9.2 C 6.34 g/m*3 8.45 C 6.4 km/h
297 06-04-2017 00:40:00 9.1 C 6.39 g/m*3 7.93 C 8.1 km/h
298 06-04-2017 00:45:00 9 C 6.26 g/m*3 6.75 C 14.5 km/h
299 06-04-2017 00:50:00 9 C 6.26 g/m*3 7.21 C 11.3 km/h
300 06-04-2017 00:55:00 9 C 6.26 g/m*3 7.49 C 9.7 km/h
Sensor: Nr:Datum:Temp:Abs-Feuchte:Windchill:Wind:
Aussen-T/F 301 06-04-2017 01:00:00 8.9 C 6.22 g/m*3 7.37 C 9.7 km/h
302 06-04-2017 01:05:00 8.9 C 6.22 g/m*3 7.69 C 8.1 km/h
303 06-04-2017 01:10:00 8.8 C 6.18 g/m*3 7.25 C 9.7 km/h
304 06-04-2017 01:15:00 8.8 C 6.18 g/m*3 7.25 C 9.7 km/h
305 06-04-2017 01:20:00 8.8 C 6.18 g/m*3 8.8 C 3.2 km/h
306 06-04-2017 01:25:00 8.7 C 6.14 g/m*3 7.46 C 8.1 km/h
307 06-04-2017 01:30:00 8.7 C 6.14 g/m*3 7.13 C 9.7 km/h
308 06-04-2017 01:35:00 8.6 C 6.1 g/m*3 7.01 C 9.7 km/h
309 06-04-2017 01:40:00 8.5 C 6.15 g/m*3 7.64 C 6.4 km/h
310 06-04-2017 01:45:00 8.3 C 6.15 g/m*3 8.3 C 3.2 km/h
311 06-04-2017 01:50:00 8.2 C 6.03 g/m*3 6.54 C 9.7 km/h
312 06-04-2017 01:55:00 8.2 C 6.11 g/m*3 7.29 C 6.4 km/h
313 06-04-2017 02:00:00 8 C 6.04 g/m*3 6.3 C 9.7 km/h
314 06-04-2017 02:05:00 7.9 C 6 g/m*3 5.63 C 12.9 km/h
315 06-04-2017 02:10:00 7.9 C 6 g/m*3 6.52 C 8.1 km/h
316 06-04-2017 02:15:00 7.8 C 6.04 g/m*3 7.8 C 4.8 km/h
317 06-04-2017 02:20:00 7.8 C 6.04 g/m*3 7.8 C 4.8 km/h
318 06-04-2017 02:25:00 7.7 C 6 g/m*3 7.7 C 3.2 km/h
319 06-04-2017 02:30:00 7.4 C 5.88 g/m*3 7.4 C 3.2 km/h
320 06-04-2017 02:35:00 7.2 C 6.04 g/m*3 7.2 C 4.8 km/h
321 06-04-2017 02:40:00 7 C 5.97 g/m*3 7 C 1.6 km/h
322 06-04-2017 02:45:00 6.8 C 6.04 g/m*3 6.8 C 4.8 km/h
323 06-04-2017 02:50:00 6.6 C 6.04 g/m*3 6.6 C 3.2 km/h
324 06-04-2017 02:55:00 6.5 C 6.07 g/m*3 5.33 C 6.4 km/h
325 06-04-2017 03:00:00 6.5 C 6.07 g/m*3 5.33 C 6.4 km/h
Sensor: Nr:Datum:Temp:Abs-Feuchte:Windchill:Wind:
Aussen-T/F 326 06-04-2017 03:05:00 6.4 C 6.11 g/m*3 6.4 C 3.2 km/h
327 06-04-2017 03:10:00 6.5 C 6.15 g/m*3 6.5 C 4.8 km/h
328 06-04-2017 03:15:00 6.5 C 6.15 g/m*3 6.5 C 4.8 km/h
329 06-04-2017 03:20:00 6.4 C 6.11 g/m*3 6.4 C 0 km/h
330 06-04-2017 03:25:00 6.4 C 6.11 g/m*3 6.4 C 3.2 km/h
331 06-04-2017 03:30:00 6.3 C 6.14 g/m*3 6.3 C 4.8 km/h
332 06-04-2017 03:35:00 6.3 C 6.14 g/m*3 6.3 C 0 km/h
333 06-04-2017 03:40:00 6.3 C 6.14 g/m*3 6.3 C 4.8 km/h
334 06-04-2017 03:45:00 6.3 C 6.14 g/m*3 6.3 C 4.8 km/h
335 06-04-2017 03:50:00 6.2 C 6.03 g/m*3 6.2 C 3.2 km/h
336 06-04-2017 03:55:00 6 C 6.02 g/m*3 6 C 3.2 km/h
337 06-04-2017 04:00:00 5.9 C 5.98 g/m*3 4.17 C 8.1 km/h
338 06-04-2017 04:05:00 5.7 C 5.91 g/m*3 5.7 C 0 km/h
339 06-04-2017 04:10:00 5.6 C 5.94 g/m*3 5.6 C 1.6 km/h
340 06-04-2017 04:15:00 5.5 C 5.97 g/m*3 5.5 C 1.6 km/h
341 06-04-2017 04:20:00 5.6 C 6.08 g/m*3 5.6 C 0 km/h
342 06-04-2017 04:25:00 5.7 C 6.19 g/m*3 5.7 C 0 km/h
343 06-04-2017 04:30:00 5.7 C 6.19 g/m*3 5.7 C 0 km/h
344 06-04-2017 04:35:00 5.8 C 6.23 g/m*3 5.8 C 1.6 km/h
345 06-04-2017 04:40:00 5.9 C 6.2 g/m*3 5.9 C 3.2 km/h
346 06-04-2017 04:45:00 6 C 6.24 g/m*3 6 C 3.2 km/h
347 06-04-2017 04:50:00 6.1 C 6.28 g/m*3 6.1 C 1.6 km/h
348 06-04-2017 04:55:00 6.2 C 6.32 g/m*3 6.2 C 1.6 km/h
349 06-04-2017 05:00:00 6.2 C 6.4 g/m*3 6.2 C 1.6 km/h
350 06-04-2017 05:05:00 6.3 C 6.44 g/m*3 6.3 C 0 km/h
Sensor: Nr:Datum:Temp:Abs-Feuchte:Windchill:Wind:
Aussen-T/F 351 06-04-2017 05:10:00 6.3 C 6.51 g/m*3 6.3 C 3.2 km/h
352 06-04-2017 05:15:00 6.2 C 6.47 g/m*3 6.2 C 0 km/h
353 06-04-2017 05:20:00 6.2 C 6.47 g/m*3 6.2 C 0 km/h
354 06-04-2017 05:25:00 6.2 C 6.47 g/m*3 6.2 C 0 km/h
355 06-04-2017 05:30:00 6.2 C 6.47 g/m*3 6.2 C 1.6 km/h
356 06-04-2017 05:35:00 6.2 C 6.47 g/m*3 6.2 C 1.6 km/h
357 06-04-2017 05:40:00 6.2 C 6.55 g/m*3 6.2 C 1.6 km/h
358 06-04-2017 05:45:00 6.2 C 6.55 g/m*3 4.52 C 8.1 km/h
359 06-04-2017 05:50:00 6.3 C 6.59 g/m*3 6.3 C 3.2 km/h
360 06-04-2017 05:55:00 6.3 C 6.51 g/m*3 4.27 C 9.7 km/h
361 06-04-2017 06:00:00 6.3 C 6.51 g/m*3 6.3 C 4.8 km/h
362 06-04-2017 06:05:00 6.3 C 6.51 g/m*3 4.64 C 8.1 km/h
363 06-04-2017 06:10:00 6.3 C 6.51 g/m*3 6.3 C 3.2 km/h
364 06-04-2017 06:15:00 6.3 C 6.51 g/m*3 6.3 C 4.8 km/h
365 06-04-2017 06:20:00 6.3 C 6.51 g/m*3 5.1 C 6.4 km/h
366 06-04-2017 06:25:00 6.4 C 6.48 g/m*3 5.21 C 6.4 km/h
367 06-04-2017 06:30:00 6.4 C 6.48 g/m*3 6.4 C 4.8 km/h
368 06-04-2017 06:35:00 6.4 C 6.48 g/m*3 5.21 C 6.4 km/h
369 06-04-2017 06:40:00 6.4 C 6.48 g/m*3 6.4 C 4.8 km/h
370 06-04-2017 06:45:00 6.4 C 6.41 g/m*3 5.21 C 6.4 km/h
371 06-04-2017 06:50:00 6.5 C 6.45 g/m*3 5.33 C 6.4 km/h
372 06-04-2017 06:55:00 6.5 C 6.45 g/m*3 6.5 C 3.2 km/h
373 06-04-2017 07:00:00 6.5 C 6.45 g/m*3 6.5 C 4.8 km/h
374 06-04-2017 07:05:00 6.5 C 6.45 g/m*3 6.5 C 3.2 km/h
375 06-04-2017 07:10:00 6.4 C 6.41 g/m*3 6.4 C 3.2 km/h
Sensor: Nr:Datum:Temp:Abs-Feuchte:Windchill:Wind:
Aussen-T/F 376 06-04-2017 07:15:00 6.4 C 6.41 g/m*3 6.4 C 4.8 km/h
377 06-04-2017 07:20:00 6.4 C 6.41 g/m*3 6.4 C 1.6 km/h
378 06-04-2017 07:25:00 6.4 C 6.41 g/m*3 6.4 C 1.6 km/h
379 06-04-2017 07:30:00 6.4 C 6.41 g/m*3 6.4 C 3.2 km/h
380 06-04-2017 07:35:00 6.4 C 6.41 g/m*3 6.4 C 3.2 km/h
381 06-04-2017 07:40:00 6.5 C 6.45 g/m*3 5.33 C 6.4 km/h
382 06-04-2017 07:45:00 6.5 C 6.45 g/m*3 6.5 C 3.2 km/h
383 06-04-2017 07:50:00 6.5 C 6.45 g/m*3 6.5 C 3.2 km/h
384 06-04-2017 07:55:00 6.5 C 6.45 g/m*3 6.5 C 4.8 km/h
385 06-04-2017 08:00:00 6.5 C 6.45 g/m*3 5.33 C 6.4 km/h
386 06-04-2017 08:05:00 6.5 C 6.37 g/m*3 6.5 C 4.8 km/h
387 06-04-2017 08:10:00 6.6 C 6.42 g/m*3 6.6 C 1.6 km/h
388 06-04-2017 08:15:00 6.6 C 6.42 g/m*3 5.44 C 6.4 km/h
389 06-04-2017 08:20:00 6.6 C 6.42 g/m*3 6.6 C 4.8 km/h
390 06-04-2017 08:25:00 6.6 C 6.42 g/m*3 5.44 C 6.4 km/h
391 06-04-2017 08:30:00 6.6 C 6.42 g/m*3 6.6 C 4.8 km/h
392 06-04-2017 08:35:00 6.6 C 6.42 g/m*3 6.6 C 4.8 km/h
393 06-04-2017 08:40:00 6.7 C 6.46 g/m*3 6.7 C 3.2 km/h
394 06-04-2017 08:45:00 6.7 C 6.46 g/m*3 6.7 C 4.8 km/h
395 06-04-2017 08:50:00 6.7 C 6.46 g/m*3 6.7 C 3.2 km/h
396 06-04-2017 08:55:00 6.7 C 6.46 g/m*3 5.11 C 8.1 km/h
397 06-04-2017 09:00:00 6.8 C 6.5 g/m*3 5.22 C 8.1 km/h
398 06-04-2017 09:05:00 6.8 C 6.5 g/m*3 5.22 C 8.1 km/h
399 06-04-2017 09:10:00 6.8 C 6.5 g/m*3 5.22 C 8.1 km/h
400 06-04-2017 09:15:00 6.9 C 6.47 g/m*3 6.9 C 4.8 km/h
Sensor: Nr:Datum:Temp:Abs-Feuchte:Windchill:Wind:
Aussen-T/F 401 06-04-2017 09:20:00 6.9 C 6.47 g/m*3 5.79 C 6.4 km/h
402 06-04-2017 09:25:00 7.1 C 6.55 g/m*3 5.23 C 9.7 km/h
403 06-04-2017 09:30:00 7.2 C 6.59 g/m*3 6.13 C 6.4 km/h
404 06-04-2017 09:35:00 7.3 C 6.64 g/m*3 7.3 C 4.8 km/h
405 06-04-2017 09:40:00 7.5 C 6.56 g/m*3 5.14 C 12.9 km/h
406 06-04-2017 09:45:00 7.6 C 6.44 g/m*3 5.02 C 14.5 km/h
407 06-04-2017 09:50:00 7.7 C 6.41 g/m*3 5.15 C 14.5 km/h
408 06-04-2017 09:55:00 7.7 C 6.41 g/m*3 5.65 C 11.3 km/h
409 06-04-2017 10:00:00 7.8 C 6.45 g/m*3 6.4 C 8.1 km/h
410 06-04-2017 10:05:00 7.8 C 6.37 g/m*3 6.4 C 8.1 km/h
411 06-04-2017 10:10:00 7.7 C 6.16 g/m*3 5.65 C 11.3 km/h
412 06-04-2017 10:15:00 7.7 C 6.16 g/m*3 5.94 C 9.7 km/h
413 06-04-2017 10:20:00 7.7 C 6.24 g/m*3 5.94 C 9.7 km/h
414 06-04-2017 10:25:00 7.8 C 6.37 g/m*3 6.83 C 6.4 km/h
415 06-04-2017 10:30:00 7.9 C 6.41 g/m*3 6.94 C 6.4 km/h
416 06-04-2017 10:35:00 8 C 6.28 g/m*3 6.01 C 11.3 km/h
417 06-04-2017 10:40:00 8.2 C 6.36 g/m*3 5.99 C 12.9 km/h
418 06-04-2017 10:45:00 8.3 C 6.32 g/m*3 5.89 C 14.5 km/h
419 06-04-2017 10:50:00 8.4 C 6.36 g/m*3 6.78 C 9.7 km/h
420 06-04-2017 10:55:00 8.4 C 6.36 g/m*3 7.11 C 8.1 km/h
421 06-04-2017 11:00:00 8.6 C 6.36 g/m*3 7.01 C 9.7 km/h
422 06-04-2017 11:05:00 8.7 C 6.4 g/m*3 7.87 C 6.4 km/h
423 06-04-2017 11:10:00 8.8 C 6.44 g/m*3 7.25 C 9.7 km/h
424 06-04-2017 11:15:00 8.8 C 6.44 g/m*3 6.97 C 11.3 km/h
425 06-04-2017 11:20:00 8.9 C 6.39 g/m*3 8.1 C 6.4 km/h
Sensor: Nr:Datum:Temp:Abs-Feuchte:Windchill:Wind:
Aussen-T/F 426 06-04-2017 11:25:00 9.1 C 6.48 g/m*3 7.61 C 9.7 km/h
427 06-04-2017 11:30:00 9.2 C 6.52 g/m*3 8.05 C 8.1 km/h
428 06-04-2017 11:35:00 9.1 C 6.39 g/m*3 7.33 C 11.3 km/h
429 06-04-2017 11:40:00 9.1 C 6.39 g/m*3 7.33 C 11.3 km/h
430 06-04-2017 11:45:00 9 C 6.35 g/m*3 8.21 C 6.4 km/h
431 06-04-2017 11:50:00 9.1 C 6.21 g/m*3 7.61 C 9.7 km/h
432 06-04-2017 11:55:00 9.1 C 6.12 g/m*3 7.61 C 9.7 km/h
433 06-04-2017 12:00:00 9.1 C 6.12 g/m*3 7.33 C 11.3 km/h
434 06-04-2017 12:05:00 9.2 C 6.16 g/m*3 8.05 C 8.1 km/h
435 06-04-2017 12:10:00 9.3 C 6.29 g/m*3 7.33 C 12.9 km/h
436 06-04-2017 12:15:00 9.3 C 6.2 g/m*3 7.85 C 9.7 km/h
437 06-04-2017 12:20:00 9.4 C 6.42 g/m*3 7.97 C 9.7 km/h
438 06-04-2017 12:25:00 9.5 C 6.37 g/m*3 7.82 C 11.3 km/h
439 06-04-2017 12:30:00 9.6 C 6.41 g/m*3 7.48 C 14.5 km/h
440 06-04-2017 12:35:00 9.5 C 6.28 g/m*3 7.58 C 12.9 km/h
441 06-04-2017 12:40:00 9.5 C 6.19 g/m*3 7.58 C 12.9 km/h
442 06-04-2017 12:45:00 9.5 C 6.28 g/m*3 7.58 C 12.9 km/h
443 06-04-2017 12:50:00 9.7 C 6.27 g/m*3 7.82 C 12.9 km/h
444 06-04-2017 12:55:00 9.7 C 6.08 g/m*3 7.82 C 12.9 km/h
445 06-04-2017 13:00:00 9.7 C 6.18 g/m*3 8.33 C 9.7 km/h
446 06-04-2017 13:05:00 9.9 C 6.26 g/m*3 8.3 C 11.3 km/h
447 06-04-2017 13:10:00 9.9 C 6.16 g/m*3 7.85 C 14.5 km/h
448 06-04-2017 13:15:00 9.9 C 6.16 g/m*3 7.85 C 14.5 km/h
449 06-04-2017 13:20:00 10 C 6.2 g/m*3 8.68 C 9.7 km/h
450 06-04-2017 13:25:00 10.1 C 6.24 g/m*3 8.8 C 9.7 km/h
Sensor: Nr:Datum:Temp:Abs-Feuchte:Windchill:Wind:
Aussen-T/F 451 06-04-2017 13:30:00 10.2 C 6.28 g/m*3 8.03 C 16.1 km/h
452 06-04-2017 13:35:00 10 C 6.2 g/m*3 8.19 C 12.9 km/h
453 06-04-2017 13:40:00 10.1 C 6.34 g/m*3 8.54 C 11.3 km/h
454 06-04-2017 13:45:00 10.2 C 6.38 g/m*3 8.43 C 12.9 km/h
455 06-04-2017 13:50:00 10.3 C 6.32 g/m*3 9.04 C 9.7 km/h
456 06-04-2017 13:55:00 10.6 C 6.34 g/m*3 8.05 C 20.9 km/h
457 06-04-2017 14:00:00 10.5 C 6.11 g/m*3 8.23 C 17.7 km/h
458 06-04-2017 14:05:00 10.6 C 6.34 g/m*3 8.92 C 12.9 km/h
459 06-04-2017 14:10:00 10.6 C 6.15 g/m*3 8.92 C 12.9 km/h
460 06-04-2017 14:15:00 10.7 C 6.19 g/m*3 9.52 C 9.7 km/h
461 06-04-2017 14:20:00 10.9 C 6.37 g/m*3 9.51 C 11.3 km/h
462 06-04-2017 14:25:00 10.9 C 6.17 g/m*3 8.9 C 16.1 km/h
463 06-04-2017 14:30:00 10.8 C 6.23 g/m*3 9.38 C 11.3 km/h
464 06-04-2017 14:35:00 10.9 C 6.27 g/m*3 9.51 C 11.3 km/h
465 06-04-2017 14:40:00 11.2 C 6.39 g/m*3 11.2 C 11.3 km/h
466 06-04-2017 14:45:00 11.4 C 6.26 g/m*3 11.4 C 12.9 km/h
467 06-04-2017 14:50:00 11.3 C 5.81 g/m*3 11.3 C 17.7 km/h
468 06-04-2017 14:55:00 11.2 C 5.98 g/m*3 11.2 C 11.3 km/h
469 06-04-2017 15:00:00 11.2 C 6.08 g/m*3 11.2 C 19.3 km/h
470 06-04-2017 15:05:00 11.3 C 6.12 g/m*3 11.3 C 12.9 km/h
471 06-04-2017 15:10:00 11.3 C 6.12 g/m*3 11.3 C 9.7 km/h
472 06-04-2017 15:15:00 11.4 C 6.26 g/m*3 11.4 C 11.3 km/h
473 06-04-2017 15:20:00 11.3 C 6.12 g/m*3 11.3 C 11.3 km/h
474 06-04-2017 15:25:00 11.3 C 5.92 g/m*3 11.3 C 11.3 km/h
475 06-04-2017 15:30:00 11.3 C 6.02 g/m*3 11.3 C 12.9 km/h
Sensor: Nr:Datum:Temp:Abs-Feuchte:Windchill:Wind:
Aussen-T/F 476 06-04-2017 15:35:00 11.3 C 6.12 g/m*3 11.3 C 11.3 km/h
477 06-04-2017 15:40:00 11.4 C 6.06 g/m*3 11.4 C 14.5 km/h
478 06-04-2017 15:45:00 11.4 C 6.06 g/m*3 11.4 C 9.7 km/h
479 06-04-2017 15:50:00 11.5 C 5.99 g/m*3 11.5 C 14.5 km/h
480 06-04-2017 15:55:00 11.7 C 5.86 g/m*3 11.7 C 14.5 km/h
481 06-04-2017 16:00:00 11.6 C 5.82 g/m*3 11.6 C 12.9 km/h
482 06-04-2017 16:05:00 11.7 C 5.96 g/m*3 11.7 C 9.7 km/h
483 06-04-2017 16:10:00 11.8 C 5.89 g/m*3 11.8 C 16.1 km/h
484 06-04-2017 16:15:00 11.7 C 5.96 g/m*3 11.7 C 14.5 km/h
485 06-04-2017 16:20:00 11.7 C 5.96 g/m*3 11.7 C 11.3 km/h
486 06-04-2017 16:25:00 11.6 C 5.92 g/m*3 11.6 C 16.1 km/h
487 06-04-2017 16:30:00 11.6 C 6.03 g/m*3 11.6 C 8.1 km/h
488 06-04-2017 16:35:00 11.7 C 5.96 g/m*3 11.7 C 11.3 km/h
489 06-04-2017 16:40:00 11.8 C 5.89 g/m*3 11.8 C 9.7 km/h
490 06-04-2017 16:45:00 12.3 C 5.97 g/m*3 12.3 C 12.9 km/h
491 06-04-2017 16:50:00 12.2 C 5.83 g/m*3 12.2 C 12.9 km/h
492 06-04-2017 16:55:00 12 C 5.75 g/m*3 12 C 12.9 km/h
493 06-04-2017 17:00:00 12 C 5.86 g/m*3 12 C 8.1 km/h
494 06-04-2017 17:05:00 12.1 C 6.01 g/m*3 12.1 C 3.2 km/h
495 06-04-2017 17:10:00 12.2 C 6.04 g/m*3 12.2 C 6.4 km/h
496 06-04-2017 17:15:00 12.5 C 6.16 g/m*3 12.5 C 11.3 km/h
497 06-04-2017 17:20:00 12.7 C 6.12 g/m*3 12.7 C 12.9 km/h
498 06-04-2017 17:25:00 12.8 C 6.27 g/m*3 12.8 C 12.9 km/h
499 06-04-2017 17:30:00 12.8 C 6.05 g/m*3 12.8 C 12.9 km/h
500 06-04-2017 17:35:00 12.3 C 5.86 g/m*3 12.3 C 12.9 km/h
Sensor: Nr:Datum:Temp:Abs-Feuchte:Windchill:Wind:
Aussen-T/F 501 06-04-2017 17:40:00 11.8 C 5.89 g/m*3 11.8 C 11.3 km/h
502 06-04-2017 17:45:00 11.8 C 6 g/m*3 11.8 C 16.1 km/h
503 06-04-2017 17:50:00 12.1 C 6.11 g/m*3 12.1 C 9.7 km/h
504 06-04-2017 17:55:00 12.2 C 6.04 g/m*3 12.2 C 12.9 km/h
505 06-04-2017 18:00:00 12.1 C 6.01 g/m*3 12.1 C 8.1 km/h
506 06-04-2017 18:05:00 11.9 C 5.93 g/m*3 11.9 C 11.3 km/h
507 06-04-2017 18:10:00 11.7 C 5.86 g/m*3 11.7 C 9.7 km/h
508 06-04-2017 18:15:00 11.6 C 5.82 g/m*3 11.6 C 9.7 km/h
509 06-04-2017 18:20:00 11.5 C 5.78 g/m*3 11.5 C 8.1 km/h
510 06-04-2017 18:25:00 11.3 C 5.92 g/m*3 11.3 C 14.5 km/h
511 06-04-2017 18:30:00 11.3 C 6.12 g/m*3 11.3 C 11.3 km/h
512 06-04-2017 18:35:00 11.7 C 6.28 g/m*3 11.7 C 11.3 km/h
513 06-04-2017 18:40:00 12.2 C 6.37 g/m*3 12.2 C 16.1 km/h
514 06-04-2017 18:45:00 12.3 C 6.19 g/m*3 12.3 C 12.9 km/h
515 06-04-2017 18:50:00 12.2 C 6.37 g/m*3 12.2 C 12.9 km/h
516 06-04-2017 18:55:00 11.9 C 6.35 g/m*3 11.9 C 17.7 km/h
517 06-04-2017 19:00:00 11.8 C 6.42 g/m*3 11.8 C 11.3 km/h
518 06-04-2017 19:05:00 11.7 C 6.48 g/m*3 11.7 C 14.5 km/h
519 06-04-2017 19:10:00 11.7 C 6.48 g/m*3 11.7 C 9.7 km/h
520 06-04-2017 19:15:00 11.6 C 6.44 g/m*3 11.6 C 12.9 km/h
521 06-04-2017 19:20:00 11.4 C 6.47 g/m*3 11.4 C 14.5 km/h
522 06-04-2017 19:25:00 11.2 C 6.49 g/m*3 11.2 C 8.1 km/h
523 06-04-2017 19:30:00 11 C 6.41 g/m*3 9.02 C 16.1 km/h
524 06-04-2017 19:35:00 10.8 C 6.42 g/m*3 9.38 C 11.3 km/h
525 06-04-2017 19:40:00 10.6 C 6.44 g/m*3 9.14 C 11.3 km/h
Sensor: Nr:Datum:Temp:Abs-Feuchte:Windchill:Wind:
Aussen-T/F 526 06-04-2017 19:45:00 10.4 C 6.36 g/m*3 9.16 C 9.7 km/h
527 06-04-2017 19:50:00 10.3 C 6.42 g/m*3 9.72 C 6.4 km/h
528 06-04-2017 19:55:00 10.1 C 6.43 g/m*3 10.1 C 4.8 km/h
529 06-04-2017 20:00:00 9.9 C 6.44 g/m*3 8.87 C 8.1 km/h
530 06-04-2017 20:05:00 9.7 C 6.45 g/m*3 7.82 C 12.9 km/h
531 06-04-2017 20:10:00 9.6 C 6.5 g/m*3 8.52 C 8.1 km/h
532 06-04-2017 20:15:00 9.3 C 6.38 g/m*3 9.3 C 3.2 km/h
533 06-04-2017 20:20:00 9.1 C 6.39 g/m*3 9.1 C 1.6 km/h
534 06-04-2017 20:25:00 8.9 C 6.39 g/m*3 8.9 C 1.6 km/h
535 06-04-2017 20:30:00 8.7 C 6.4 g/m*3 8.7 C 1.6 km/h
536 06-04-2017 20:35:00 8.6 C 6.44 g/m*3 8.6 C 3.2 km/h
537 06-04-2017 20:40:00 8.5 C 6.4 g/m*3 8.5 C 3.2 km/h
538 06-04-2017 20:45:00 8.5 C 6.4 g/m*3 8.5 C 0 km/h
539 06-04-2017 20:50:00 8.3 C 6.41 g/m*3 8.3 C 3.2 km/h
540 06-04-2017 20:55:00 8.2 C 6.45 g/m*3 8.2 C 3.2 km/h
541 06-04-2017 21:00:00 8.2 C 6.45 g/m*3 7.29 C 6.4 km/h
542 06-04-2017 21:05:00 8.2 C 6.53 g/m*3 8.2 C 1.6 km/h
543 06-04-2017 21:10:00 8.1 C 6.49 g/m*3 8.1 C 1.6 km/h
544 06-04-2017 21:15:00 7.9 C 6.41 g/m*3 7.9 C 1.6 km/h
545 06-04-2017 21:20:00 7.8 C 6.37 g/m*3 7.8 C 3.2 km/h
546 06-04-2017 21:25:00 7.7 C 6.41 g/m*3 7.7 C 1.6 km/h
547 06-04-2017 21:30:00 7.6 C 6.44 g/m*3 7.6 C 0 km/h
548 06-04-2017 21:35:00 7.5 C 6.4 g/m*3 7.5 C 3.2 km/h
549 06-04-2017 21:40:00 7.4 C 6.44 g/m*3 7.4 C 3.2 km/h
550 06-04-2017 21:45:00 7.4 C 6.44 g/m*3 7.4 C 0 km/h
Sensor: Nr:Datum:Temp:Abs-Feuchte:Windchill:Wind:
Aussen-T/F 551 06-04-2017 21:50:00 7.4 C 6.44 g/m*3 7.4 C 1.6 km/h
552 06-04-2017 21:55:00 7.3 C 6.48 g/m*3 7.3 C 3.2 km/h
553 06-04-2017 22:00:00 7.3 C 6.48 g/m*3 7.3 C 1.6 km/h
554 06-04-2017 22:05:00 7.3 C 6.48 g/m*3 7.3 C 3.2 km/h
555 06-04-2017 22:10:00 7.2 C 6.44 g/m*3 7.2 C 1.6 km/h
556 06-04-2017 22:15:00 7.2 C 6.52 g/m*3 7.2 C 1.6 km/h
557 06-04-2017 22:20:00 7.2 C 6.52 g/m*3 7.2 C 0 km/h
558 06-04-2017 22:25:00 7.2 C 6.52 g/m*3 7.2 C 3.2 km/h
559 06-04-2017 22:30:00 7.2 C 6.52 g/m*3 7.2 C 3.2 km/h
560 06-04-2017 22:35:00 7.1 C 6.47 g/m*3 7.1 C 3.2 km/h
561 06-04-2017 22:40:00 7.1 C 6.47 g/m*3 7.1 C 4.8 km/h
562 06-04-2017 22:45:00 7.2 C 6.52 g/m*3 7.2 C 4.8 km/h
563 06-04-2017 22:50:00 7.3 C 6.48 g/m*3 7.3 C 3.2 km/h
564 06-04-2017 22:55:00 7.3 C 6.48 g/m*3 7.3 C 3.2 km/h
565 06-04-2017 23:00:00 7.6 C 6.53 g/m*3 7.6 C 4.8 km/h
566 06-04-2017 23:05:00 7.6 C 6.53 g/m*3 7.6 C 4.8 km/h
567 06-04-2017 23:10:00 7.7 C 6.57 g/m*3 6.28 C 8.1 km/h
568 06-04-2017 23:15:00 7.9 C 6.57 g/m*3 7.9 C 3.2 km/h
569 06-04-2017 23:20:00 7.9 C 6.57 g/m*3 7.9 C 3.2 km/h
570 06-04-2017 23:25:00 8 C 6.61 g/m*3 7.06 C 6.4 km/h
571 06-04-2017 23:30:00 8.1 C 6.57 g/m*3 8.1 C 1.6 km/h
572 06-04-2017 23:35:00 8.1 C 6.57 g/m*3 8.1 C 1.6 km/h
573 06-04-2017 23:40:00 8.1 C 6.57 g/m*3 8.1 C 4.8 km/h
574 06-04-2017 23:45:00 8.1 C 6.57 g/m*3 8.1 C 1.6 km/h
575 06-04-2017 23:50:00 8.1 C 6.57 g/m*3 8.1 C 1.6 km/h
Sensor: Nr:Datum:Temp:Abs-Feuchte:Windchill:Wind:
Aussen-T/F 576 06-04-2017 23:55:00 8 C 6.61 g/m*3 8 C 1.6 km/h
577 07-04-2017 00:00:00 7.9 C 6.57 g/m*3 7.9 C 3.2 km/h
578 07-04-2017 00:05:00 7.9 C 6.65 g/m*3 7.9 C 1.6 km/h
579 07-04-2017 00:10:00 7.9 C 6.65 g/m*3 7.9 C 0 km/h
580 07-04-2017 00:15:00 7.8 C 6.61 g/m*3 7.8 C 1.6 km/h
581 07-04-2017 00:20:00 7.8 C 6.61 g/m*3 7.8 C 0 km/h
582 07-04-2017 00:25:00 7.8 C 6.61 g/m*3 7.8 C 0 km/h
583 07-04-2017 00:30:00 7.8 C 6.61 g/m*3 7.8 C 1.6 km/h
584 07-04-2017 00:35:00 7.6 C 6.53 g/m*3 7.6 C 0 km/h
585 07-04-2017 00:40:00 7.5 C 6.56 g/m*3 7.5 C 0 km/h
586 07-04-2017 00:45:00 7.4 C 6.6 g/m*3 7.4 C 0 km/h
587 07-04-2017 00:50:00 7.3 C 6.56 g/m*3 7.3 C 0 km/h
588 07-04-2017 00:55:00 7.4 C 6.6 g/m*3 7.4 C 0 km/h
589 07-04-2017 01:00:00 7.4 C 6.6 g/m*3 7.4 C 0 km/h
590 07-04-2017 01:05:00 7.4 C 6.68 g/m*3 7.4 C 0 km/h
591 07-04-2017 01:10:00 7.4 C 6.6 g/m*3 7.4 C 0 km/h
592 07-04-2017 01:15:00 7.5 C 6.72 g/m*3 7.5 C 0 km/h
593 07-04-2017 01:20:00 7.5 C 6.72 g/m*3 7.5 C 0 km/h
594 07-04-2017 01:25:00 7.6 C 6.69 g/m*3 7.6 C 0 km/h
595 07-04-2017 01:30:00 7.6 C 6.69 g/m*3 7.6 C 1.6 km/h
596 07-04-2017 01:35:00 7.6 C 6.69 g/m*3 7.6 C 1.6 km/h
597 07-04-2017 06:10:00 3.6 C 5.63 g/m*3 3.6 C 3.2 km/h
598 07-04-2017 06:15:00 3.6 C 5.63 g/m*3 3.6 C 0 km/h
599 07-04-2017 06:20:00 3.6 C 5.63 g/m*3 3.6 C 1.6 km/h
600 07-04-2017 06:25:00 3.5 C 5.66 g/m*3 3.5 C 1.6 km/h
Sensor: Nr:Datum:Temp:Abs-Feuchte:Windchill:Wind:
Aussen-T/F 601 07-04-2017 06:30:00 3.5 C 5.66 g/m*3 3.5 C 1.6 km/h
602 07-04-2017 06:35:00 3.5 C 5.66 g/m*3 3.5 C 3.2 km/h
603 07-04-2017 06:40:00 3.5 C 5.66 g/m*3 3.5 C 0 km/h
604 07-04-2017 06:45:00 3.4 C 5.62 g/m*3 3.4 C 1.6 km/h
605 07-04-2017 06:50:00 3.4 C 5.62 g/m*3 3.4 C 1.6 km/h
606 07-04-2017 06:55:00 3.4 C 5.62 g/m*3 3.4 C 0 km/h
607 07-04-2017 07:00:00 3.4 C 5.62 g/m*3 3.4 C 0 km/h
608 07-04-2017 07:05:00 3.4 C 5.62 g/m*3 1.23 C 8.1 km/h
609 07-04-2017 07:10:00 3.4 C 5.62 g/m*3 3.4 C 1.6 km/h
610 07-04-2017 07:15:00 3.4 C 5.62 g/m*3 3.4 C 1.6 km/h
611 07-04-2017 07:20:00 3.4 C 5.62 g/m*3 3.4 C 0 km/h
612 07-04-2017 07:25:00 3.4 C 5.68 g/m*3 3.4 C 1.6 km/h
613 07-04-2017 07:30:00 3.4 C 5.68 g/m*3 3.4 C 3.2 km/h
614 07-04-2017 07:35:00 3.5 C 5.72 g/m*3 3.5 C 1.6 km/h
615 07-04-2017 07:40:00 3.5 C 5.72 g/m*3 3.5 C 3.2 km/h
616 07-04-2017 07:45:00 3.5 C 5.72 g/m*3 3.5 C 3.2 km/h
617 07-04-2017 07:50:00 3.5 C 5.72 g/m*3 3.5 C 3.2 km/h
618 07-04-2017 11:40:00 10.6 C 7.22 g/m*3 10.6 C 3.2 km/h
619 07-04-2017 11:45:00 10.6 C 7.12 g/m*3 10.06 C 6.4 km/h
620 07-04-2017 11:50:00 10.7 C 7.17 g/m*3 9.81 C 8.1 km/h
621 07-04-2017 11:55:00 10.7 C 7.17 g/m*3 10.7 C 4.8 km/h
622 07-04-2017 12:00:00 10.7 C 7.17 g/m*3 10.7 C 4.8 km/h
623 07-04-2017 12:05:00 10.8 C 7.12 g/m*3 10.8 C 4.8 km/h
624 07-04-2017 12:10:00 11 C 7.11 g/m*3 10.16 C 8.1 km/h
625 07-04-2017 12:15:00 11.1 C 7.05 g/m*3 11.1 C 8.1 km/h
Sensor: Nr:Datum:Temp:Abs-Feuchte:Windchill:Wind:
Aussen-T/F 626 07-04-2017 12:20:00 11.3 C 7.14 g/m*3 11.3 C 3.2 km/h
627 07-04-2017 12:25:00 11.4 C 7.08 g/m*3 11.4 C 9.7 km/h
628 07-04-2017 12:30:00 11.5 C 7.13 g/m*3 11.5 C 9.7 km/h
629 07-04-2017 12:35:00 11.6 C 7.28 g/m*3 11.6 C 11.3 km/h
630 07-04-2017 12:40:00 11.7 C 7.11 g/m*3 11.7 C 11.3 km/h
631 07-04-2017 12:45:00 11.8 C 7.16 g/m*3 11.8 C 8.1 km/h
632 07-04-2017 12:50:00 11.9 C 7.2 g/m*3 11.9 C 4.8 km/h
633 07-04-2017 12:55:00 12.1 C 7.29 g/m*3 12.1 C 8.1 km/h
634 07-04-2017 13:00:00 12.1 C 7.18 g/m*3 12.1 C 14.5 km/h
635 07-04-2017 13:05:00 12.2 C 7.23 g/m*3 12.2 C 14.5 km/h
636 07-04-2017 13:10:00 12.3 C 7.28 g/m*3 12.3 C 9.7 km/h
637 07-04-2017 13:15:00 12.4 C 7.32 g/m*3 12.4 C 11.3 km/h
638 07-04-2017 13:20:00 12.6 C 7.3 g/m*3 12.6 C 17.7 km/h
639 07-04-2017 13:25:00 12.6 C 7.3 g/m*3 12.6 C 12.9 km/h
640 07-04-2017 13:30:00 12.6 C 7.3 g/m*3 12.6 C 14.5 km/h
641 07-04-2017 13:35:00 12.6 C 7.3 g/m*3 12.6 C 8.1 km/h
642 07-04-2017 13:40:00 12.5 C 7.26 g/m*3 12.5 C 11.3 km/h
643 07-04-2017 13:45:00 12.6 C 7.41 g/m*3 12.6 C 9.7 km/h
644 07-04-2017 13:50:00 12.7 C 7.46 g/m*3 12.7 C 17.7 km/h
645 07-04-2017 13:55:00 12.9 C 7.55 g/m*3 12.9 C 4.8 km/h
646 07-04-2017 14:00:00 13.3 C 7.63 g/m*3 13.3 C 11.3 km/h
647 07-04-2017 14:05:00 13.4 C 7.56 g/m*3 13.4 C 11.3 km/h
648 07-04-2017 14:10:00 13.5 C 7.49 g/m*3 13.5 C 12.9 km/h
649 07-04-2017 14:15:00 13.5 C 7.49 g/m*3 13.5 C 11.3 km/h
650 07-04-2017 14:20:00 13.6 C 7.65 g/m*3 13.6 C 11.3 km/h
Sensor: Nr:Datum:Temp:Abs-Feuchte:Windchill:Wind:
Aussen-T/F 651 07-04-2017 14:25:00 13.6 C 7.65 g/m*3 13.6 C 9.7 km/h
652 07-04-2017 14:30:00 13.6 C 7.41 g/m*3 13.6 C 17.7 km/h
653 07-04-2017 14:35:00 13.4 C 7.32 g/m*3 13.4 C 14.5 km/h
654 07-04-2017 14:40:00 13.4 C 7.44 g/m*3 13.4 C 12.9 km/h
655 07-04-2017 14:45:00 13.6 C 7.53 g/m*3 13.6 C 14.5 km/h
656 07-04-2017 14:50:00 13.6 C 7.53 g/m*3 13.6 C 11.3 km/h
657 07-04-2017 14:55:00 13.6 C 7.3 g/m*3 13.6 C 12.9 km/h
658 07-04-2017 15:00:00 13.6 C 7.41 g/m*3 13.6 C 12.9 km/h
659 07-04-2017 15:05:00 13.6 C 7.41 g/m*3 13.6 C 17.7 km/h
660 07-04-2017 15:10:00 13.8 C 7.39 g/m*3 13.8 C 17.7 km/h
661 07-04-2017 15:15:00 13.8 C 7.27 g/m*3 13.8 C 14.5 km/h
662 07-04-2017 15:20:00 13.7 C 7.34 g/m*3 13.7 C 14.5 km/h
663 07-04-2017 15:25:00 13.7 C 7.34 g/m*3 13.7 C 9.7 km/h
664 07-04-2017 15:30:00 13.8 C 7.51 g/m*3 13.8 C 11.3 km/h
665 07-04-2017 15:35:00 14.2 C 7.57 g/m*3 14.2 C 16.1 km/h
666 07-04-2017 15:40:00 14.2 C 7.57 g/m*3 14.2 C 16.1 km/h
667 07-04-2017 15:45:00 14.3 C 7.74 g/m*3 14.3 C 12.9 km/h
668 07-04-2017 15:50:00 14.5 C 7.59 g/m*3 14.5 C 8.1 km/h
669 07-04-2017 15:55:00 14.4 C 7.42 g/m*3 14.4 C 16.1 km/h
670 07-04-2017 16:00:00 14.5 C 7.71 g/m*3 14.5 C 14.5 km/h
671 07-04-2017 16:05:00 14.6 C 7.51 g/m*3 14.6 C 16.1 km/h
672 07-04-2017 16:10:00 14.3 C 7.49 g/m*3 14.3 C 17.7 km/h
673 07-04-2017 16:15:00 14.2 C 7.57 g/m*3 14.2 C 11.3 km/h
674 07-04-2017 16:20:00 14.1 C 7.28 g/m*3 14.1 C 12.9 km/h
675 07-04-2017 16:25:00 14.2 C 7.45 g/m*3 14.2 C 14.5 km/h
Sensor: Nr:Datum:Temp:Abs-Feuchte:Windchill:Wind:
Aussen-T/F 676 07-04-2017 16:30:00 14.6 C 7.63 g/m*3 14.6 C 11.3 km/h
677 07-04-2017 16:35:00 15.1 C 7.87 g/m*3 15.1 C 14.5 km/h
678 07-04-2017 16:40:00 15.4 C 7.49 g/m*3 15.4 C 14.5 km/h
679 07-04-2017 16:45:00 15 C 7.44 g/m*3 15 C 17.7 km/h
680 07-04-2017 16:50:00 14.7 C 7.43 g/m*3 14.7 C 11.3 km/h
681 07-04-2017 16:55:00 14.5 C 7.46 g/m*3 14.5 C 12.9 km/h
682 07-04-2017 17:00:00 14.4 C 7.54 g/m*3 14.4 C 11.3 km/h
683 07-04-2017 17:05:00 14.7 C 7.55 g/m*3 14.7 C 8.1 km/h
684 07-04-2017 17:10:00 14.9 C 7.52 g/m*3 14.9 C 12.9 km/h
685 07-04-2017 17:15:00 15.2 C 7.66 g/m*3 15.2 C 8.1 km/h
686 07-04-2017 17:20:00 15.5 C 7.67 g/m*3 15.5 C 14.5 km/h
687 07-04-2017 17:25:00 15.4 C 7.62 g/m*3 15.4 C 12.9 km/h
688 07-04-2017 17:30:00 15.2 C 7.4 g/m*3 15.2 C 11.3 km/h
689 07-04-2017 17:35:00 15.1 C 7.48 g/m*3 15.1 C 11.3 km/h
690 07-04-2017 17:40:00 15.1 C 7.35 g/m*3 15.1 C 17.7 km/h
691 07-04-2017 17:45:00 15.2 C 7.53 g/m*3 15.2 C 9.7 km/h
692 07-04-2017 17:50:00 15.3 C 7.57 g/m*3 15.3 C 9.7 km/h
693 07-04-2017 17:55:00 15.2 C 7.4 g/m*3 15.2 C 14.5 km/h
694 07-04-2017 18:00:00 15.1 C 7.48 g/m*3 15.1 C 14.5 km/h
695 07-04-2017 18:05:00 15.2 C 7.66 g/m*3 15.2 C 9.7 km/h
696 07-04-2017 18:10:00 15.3 C 7.44 g/m*3 15.3 C 19.3 km/h
697 07-04-2017 18:15:00 15.1 C 7.61 g/m*3 15.1 C 19.3 km/h
698 07-04-2017 18:20:00 15.1 C 7.61 g/m*3 15.1 C 11.3 km/h
699 07-04-2017 18:25:00 15.3 C 7.7 g/m*3 15.3 C 6.4 km/h
700 07-04-2017 18:30:00 15.4 C 7.62 g/m*3 15.4 C 11.3 km/h
Sensor: Nr:Datum:Temp:Abs-Feuchte:Windchill:Wind:
Aussen-T/F 701 07-04-2017 18:35:00 15.3 C 7.44 g/m*3 15.3 C 9.7 km/h
702 07-04-2017 18:40:00 15.2 C 7.53 g/m*3 15.2 C 16.1 km/h
703 07-04-2017 18:45:00 14.8 C 7.47 g/m*3 14.8 C 14.5 km/h
704 07-04-2017 18:50:00 14.4 C 7.42 g/m*3 14.4 C 12.9 km/h
705 07-04-2017 18:55:00 14.3 C 7.49 g/m*3 14.3 C 9.7 km/h
706 07-04-2017 19:00:00 14.2 C 7.45 g/m*3 14.2 C 8.1 km/h
707 07-04-2017 19:05:00 14.3 C 7.62 g/m*3 14.3 C 11.3 km/h
708 07-04-2017 19:10:00 14.1 C 7.4 g/m*3 14.1 C 12.9 km/h
709 07-04-2017 19:15:00 13.7 C 7.34 g/m*3 13.7 C 11.3 km/h
710 07-04-2017 19:20:00 13.5 C 7.37 g/m*3 13.5 C 8.1 km/h
711 07-04-2017 19:25:00 13.4 C 7.44 g/m*3 13.4 C 6.4 km/h
712 07-04-2017 19:30:00 13.3 C 7.39 g/m*3 13.3 C 6.4 km/h
713 07-04-2017 19:35:00 13.2 C 7.46 g/m*3 13.2 C 4.8 km/h
714 07-04-2017 19:40:00 13.2 C 7.46 g/m*3 13.2 C 8.1 km/h
715 07-04-2017 19:45:00 13.1 C 7.42 g/m*3 13.1 C 4.8 km/h
716 07-04-2017 19:50:00 13 C 7.48 g/m*3 13 C 8.1 km/h
717 07-04-2017 19:55:00 12.9 C 7.33 g/m*3 12.9 C 6.4 km/h
718 07-04-2017 20:00:00 12.9 C 7.44 g/m*3 12.9 C 3.2 km/h
719 07-04-2017 20:05:00 12.8 C 7.62 g/m*3 12.8 C 0 km/h
720 07-04-2017 20:10:00 12.7 C 7.46 g/m*3 12.7 C 0 km/h
721 07-04-2017 20:15:00 12.6 C 7.41 g/m*3 12.6 C 3.2 km/h
722 07-04-2017 20:20:00 12.4 C 7.43 g/m*3 12.4 C 0 km/h
723 07-04-2017 20:25:00 12.4 C 7.54 g/m*3 12.4 C 0 km/h
724 07-04-2017 20:30:00 12.2 C 7.45 g/m*3 12.2 C 0 km/h
725 07-04-2017 20:35:00 12.1 C 7.51 g/m*3 12.1 C 0 km/h
Sensor: Nr:Datum:Temp:Abs-Feuchte:Windchill:Wind:
Aussen-T/F 726 07-04-2017 20:40:00 12 C 7.57 g/m*3 12 C 0 km/h
727 07-04-2017 20:45:00 11.8 C 7.47 g/m*3 11.8 C 0 km/h
728 07-04-2017 20:50:00 11.7 C 7.53 g/m*3 11.7 C 0 km/h
729 07-04-2017 20:55:00 11.7 C 7.53 g/m*3 11.7 C 1.6 km/h
730 07-04-2017 21:00:00 11.6 C 7.48 g/m*3 11.6 C 0 km/h
731 07-04-2017 21:05:00 11.6 C 7.48 g/m*3 11.6 C 0 km/h
732 07-04-2017 21:10:00 11.6 C 7.59 g/m*3 11.6 C 0 km/h
733 07-04-2017 21:15:00 11.6 C 7.59 g/m*3 11.6 C 0 km/h
734 07-04-2017 21:20:00 11.5 C 7.64 g/m*3 11.5 C 0 km/h
735 07-04-2017 21:25:00 11.4 C 7.49 g/m*3 11.4 C 0 km/h
736 07-04-2017 21:30:00 11.4 C 7.49 g/m*3 11.4 C 0 km/h
737 07-04-2017 21:35:00 11.4 C 7.49 g/m*3 11.4 C 0 km/h
738 07-04-2017 21:40:00 11.3 C 7.55 g/m*3 11.3 C 0 km/h
739 07-04-2017 21:45:00 11.3 C 7.55 g/m*3 11.3 C 0 km/h
740 07-04-2017 21:50:00 11.2 C 7.6 g/m*3 11.2 C 0 km/h
741 07-04-2017 21:55:00 11.1 C 7.55 g/m*3 11.1 C 0 km/h
742 07-04-2017 22:00:00 11.1 C 7.55 g/m*3 11.1 C 0 km/h
743 08-04-2017 09:15:00 8.9 C 7.45 g/m*3 8.1 C 6.4 km/h
744 08-04-2017 09:20:00 9.1 C 7.54 g/m*3 9.1 C 4.8 km/h
745 08-04-2017 09:25:00 9.2 C 7.59 g/m*3 8.45 C 6.4 km/h
746 08-04-2017 09:30:00 9.4 C 7.6 g/m*3 8.68 C 6.4 km/h
747 08-04-2017 09:35:00 9.5 C 7.65 g/m*3 8.4 C 8.1 km/h
748 08-04-2017 09:40:00 9.6 C 7.69 g/m*3 8.91 C 6.4 km/h
749 08-04-2017 09:45:00 9.8 C 7.7 g/m*3 9.8 C 3.2 km/h
750 08-04-2017 09:50:00 9.9 C 7.75 g/m*3 9.9 C 3.2 km/h
Sensor: Nr:Datum:Temp:Abs-Feuchte:Windchill:Wind:
Aussen-T/F 751 08-04-2017 09:55:00 10.1 C 7.75 g/m*3 10.1 C 3.2 km/h
752 08-04-2017 10:00:00 10.3 C 7.76 g/m*3 10.3 C 4.8 km/h
753 08-04-2017 10:05:00 10.5 C 7.95 g/m*3 10.5 C 3.2 km/h
754 08-04-2017 10:10:00 10.7 C 7.96 g/m*3 10.7 C 1.6 km/h
755 08-04-2017 10:15:00 10.9 C 7.86 g/m*3 10.9 C 4.8 km/h
756 08-04-2017 10:20:00 11.2 C 8.01 g/m*3 11.2 C 4.8 km/h
757 08-04-2017 10:25:00 11.3 C 7.96 g/m*3 11.3 C 6.4 km/h
758 08-04-2017 10:30:00 11.4 C 7.8 g/m*3 11.4 C 3.2 km/h
759 08-04-2017 10:35:00 11.6 C 7.9 g/m*3 11.6 C 3.2 km/h
760 08-04-2017 10:40:00 11.8 C 7.89 g/m*3 11.8 C 3.2 km/h
761 08-04-2017 10:45:00 11.9 C 7.94 g/m*3 11.9 C 1.6 km/h
762 08-04-2017 10:50:00 12.2 C 8.09 g/m*3 12.2 C 1.6 km/h
763 08-04-2017 10:55:00 12.3 C 7.93 g/m*3 12.3 C 1.6 km/h
764 08-04-2017 11:00:00 12.5 C 7.92 g/m*3 12.5 C 0 km/h
765 08-04-2017 11:05:00 12.7 C 8.13 g/m*3 12.7 C 4.8 km/h
766 08-04-2017 11:10:00 12.8 C 7.95 g/m*3 12.8 C 3.2 km/h
767 08-04-2017 11:15:00 12.9 C 8 g/m*3 12.9 C 3.2 km/h
768 08-04-2017 11:20:00 13 C 8.05 g/m*3 13 C 4.8 km/h
769 08-04-2017 11:25:00 13.1 C 7.99 g/m*3 13.1 C 3.2 km/h
770 08-04-2017 11:30:00 13.1 C 7.87 g/m*3 13.1 C 6.4 km/h
771 08-04-2017 11:35:00 13.1 C 7.87 g/m*3 13.1 C 0 km/h
772 08-04-2017 11:40:00 13.1 C 7.99 g/m*3 13.1 C 0 km/h
773 08-04-2017 11:45:00 13.2 C 8.04 g/m*3 13.2 C 1.6 km/h
774 08-04-2017 11:50:00 13.2 C 7.92 g/m*3 13.2 C 4.8 km/h
775 08-04-2017 11:55:00 13.4 C 8.02 g/m*3 13.4 C 6.4 km/h
Sensor: Nr:Datum:Temp:Abs-Feuchte:Windchill:Wind:
Aussen-T/F 776 08-04-2017 12:00:00 13.5 C 7.95 g/m*3 13.5 C 3.2 km/h
777 08-04-2017 12:05:00 13.7 C 8.29 g/m*3 13.7 C 0 km/h
778 08-04-2017 12:10:00 13.8 C 7.98 g/m*3 13.8 C 4.8 km/h
779 08-04-2017 12:15:00 14.1 C 8.25 g/m*3 14.1 C 4.8 km/h
780 08-04-2017 12:20:00 14.2 C 8.06 g/m*3 14.2 C 3.2 km/h
781 08-04-2017 12:25:00 14.3 C 7.99 g/m*3 14.3 C 3.2 km/h
782 08-04-2017 12:30:00 14.4 C 8.03 g/m*3 14.4 C 4.8 km/h
783 08-04-2017 12:35:00 14.5 C 8.08 g/m*3 14.5 C 4.8 km/h
784 08-04-2017 12:40:00 14.6 C 8.13 g/m*3 14.6 C 4.8 km/h
785 08-04-2017 12:45:00 14.6 C 8.13 g/m*3 14.6 C 4.8 km/h
786 08-04-2017 12:50:00 14.7 C 7.81 g/m*3 14.7 C 8.1 km/h
787 08-04-2017 12:55:00 14.7 C 8.06 g/m*3 14.7 C 8.1 km/h
788 08-04-2017 13:00:00 14.7 C 7.81 g/m*3 14.7 C 6.4 km/h
789 08-04-2017 13:05:00 14.7 C 7.93 g/m*3 14.7 C 4.8 km/h
790 08-04-2017 13:10:00 14.8 C 8.11 g/m*3 14.8 C 3.2 km/h
791 08-04-2017 13:15:00 14.9 C 7.9 g/m*3 14.9 C 8.1 km/h
792 08-04-2017 13:20:00 14.9 C 7.77 g/m*3 14.9 C 3.2 km/h
793 08-04-2017 13:25:00 14.9 C 7.9 g/m*3 14.9 C 3.2 km/h
794 08-04-2017 13:30:00 14.9 C 7.77 g/m*3 14.9 C 3.2 km/h
795 08-04-2017 13:35:00 15 C 7.69 g/m*3 15 C 4.8 km/h
796 08-04-2017 13:40:00 15.1 C 7.87 g/m*3 15.1 C 1.6 km/h
797 08-04-2017 13:45:00 15.1 C 7.61 g/m*3 15.1 C 4.8 km/h
798 08-04-2017 13:50:00 15.3 C 7.84 g/m*3 15.3 C 4.8 km/h
799 08-04-2017 13:55:00 15.4 C 7.88 g/m*3 15.4 C 8.1 km/h
800 08-04-2017 14:00:00 15.6 C 7.98 g/m*3 15.6 C 8.1 km/h
Sensor: Nr:Datum:Temp:Abs-Feuchte:Windchill:Wind:
Aussen-T/F 801 08-04-2017 14:05:00 15.7 C 8.03 g/m*3 15.7 C 8.1 km/h
802 08-04-2017 14:10:00 15.8 C 7.81 g/m*3 15.8 C 6.4 km/h
803 08-04-2017 14:15:00 16.1 C 7.95 g/m*3 16.1 C 8.1 km/h
804 08-04-2017 14:20:00 16.1 C 7.68 g/m*3 16.1 C 3.2 km/h
805 08-04-2017 14:25:00 16.3 C 8.05 g/m*3 16.3 C 6.4 km/h
806 08-04-2017 14:30:00 16.4 C 7.96 g/m*3 16.4 C 6.4 km/h
807 08-04-2017 14:35:00 16.6 C 8.05 g/m*3 16.6 C 11.3 km/h
808 08-04-2017 14:40:00 16.6 C 8.05 g/m*3 16.6 C 3.2 km/h
809 08-04-2017 14:45:00 16.7 C 8.1 g/m*3 16.7 C 8.1 km/h
810 08-04-2017 14:50:00 16.7 C 7.96 g/m*3 16.7 C 4.8 km/h
811 08-04-2017 14:55:00 16.7 C 7.96 g/m*3 16.7 C 9.7 km/h
812 08-04-2017 15:00:00 16.6 C 7.91 g/m*3 16.6 C 9.7 km/h
813 08-04-2017 15:05:00 16.6 C 8.05 g/m*3 16.6 C 8.1 km/h
814 08-04-2017 15:10:00 16.7 C 7.96 g/m*3 16.7 C 6.4 km/h
815 08-04-2017 15:15:00 16.8 C 7.86 g/m*3 16.8 C 8.1 km/h
816 08-04-2017 15:20:00 16.9 C 8.05 g/m*3 16.9 C 8.1 km/h
817 08-04-2017 15:25:00 17 C 7.96 g/m*3 17 C 6.4 km/h
818 08-04-2017 15:30:00 17.1 C 8.15 g/m*3 17.1 C 6.4 km/h
819 08-04-2017 15:35:00 17.2 C 8.05 g/m*3 17.2 C 9.7 km/h
820 08-04-2017 15:40:00 17.3 C 7.96 g/m*3 17.3 C 9.7 km/h
821 08-04-2017 15:45:00 17.4 C 8.15 g/m*3 17.4 C 6.4 km/h
822 08-04-2017 15:50:00 17.6 C 8.25 g/m*3 17.6 C 9.7 km/h
823 08-04-2017 15:55:00 17.7 C 8.15 g/m*3 17.7 C 9.7 km/h
824 08-04-2017 16:00:00 17.8 C 8.04 g/m*3 17.8 C 8.1 km/h
825 08-04-2017 16:05:00 17.9 C 8.24 g/m*3 17.9 C 4.8 km/h
Sensor: Nr:Datum:Temp:Abs-Feuchte:Windchill:Wind:
Aussen-T/F 826 08-04-2017 16:10:00 17.9 C 8.09 g/m*3 17.9 C 3.2 km/h
827 08-04-2017 16:15:00 18 C 7.99 g/m*3 18 C 3.2 km/h
828 08-04-2017 16:20:00 18.1 C 8.03 g/m*3 18.1 C 8.1 km/h
829 08-04-2017 16:25:00 18.2 C 8.08 g/m*3 18.2 C 4.8 km/h
830 08-04-2017 16:30:00 18.6 C 8.28 g/m*3 18.6 C 4.8 km/h
831 08-04-2017 16:35:00 18.7 C 8.01 g/m*3 18.7 C 8.1 km/h
832 08-04-2017 16:40:00 18.8 C 8.05 g/m*3 18.8 C 6.4 km/h
833 08-04-2017 16:45:00 19.1 C 7.87 g/m*3 19.1 C 9.7 km/h
834 08-04-2017 16:50:00 19.2 C 7.75 g/m*3 19.2 C 4.8 km/h
835 08-04-2017 16:55:00 19.2 C 8.08 g/m*3 19.2 C 6.4 km/h
836 08-04-2017 17:00:00 19.4 C 7.67 g/m*3 19.4 C 8.1 km/h
837 08-04-2017 17:05:00 19.2 C 7.75 g/m*3 19.2 C 8.1 km/h
838 08-04-2017 17:10:00 19.3 C 7.8 g/m*3 19.3 C 3.2 km/h
839 08-04-2017 17:15:00 19.5 C 7.89 g/m*3 19.5 C 4.8 km/h
840 08-04-2017 17:20:00 19.4 C 7.67 g/m*3 19.4 C 8.1 km/h
841 08-04-2017 17:25:00 19.4 C 7.51 g/m*3 19.4 C 8.1 km/h
842 08-04-2017 17:30:00 19.3 C 7.63 g/m*3 19.3 C 11.3 km/h
843 08-04-2017 17:35:00 19.1 C 7.7 g/m*3 19.1 C 9.7 km/h
844 08-04-2017 17:40:00 19 C 7.66 g/m*3 19 C 8.1 km/h
845 08-04-2017 17:45:00 19.1 C 7.87 g/m*3 19.1 C 6.4 km/h
846 08-04-2017 17:50:00 19.3 C 7.96 g/m*3 19.3 C 8.1 km/h
847 08-04-2017 17:55:00 19.4 C 7.67 g/m*3 19.4 C 6.4 km/h
848 08-04-2017 18:00:00 19.6 C 7.77 g/m*3 19.6 C 8.1 km/h
849 08-04-2017 18:05:00 19.5 C 7.72 g/m*3 19.5 C 8.1 km/h
850 08-04-2017 18:10:00 19.4 C 7.67 g/m*3 19.4 C 8.1 km/h
Sensor: Nr:Datum:Temp:Abs-Feuchte:Windchill:Wind:
Aussen-T/F 851 08-04-2017 18:15:00 19.3 C 7.8 g/m*3 19.3 C 9.7 km/h
852 08-04-2017 18:20:00 19.3 C 7.8 g/m*3 19.3 C 9.7 km/h
853 08-04-2017 18:25:00 19.2 C 7.59 g/m*3 19.2 C 8.1 km/h
854 08-04-2017 18:30:00 19.1 C 7.87 g/m*3 19.1 C 6.4 km/h
855 08-04-2017 18:35:00 19.2 C 7.91 g/m*3 19.2 C 6.4 km/h
856 08-04-2017 18:40:00 19.3 C 7.96 g/m*3 19.3 C 4.8 km/h
857 08-04-2017 18:45:00 19.3 C 7.8 g/m*3 19.3 C 6.4 km/h
858 08-04-2017 18:50:00 19.3 C 7.8 g/m*3 19.3 C 3.2 km/h
859 08-04-2017 18:55:00 19.3 C 7.8 g/m*3 19.3 C 4.8 km/h
860 08-04-2017 19:00:00 19.2 C 7.59 g/m*3 19.2 C 4.8 km/h
861 08-04-2017 19:05:00 19.1 C 7.54 g/m*3 19.1 C 4.8 km/h
862 08-04-2017 19:10:00 19 C 7.5 g/m*3 19 C 4.8 km/h
863 08-04-2017 19:15:00 18.9 C 7.45 g/m*3 18.9 C 1.6 km/h
864 08-04-2017 19:20:00 18.8 C 7.41 g/m*3 18.8 C 6.4 km/h
865 08-04-2017 19:25:00 18.6 C 7.48 g/m*3 18.6 C 4.8 km/h
866 08-04-2017 19:30:00 18.4 C 8.18 g/m*3 18.4 C 4.8 km/h
867 08-04-2017 19:35:00 18.1 C 8.03 g/m*3 18.1 C 1.6 km/h
868 08-04-2017 19:40:00 17.6 C 8.25 g/m*3 17.6 C 3.2 km/h
869 08-04-2017 19:45:00 17 C 8.25 g/m*3 17 C 3.2 km/h
870 08-04-2017 19:50:00 16.4 C 8.1 g/m*3 16.4 C 3.2 km/h
871 08-04-2017 19:55:00 15.9 C 7.99 g/m*3 15.9 C 4.8 km/h
872 08-04-2017 20:00:00 15.4 C 8.01 g/m*3 15.4 C 4.8 km/h
873 08-04-2017 20:05:00 14.9 C 7.9 g/m*3 14.9 C 4.8 km/h
874 08-04-2017 20:10:00 14.6 C 7.88 g/m*3 14.6 C 4.8 km/h
875 08-04-2017 20:15:00 14.2 C 7.82 g/m*3 14.2 C 4.8 km/h
Sensor: Nr:Datum:Temp:Abs-Feuchte:Windchill:Wind:
Aussen-T/F 876 08-04-2017 20:20:00 13.9 C 7.79 g/m*3 13.9 C 4.8 km/h
877 08-04-2017 20:25:00 13.7 C 7.7 g/m*3 13.7 C 4.8 km/h
878 08-04-2017 20:30:00 13.6 C 7.77 g/m*3 13.6 C 4.8 km/h
879 08-04-2017 20:35:00 13.3 C 7.74 g/m*3 13.3 C 4.8 km/h
880 08-04-2017 20:40:00 13.1 C 7.65 g/m*3 13.1 C 4.8 km/h
881 08-04-2017 20:45:00 12.9 C 7.66 g/m*3 12.9 C 4.8 km/h
882 08-04-2017 20:50:00 12.8 C 7.62 g/m*3 12.8 C 4.8 km/h
883 08-04-2017 20:55:00 12.7 C 7.68 g/m*3 12.7 C 3.2 km/h
884 08-04-2017 21:00:00 12.6 C 7.63 g/m*3 12.6 C 3.2 km/h
885 08-04-2017 21:05:00 12.6 C 7.63 g/m*3 12.6 C 4.8 km/h
886 08-04-2017 21:10:00 12.5 C 7.7 g/m*3 12.5 C 1.6 km/h
887 08-04-2017 21:15:00 12.5 C 7.7 g/m*3 12.5 C 3.2 km/h
888 08-04-2017 21:20:00 12.5 C 7.7 g/m*3 12.5 C 3.2 km/h
889 08-04-2017 21:25:00 12.4 C 7.76 g/m*3 12.4 C 4.8 km/h
890 08-04-2017 21:30:00 12.3 C 7.71 g/m*3 12.3 C 3.2 km/h
891 08-04-2017 21:35:00 12.3 C 7.71 g/m*3 12.3 C 3.2 km/h
892 08-04-2017 21:40:00 12.2 C 7.77 g/m*3 12.2 C 4.8 km/h
893 08-04-2017 21:45:00 12.1 C 7.61 g/m*3 12.1 C 4.8 km/h
894 08-04-2017 21:50:00 11.9 C 7.63 g/m*3 11.9 C 1.6 km/h
895 08-04-2017 21:55:00 11.8 C 7.58 g/m*3 11.8 C 4.8 km/h
896 08-04-2017 22:00:00 11.8 C 7.58 g/m*3 11.8 C 4.8 km/h
897 08-04-2017 22:05:00 11.7 C 7.64 g/m*3 11.7 C 4.8 km/h
898 08-04-2017 22:10:00 11.7 C 7.64 g/m*3 11.7 C 4.8 km/h
899 08-04-2017 22:15:00 11.6 C 7.59 g/m*3 11.6 C 3.2 km/h
900 08-04-2017 22:20:00 11.4 C 7.49 g/m*3 11.4 C 4.8 km/h
Sensor: Nr:Datum:Temp:Abs-Feuchte:Windchill:Wind:
Aussen-T/F 901 08-04-2017 22:25:00 11.3 C 7.55 g/m*3 11.3 C 3.2 km/h
902 08-04-2017 22:30:00 11.2 C 7.6 g/m*3 11.2 C 0 km/h
903 08-04-2017 22:35:00 10.9 C 7.56 g/m*3 10.9 C 0 km/h
904 08-04-2017 22:40:00 10.7 C 7.56 g/m*3 10.7 C 0 km/h
905 08-04-2017 22:45:00 10.5 C 7.47 g/m*3 10.5 C 0 km/h
906 08-04-2017 22:50:00 10.2 C 7.42 g/m*3 10.2 C 0 km/h
907 08-04-2017 22:55:00 10 C 7.33 g/m*3 10 C 0 km/h
908 08-04-2017 23:00:00 9.8 C 7.33 g/m*3 9.8 C 1.6 km/h
909 08-04-2017 23:05:00 9.6 C 7.33 g/m*3 9.6 C 1.6 km/h
910 08-04-2017 23:10:00 9.5 C 7.37 g/m*3 9.5 C 0 km/h
911 08-04-2017 23:15:00 9.4 C 7.33 g/m*3 9.4 C 0 km/h
912 08-04-2017 23:20:00 9.2 C 7.23 g/m*3 9.2 C 0 km/h
913 08-04-2017 23:25:00 9.1 C 7.28 g/m*3 9.1 C 0 km/h
914 08-04-2017 23:30:00 8.9 C 7.27 g/m*3 8.9 C 0 km/h
915 08-04-2017 23:35:00 8.8 C 7.22 g/m*3 8.8 C 0 km/h
916 08-04-2017 23:40:00 8.6 C 7.13 g/m*3 8.6 C 0 km/h
917 08-04-2017 23:45:00 8.4 C 7.13 g/m*3 8.4 C 0 km/h
918 08-04-2017 23:50:00 8.3 C 7.08 g/m*3 8.3 C 0 km/h
919 08-04-2017 23:55:00 8.2 C 7.12 g/m*3 8.2 C 0 km/h
920 09-04-2017 00:00:00 8.2 C 7.12 g/m*3 8.2 C 0 km/h
921 09-04-2017 00:05:00 8.1 C 7.07 g/m*3 8.1 C 0 km/h
922 09-04-2017 00:10:00 8 C 7.03 g/m*3 8 C 0 km/h
923 09-04-2017 00:15:00 7.9 C 6.98 g/m*3 7.9 C 0 km/h
924 09-04-2017 00:20:00 7.8 C 7.02 g/m*3 7.8 C 0 km/h
925 09-04-2017 00:25:00 7.8 C 7.1 g/m*3 7.8 C 0 km/h
Sensor: Nr:Datum:Temp:Abs-Feuchte:Windchill:Wind:
Aussen-T/F 926 09-04-2017 00:30:00 7.8 C 7.1 g/m*3 7.8 C 0 km/h
927 09-04-2017 00:35:00 7.7 C 7.05 g/m*3 7.7 C 0 km/h
928 09-04-2017 00:40:00 7.6 C 7.01 g/m*3 7.6 C 0 km/h
929 09-04-2017 00:45:00 7.5 C 6.96 g/m*3 7.5 C 0 km/h
930 09-04-2017 00:50:00 7.5 C 6.96 g/m*3 7.5 C 0 km/h
931 09-04-2017 00:55:00 7.4 C 6.92 g/m*3 7.4 C 0 km/h
932 09-04-2017 01:00:00 7.3 C 6.87 g/m*3 7.3 C 0 km/h
933 09-04-2017 01:05:00 7.2 C 6.91 g/m*3 7.2 C 0 km/h
934 09-04-2017 01:10:00 7.1 C 6.86 g/m*3 7.1 C 0 km/h
935 09-04-2017 01:15:00 7.1 C 6.86 g/m*3 7.1 C 0 km/h
936 09-04-2017 01:20:00 6.9 C 6.77 g/m*3 6.9 C 0 km/h
937 09-04-2017 01:25:00 6.8 C 6.73 g/m*3 6.8 C 0 km/h
938 09-04-2017 01:30:00 6.7 C 6.76 g/m*3 6.7 C 0 km/h
939 09-04-2017 01:35:00 6.7 C 6.76 g/m*3 6.7 C 0 km/h
940 09-04-2017 01:40:00 6.6 C 6.72 g/m*3 6.6 C 0 km/h
941 09-04-2017 01:45:00 6.6 C 6.79 g/m*3 6.6 C 0 km/h
942 09-04-2017 01:50:00 6.5 C 6.75 g/m*3 6.5 C 0 km/h
943 09-04-2017 01:55:00 6.5 C 6.75 g/m*3 6.5 C 0 km/h
944 09-04-2017 02:00:00 6.5 C 6.75 g/m*3 6.5 C 0 km/h
945 09-04-2017 02:05:00 6.4 C 6.71 g/m*3 6.4 C 0 km/h
946 09-04-2017 02:10:00 6.3 C 6.66 g/m*3 6.3 C 0 km/h
947 09-04-2017 02:15:00 6.3 C 6.66 g/m*3 6.3 C 0 km/h
948 09-04-2017 02:20:00 6.2 C 6.69 g/m*3 6.2 C 0 km/h
949 09-04-2017 02:25:00 6.2 C 6.69 g/m*3 6.2 C 0 km/h
950 09-04-2017 02:30:00 6.1 C 6.65 g/m*3 6.1 C 0 km/h
Sensor: Nr:Datum:Temp:Abs-Feuchte:Windchill:Wind:
Aussen-T/F 951 09-04-2017 02:35:00 6.1 C 6.65 g/m*3 6.1 C 0 km/h
952 09-04-2017 02:40:00 6 C 6.6 g/m*3 6 C 0 km/h
953 09-04-2017 02:45:00 5.9 C 6.56 g/m*3 5.9 C 0 km/h
954 09-04-2017 02:50:00 5.8 C 6.52 g/m*3 5.8 C 0 km/h
955 09-04-2017 02:55:00 5.8 C 6.52 g/m*3 5.8 C 0 km/h
956 09-04-2017 03:00:00 5.7 C 6.48 g/m*3 5.7 C 0 km/h
957 09-04-2017 03:05:00 5.6 C 6.43 g/m*3 5.6 C 0 km/h
958 09-04-2017 03:10:00 5.5 C 6.39 g/m*3 5.5 C 0 km/h
959 09-04-2017 03:15:00 5.4 C 6.42 g/m*3 5.4 C 0 km/h
960 09-04-2017 03:20:00 5.3 C 6.31 g/m*3 5.3 C 0 km/h
961 09-04-2017 03:25:00 5.3 C 6.38 g/m*3 5.3 C 0 km/h
962 09-04-2017 03:30:00 5.3 C 6.38 g/m*3 5.3 C 0 km/h
963 09-04-2017 03:35:00 5.3 C 6.38 g/m*3 5.3 C 0 km/h
964 09-04-2017 03:40:00 5.3 C 6.45 g/m*3 5.3 C 0 km/h
965 09-04-2017 03:45:00 5.3 C 6.45 g/m*3 5.3 C 0 km/h
966 09-04-2017 03:50:00 5.2 C 6.33 g/m*3 5.2 C 0 km/h
967 09-04-2017 03:55:00 5.3 C 6.45 g/m*3 5.3 C 0 km/h
968 09-04-2017 04:00:00 5.3 C 6.45 g/m*3 5.3 C 0 km/h
969 09-04-2017 04:05:00 5.2 C 6.4 g/m*3 5.2 C 0 km/h
970 09-04-2017 04:10:00 5.2 C 6.4 g/m*3 5.2 C 0 km/h
971 09-04-2017 04:15:00 5.1 C 6.36 g/m*3 5.1 C 0 km/h
972 09-04-2017 04:20:00 5.1 C 6.36 g/m*3 5.1 C 0 km/h
973 09-04-2017 04:25:00 5 C 6.32 g/m*3 5 C 0 km/h
974 09-04-2017 04:30:00 4.9 C 6.28 g/m*3 4.9 C 0 km/h
975 09-04-2017 04:35:00 4.9 C 6.28 g/m*3 4.9 C 0 km/h
Sensor: Nr:Datum:Temp:Abs-Feuchte:Windchill:Wind:
Aussen-T/F 976 09-04-2017 04:40:00 4.9 C 6.28 g/m*3 4.9 C 0 km/h
977 09-04-2017 04:45:00 4.8 C 6.24 g/m*3 4.8 C 0 km/h
978 09-04-2017 04:50:00 4.8 C 6.24 g/m*3 4.8 C 0 km/h
979 09-04-2017 04:55:00 4.7 C 6.19 g/m*3 4.7 C 0 km/h
980 09-04-2017 05:00:00 4.7 C 6.19 g/m*3 4.7 C 0 km/h
981 09-04-2017 05:05:00 4.6 C 6.15 g/m*3 4.6 C 0 km/h
982 09-04-2017 05:10:00 4.4 C 6.07 g/m*3 4.4 C 0 km/h
983 09-04-2017 05:15:00 4.3 C 6.03 g/m*3 4.3 C 0 km/h
984 09-04-2017 05:20:00 4.2 C 5.99 g/m*3 4.2 C 0 km/h
985 09-04-2017 05:25:00 4.2 C 5.99 g/m*3 4.2 C 0 km/h
986 09-04-2017 05:30:00 4.2 C 5.99 g/m*3 4.2 C 0 km/h
987 09-04-2017 05:35:00 4.2 C 5.99 g/m*3 4.2 C 0 km/h
988 09-04-2017 05:40:00 4.2 C 6.06 g/m*3 4.2 C 0 km/h
989 09-04-2017 05:45:00 4.2 C 6.06 g/m*3 4.2 C 0 km/h
990 09-04-2017 05:50:00 4.1 C 6.02 g/m*3 4.1 C 0 km/h
991 09-04-2017 05:55:00 4.1 C 6.02 g/m*3 4.1 C 0 km/h
992 09-04-2017 06:00:00 4.1 C 6.02 g/m*3 4.1 C 0 km/h
993 09-04-2017 06:05:00 4.1 C 6.02 g/m*3 4.1 C 0 km/h
994 09-04-2017 06:10:00 3.9 C 5.94 g/m*3 3.9 C 0 km/h
995 09-04-2017 06:15:00 3.9 C 5.94 g/m*3 3.9 C 0 km/h
996 09-04-2017 06:20:00 3.9 C 5.94 g/m*3 3.9 C 0 km/h
997 09-04-2017 06:25:00 3.8 C 5.9 g/m*3 3.8 C 0 km/h
998 09-04-2017 06:30:00 3.8 C 5.9 g/m*3 3.8 C 0 km/h
999 09-04-2017 06:35:00 3.6 C 5.82 g/m*3 3.6 C 0 km/h
1000 09-04-2017 06:40:00 3.6 C 5.82 g/m*3 3.6 C 0 km/h
Sensor: Nr:Datum:Temp:Abs-Feuchte:Windchill:Wind:
Aussen-T/F 1001 09-04-2017 06:45:00 3.6 C 5.82 g/m*3 3.6 C 0 km/h
1002 09-04-2017 06:50:00 3.6 C 5.82 g/m*3 3.6 C 0 km/h
1003 09-04-2017 06:55:00 3.6 C 5.82 g/m*3 3.6 C 0 km/h
1004 09-04-2017 07:00:00 3.6 C 5.82 g/m*3 3.6 C 0 km/h
1005 09-04-2017 07:05:00 3.5 C 5.78 g/m*3 3.5 C 0 km/h
1006 09-04-2017 07:10:00 3.5 C 5.78 g/m*3 3.5 C 0 km/h
1007 09-04-2017 07:15:00 3.4 C 5.74 g/m*3 3.4 C 0 km/h
1008 09-04-2017 07:20:00 3.4 C 5.74 g/m*3 3.4 C 0 km/h
1009 09-04-2017 07:25:00 3.4 C 5.74 g/m*3 3.4 C 0 km/h
1010 09-04-2017 07:30:00 3.4 C 5.74 g/m*3 3.4 C 0 km/h
1011 09-04-2017 07:35:00 3.4 C 5.74 g/m*3 3.4 C 0 km/h
1012 09-04-2017 07:40:00 3.5 C 5.84 g/m*3 3.5 C 0 km/h
1013 09-04-2017 07:45:00 3.7 C 5.92 g/m*3 3.7 C 0 km/h
1014 09-04-2017 07:50:00 3.9 C 6 g/m*3 3.9 C 0 km/h
1015 09-04-2017 07:55:00 3.9 C 6 g/m*3 3.9 C 0 km/h
1016 09-04-2017 08:00:00 3.9 C 6 g/m*3 3.9 C 0 km/h
1017 09-04-2017 08:05:00 3.9 C 6 g/m*3 3.9 C 0 km/h
1018 09-04-2017 08:10:00 4 C 6.04 g/m*3 4 C 0 km/h
1019 09-04-2017 08:15:00 4.1 C 6.08 g/m*3 4.1 C 0 km/h
1020 09-04-2017 08:20:00 4.1 C 6.08 g/m*3 4.1 C 0 km/h
1021 09-04-2017 08:25:00 4.2 C 6.12 g/m*3 4.2 C 0 km/h
1022 09-04-2017 08:30:00 4.3 C 6.16 g/m*3 4.3 C 0 km/h
1023 09-04-2017 08:35:00 4.4 C 6.2 g/m*3 4.4 C 0 km/h
1024 09-04-2017 08:40:00 4.5 C 6.24 g/m*3 4.5 C 0 km/h
1025 09-04-2017 08:45:00 4.6 C 6.29 g/m*3 4.6 C 0 km/h
Sensor: Nr:Datum:Temp:Abs-Feuchte:Windchill:Wind:
Aussen-T/F 1026 09-04-2017 08:50:00 4.7 C 6.33 g/m*3 4.7 C 0 km/h
1027 09-04-2017 08:55:00 4.7 C 6.33 g/m*3 4.7 C 0 km/h
1028 09-04-2017 09:00:00 4.9 C 6.48 g/m*3 4.9 C 0 km/h
1029 09-04-2017 09:05:00 5 C 6.52 g/m*3 5 C 0 km/h
1030 09-04-2017 09:10:00 5.1 C 6.57 g/m*3 5.1 C 0 km/h
1031 09-04-2017 09:15:00 5.2 C 6.61 g/m*3 5.2 C 0 km/h
1032 09-04-2017 09:20:00 5.3 C 6.65 g/m*3 5.3 C 0 km/h
1033 09-04-2017 09:25:00 5.5 C 6.74 g/m*3 5.5 C 0 km/h
1034 09-04-2017 09:30:00 5.6 C 6.79 g/m*3 5.6 C 0 km/h
1035 09-04-2017 09:35:00 5.8 C 6.88 g/m*3 5.8 C 0 km/h
1036 09-04-2017 09:40:00 5.9 C 6.92 g/m*3 5.9 C 0 km/h
1037 09-04-2017 09:45:00 6.1 C 7.01 g/m*3 6.1 C 0 km/h
1038 09-04-2017 09:50:00 6.2 C 7.06 g/m*3 6.2 C 0 km/h
1039 09-04-2017 09:55:00 6.4 C 7.15 g/m*3 6.4 C 0 km/h
1040 09-04-2017 10:00:00 6.6 C 7.25 g/m*3 6.6 C 0 km/h
1041 09-04-2017 10:05:00 6.7 C 7.29 g/m*3 6.7 C 0 km/h
1042 09-04-2017 10:10:00 6.9 C 7.39 g/m*3 6.9 C 0 km/h
1043 09-04-2017 10:15:00 7.1 C 7.49 g/m*3 7.1 C 0 km/h
1044 09-04-2017 10:20:00 7.3 C 7.58 g/m*3 7.3 C 0 km/h
1045 09-04-2017 10:25:00 7.6 C 7.73 g/m*3 7.6 C 0 km/h
1046 09-04-2017 10:30:00 7.8 C 7.83 g/m*3 7.8 C 0 km/h
1047 09-04-2017 10:35:00 8 C 7.94 g/m*3 8 C 0 km/h
1048 09-04-2017 10:40:00 8.3 C 8.09 g/m*3 8.3 C 0 km/h
1049 09-04-2017 10:45:00 8.5 C 8.2 g/m*3 8.5 C 0 km/h
1050 09-04-2017 10:50:00 8.8 C 8.27 g/m*3 8.8 C 0 km/h
Sensor: Nr:Datum:Temp:Abs-Feuchte:Windchill:Wind:
Aussen-T/F 1051 09-04-2017 10:55:00 9.1 C 8.43 g/m*3 9.1 C 0 km/h
1052 09-04-2017 11:00:00 9.4 C 8.5 g/m*3 9.4 C 0 km/h
1053 09-04-2017 11:05:00 9.8 C 8.63 g/m*3 9.8 C 0 km/h
1054 09-04-2017 11:10:00 10.2 C 8.76 g/m*3 10.2 C 0 km/h
1055 09-04-2017 11:15:00 10.5 C 8.83 g/m*3 10.5 C 0 km/h
1056 09-04-2017 11:20:00 10.9 C 8.95 g/m*3 10.9 C 0 km/h
1057 09-04-2017 11:25:00 11.2 C 8.92 g/m*3 11.2 C 0 km/h
1058 09-04-2017 11:30:00 11.6 C 8.83 g/m*3 11.6 C 0 km/h
1059 09-04-2017 11:35:00 12 C 9.06 g/m*3 12 C 0 km/h
1060 09-04-2017 11:40:00 12.3 C 8.9 g/m*3 12.3 C 0 km/h
1061 09-04-2017 11:45:00 12.7 C 8.91 g/m*3 12.7 C 0 km/h
1062 09-04-2017 11:50:00 13.1 C 9.24 g/m*3 13.1 C 0 km/h
1063 09-04-2017 11:55:00 13.4 C 8.95 g/m*3 13.4 C 0 km/h
1064 09-04-2017 12:00:00 13.7 C 9.24 g/m*3 13.7 C 0 km/h
1065 09-04-2017 12:05:00 14 C 9.29 g/m*3 14 C 0 km/h
1066 09-04-2017 12:10:00 14.3 C 9.34 g/m*3 14.3 C 0 km/h
1067 09-04-2017 12:15:00 14.6 C 9.51 g/m*3 14.6 C 0 km/h
1068 09-04-2017 12:20:00 14.9 C 8.92 g/m*3 14.9 C 0 km/h
1069 09-04-2017 12:25:00 15.3 C 9.27 g/m*3 15.3 C 0 km/h
1070 09-04-2017 12:30:00 15.6 C 9.04 g/m*3 15.6 C 4.8 km/h
1071 09-04-2017 12:35:00 16.1 C 9.18 g/m*3 16.1 C 4.8 km/h
1072 09-04-2017 12:40:00 16.3 C 8.88 g/m*3 16.3 C 8.1 km/h
1073 09-04-2017 12:45:00 16.7 C 8.95 g/m*3 16.7 C 8.1 km/h
1074 09-04-2017 12:50:00 16.9 C 8.92 g/m*3 16.9 C 4.8 km/h
1075 09-04-2017 12:55:00 17.1 C 8.59 g/m*3 17.1 C 3.2 km/h
Sensor: Nr:Datum:Temp:Abs-Feuchte:Windchill:Wind:
Aussen-T/F 1076 09-04-2017 13:00:00 17.4 C 8.6 g/m*3 17.4 C 6.4 km/h
1077 09-04-2017 13:05:00 17.6 C 8.55 g/m*3 17.6 C 6.4 km/h
1078 09-04-2017 13:10:00 17.8 C 8.65 g/m*3 17.8 C 6.4 km/h
1079 09-04-2017 13:15:00 17.9 C 8.55 g/m*3 17.9 C 8.1 km/h
1080 09-04-2017 13:20:00 17.9 C 8.7 g/m*3 17.9 C 4.8 km/h
1081 09-04-2017 13:25:00 18.1 C 8.65 g/m*3 18.1 C 8.1 km/h
1082 09-04-2017 13:30:00 18.3 C 8.76 g/m*3 18.3 C 6.4 km/h
1083 09-04-2017 13:35:00 18.4 C 8.65 g/m*3 18.4 C 8.1 km/h
1084 09-04-2017 13:40:00 18.6 C 8.59 g/m*3 18.6 C 4.8 km/h
1085 09-04-2017 13:45:00 18.6 C 8.59 g/m*3 18.6 C 3.2 km/h
1086 09-04-2017 13:50:00 18.7 C 8.65 g/m*3 18.7 C 3.2 km/h
1087 09-04-2017 13:55:00 18.9 C 8.42 g/m*3 18.9 C 3.2 km/h
1088 09-04-2017 14:00:00 19.1 C 8.52 g/m*3 19.1 C 8.1 km/h
1089 09-04-2017 14:05:00 19.3 C 8.63 g/m*3 19.3 C 4.8 km/h
1090 09-04-2017 14:10:00 19.5 C 8.56 g/m*3 19.5 C 11.3 km/h
1091 09-04-2017 14:15:00 19.7 C 8.49 g/m*3 19.7 C 8.1 km/h
1092 09-04-2017 14:20:00 19.8 C 8.54 g/m*3 19.8 C 9.7 km/h
1093 09-04-2017 14:25:00 19.8 C 8.54 g/m*3 19.8 C 4.8 km/h
1094 09-04-2017 14:30:00 19.9 C 8.25 g/m*3 19.9 C 4.8 km/h
1095 09-04-2017 14:35:00 20 C 8.47 g/m*3 20 C 6.4 km/h
1096 09-04-2017 14:40:00 20.1 C 8.17 g/m*3 20.1 C 6.4 km/h
1097 09-04-2017 14:45:00 20.3 C 8.27 g/m*3 20.3 C 4.8 km/h
1098 09-04-2017 14:50:00 20.3 C 8.27 g/m*3 20.3 C 6.4 km/h
1099 09-04-2017 14:55:00 20.4 C 8.14 g/m*3 20.4 C 6.4 km/h
1100 09-04-2017 15:00:00 20.6 C 8.23 g/m*3 20.6 C 8.1 km/h
Sensor: Nr:Datum:Temp:Abs-Feuchte:Windchill:Wind:
Aussen-T/F 1101 09-04-2017 15:05:00 20.8 C 8.33 g/m*3 20.8 C 9.7 km/h
1102 09-04-2017 15:10:00 21 C 8.43 g/m*3 21 C 11.3 km/h
1103 09-04-2017 15:15:00 21.1 C 8.29 g/m*3 21.1 C 6.4 km/h
1104 09-04-2017 15:20:00 21.2 C 8.15 g/m*3 21.2 C 4.8 km/h
1105 09-04-2017 15:25:00 21.3 C 8.02 g/m*3 21.3 C 4.8 km/h
1106 09-04-2017 15:30:00 21.3 C 8.2 g/m*3 21.3 C 8.1 km/h
1107 09-04-2017 15:35:00 21.5 C 8.11 g/m*3 21.5 C 9.7 km/h
1108 09-04-2017 15:40:00 21.6 C 8.16 g/m*3 21.6 C 6.4 km/h
1109 09-04-2017 15:45:00 21.6 C 8.16 g/m*3 21.6 C 6.4 km/h
1110 09-04-2017 15:50:00 21.7 C 8.2 g/m*3 21.7 C 6.4 km/h
1111 09-04-2017 15:55:00 21.8 C 8.25 g/m*3 21.8 C 3.2 km/h
1112 09-04-2017 16:00:00 22 C 8.15 g/m*3 22 C 4.8 km/h
1113 09-04-2017 16:05:00 22.2 C 8.25 g/m*3 22.2 C 8.1 km/h
1114 09-04-2017 16:10:00 22.3 C 8.29 g/m*3 22.3 C 1.6 km/h
1115 09-04-2017 16:15:00 22.4 C 8.14 g/m*3 22.4 C 3.2 km/h
1116 09-04-2017 16:20:00 22.5 C 8.19 g/m*3 22.5 C 9.7 km/h
1117 09-04-2017 16:25:00 22.7 C 8.08 g/m*3 22.7 C 8.1 km/h
1118 09-04-2017 16:30:00 22.8 C 7.92 g/m*3 22.8 C 8.1 km/h
1119 09-04-2017 16:35:00 22.9 C 7.97 g/m*3 22.9 C 3.2 km/h
1120 09-04-2017 16:40:00 23.3 C 8.36 g/m*3 23.3 C 3.2 km/h
1121 09-04-2017 16:45:00 23.8 C 7.96 g/m*3 23.8 C 4.8 km/h
1122 09-04-2017 16:50:00 24.1 C 7.88 g/m*3 24.1 C 6.4 km/h
1123 09-04-2017 16:55:00 24.2 C 8.14 g/m*3 24.2 C 4.8 km/h
1124 09-04-2017 17:00:00 24.2 C 7.92 g/m*3 24.2 C 4.8 km/h
1125 09-04-2017 17:05:00 24.3 C 7.97 g/m*3 24.3 C 6.4 km/h
Sensor: Nr:Datum:Temp:Abs-Feuchte:Windchill:Wind:
Aussen-T/F 1126 09-04-2017 17:10:00 24.1 C 8.1 g/m*3 24.1 C 11.3 km/h
1127 09-04-2017 17:15:00 24.2 C 7.92 g/m*3 24.2 C 6.4 km/h
1128 09-04-2017 17:20:00 24.2 C 7.92 g/m*3 24.2 C 4.8 km/h
1129 09-04-2017 17:25:00 24.3 C 7.75 g/m*3 24.3 C 6.4 km/h
1130 09-04-2017 17:30:00 24.2 C 7.7 g/m*3 24.2 C 8.1 km/h
1131 09-04-2017 17:35:00 24.4 C 8.23 g/m*3 24.4 C 1.6 km/h
1132 09-04-2017 17:40:00 24.7 C 7.7 g/m*3 24.7 C 4.8 km/h
1133 09-04-2017 17:45:00 24.6 C 7.88 g/m*3 24.6 C 4.8 km/h
1134 09-04-2017 17:50:00 24.7 C 7.92 g/m*3 24.7 C 6.4 km/h
1135 09-04-2017 17:55:00 25 C 7.83 g/m*3 25 C 1.6 km/h
1136 09-04-2017 18:00:00 25.2 C 8.15 g/m*3 25.2 C 3.2 km/h
1137 09-04-2017 18:05:00 25.3 C 7.73 g/m*3 25.3 C 4.8 km/h
1138 09-04-2017 18:10:00 25.2 C 7.92 g/m*3 25.2 C 4.8 km/h
1139 09-04-2017 18:15:00 25.3 C 7.73 g/m*3 25.3 C 3.2 km/h
1140 09-04-2017 18:20:00 25.3 C 7.73 g/m*3 25.3 C 3.2 km/h
1141 09-04-2017 18:25:00 25.3 C 7.73 g/m*3 25.3 C 3.2 km/h
1142 09-04-2017 18:30:00 25.2 C 7.68 g/m*3 25.2 C 4.8 km/h
1143 09-04-2017 18:35:00 24.9 C 7.55 g/m*3 24.9 C 4.8 km/h
1144 09-04-2017 18:40:00 24.8 C 8.19 g/m*3 24.8 C 3.2 km/h
1145 09-04-2017 18:45:00 25.1 C 8.8 g/m*3 25.1 C 1.6 km/h
1146 09-04-2017 18:50:00 25.2 C 8.61 g/m*3 25.2 C 1.6 km/h
1147 09-04-2017 18:55:00 25.2 C 9.31 g/m*3 25.2 C 3.2 km/h
1148 09-04-2017 19:00:00 25.1 C 9.03 g/m*3 25.1 C 0 km/h
1149 09-04-2017 19:05:00 24.8 C 9.1 g/m*3 24.8 C 0 km/h
1150 09-04-2017 19:10:00 24.6 C 9.23 g/m*3 24.6 C 0 km/h
Sensor: Nr:Datum:Temp:Abs-Feuchte:Windchill:Wind:
Aussen-T/F 1151 09-04-2017 19:15:00 24.2 C 9.02 g/m*3 24.2 C 0 km/h
1152 09-04-2017 19:20:00 23.4 C 8.83 g/m*3 23.4 C 1.6 km/h
1153 09-04-2017 19:25:00 22.6 C 8.84 g/m*3 22.6 C 1.6 km/h
1154 09-04-2017 19:30:00 21.8 C 9.02 g/m*3 21.8 C 3.2 km/h
1155 09-04-2017 19:35:00 21.1 C 8.84 g/m*3 21.1 C 4.8 km/h
1156 09-04-2017 19:40:00 20.5 C 8.54 g/m*3 20.5 C 4.8 km/h
1157 09-04-2017 19:45:00 20.1 C 8.52 g/m*3 20.1 C 4.8 km/h
1158 09-04-2017 19:50:00 19.7 C 8.49 g/m*3 19.7 C 4.8 km/h
1159 09-04-2017 19:55:00 19.4 C 8.34 g/m*3 19.4 C 4.8 km/h
1160 09-04-2017 20:00:00 19.1 C 8.2 g/m*3 19.1 C 4.8 km/h
1161 09-04-2017 20:05:00 18.7 C 8.17 g/m*3 18.7 C 6.4 km/h
1162 09-04-2017 20:10:00 18.4 C 8.02 g/m*3 18.4 C 6.4 km/h
1163 09-04-2017 20:15:00 18.2 C 7.93 g/m*3 18.2 C 6.4 km/h
1164 09-04-2017 20:20:00 18 C 7.99 g/m*3 18 C 6.4 km/h
1165 09-04-2017 20:25:00 17.8 C 8.04 g/m*3 17.8 C 6.4 km/h
1166 09-04-2017 20:30:00 17.6 C 8.1 g/m*3 17.6 C 6.4 km/h
1167 09-04-2017 20:35:00 17.3 C 8.1 g/m*3 17.3 C 4.8 km/h
1168 09-04-2017 20:40:00 17.1 C 8.15 g/m*3 17.1 C 6.4 km/h
1169 09-04-2017 20:45:00 16.8 C 8.15 g/m*3 16.8 C 4.8 km/h
1170 09-04-2017 20:50:00 16.7 C 8.24 g/m*3 16.7 C 4.8 km/h
1171 09-04-2017 20:55:00 16.6 C 8.33 g/m*3 16.6 C 4.8 km/h
1172 09-04-2017 21:00:00 16.3 C 8.32 g/m*3 16.3 C 4.8 km/h
1173 09-04-2017 21:05:00 16.1 C 8.36 g/m*3 16.1 C 3.2 km/h
1174 09-04-2017 21:10:00 15.8 C 8.35 g/m*3 15.8 C 4.8 km/h
1175 09-04-2017 21:15:00 15.6 C 8.38 g/m*3 15.6 C 3.2 km/h
Sensor: Nr:Datum:Temp:Abs-Feuchte:Windchill:Wind:
Aussen-T/F 1176 09-04-2017 21:20:00 15.4 C 8.28 g/m*3 15.4 C 1.6 km/h
1177 09-04-2017 21:25:00 15.2 C 8.31 g/m*3 15.2 C 3.2 km/h
1178 09-04-2017 21:30:00 15.1 C 8.39 g/m*3 15.1 C 3.2 km/h
1179 09-04-2017 21:35:00 14.9 C 8.41 g/m*3 14.9 C 3.2 km/h
1180 09-04-2017 21:40:00 14.8 C 8.36 g/m*3 14.8 C 3.2 km/h
1181 09-04-2017 21:45:00 14.7 C 8.44 g/m*3 14.7 C 1.6 km/h
1182 09-04-2017 21:50:00 14.6 C 8.38 g/m*3 14.6 C 3.2 km/h
1183 09-04-2017 21:55:00 14.3 C 8.35 g/m*3 14.3 C 0 km/h
1184 09-04-2017 22:00:00 14.1 C 8.37 g/m*3 14.1 C 0 km/h
1185 09-04-2017 22:05:00 13.8 C 8.34 g/m*3 13.8 C 0 km/h
1186 09-04-2017 22:10:00 13.4 C 8.25 g/m*3 13.4 C 0 km/h
1187 09-04-2017 22:15:00 13.2 C 8.27 g/m*3 13.2 C 4.8 km/h
1188 09-04-2017 22:20:00 13.1 C 8.22 g/m*3 13.1 C 3.2 km/h
1189 09-04-2017 22:25:00 13.1 C 8.33 g/m*3 13.1 C 0 km/h
1190 09-04-2017 22:30:00 13.1 C 8.33 g/m*3 13.1 C 1.6 km/h
1191 09-04-2017 22:35:00 13.2 C 8.27 g/m*3 13.2 C 3.2 km/h
1192 09-04-2017 22:40:00 13.1 C 8.33 g/m*3 13.1 C 0 km/h
1193 09-04-2017 22:45:00 12.9 C 8.23 g/m*3 12.9 C 0 km/h
1194 09-04-2017 22:50:00 12.7 C 8.24 g/m*3 12.7 C 0 km/h
1195 09-04-2017 22:55:00 12.6 C 8.19 g/m*3 12.6 C 0 km/h
1196 09-04-2017 23:00:00 12.4 C 8.09 g/m*3 12.4 C 0 km/h
1197 09-04-2017 23:05:00 12.3 C 8.14 g/m*3 12.3 C 0 km/h
1198 09-04-2017 23:10:00 12.1 C 8.04 g/m*3 12.1 C 0 km/h
1199 09-04-2017 23:15:00 12.1 C 8.04 g/m*3 12.1 C 0 km/h
1200 09-04-2017 23:20:00 11.9 C 7.94 g/m*3 11.9 C 0 km/h
Sensor: Nr:Datum:Temp:Abs-Feuchte:Windchill:Wind:
Aussen-T/F 1201 09-04-2017 23:25:00 11.8 C 7.89 g/m*3 11.8 C 0 km/h
1202 09-04-2017 23:30:00 11.6 C 7.9 g/m*3 11.6 C 0 km/h
1203 09-04-2017 23:35:00 11.4 C 7.8 g/m*3 11.4 C 0 km/h
1204 09-04-2017 23:40:00 11.3 C 7.85 g/m*3 11.3 C 0 km/h
1205 09-04-2017 23:45:00 11.2 C 7.8 g/m*3 11.2 C 0 km/h
1206 09-04-2017 23:50:00 11 C 7.71 g/m*3 11 C 0 km/h
1207 09-04-2017 23:55:00 10.8 C 7.71 g/m*3 10.8 C 0 km/h
1208 10-04-2017 00:00:00 10.6 C 7.71 g/m*3 10.6 C 0 km/h
1209 10-04-2017 00:05:00 10.6 C 7.71 g/m*3 10.6 C 0 km/h
1210 10-04-2017 00:10:00 10.5 C 7.66 g/m*3 10.5 C 0 km/h
1211 10-04-2017 00:15:00 10.4 C 7.61 g/m*3 10.4 C 0 km/h
1212 10-04-2017 00:20:00 10.4 C 7.61 g/m*3 10.4 C 0 km/h
1213 10-04-2017 00:25:00 10.4 C 7.71 g/m*3 10.4 C 1.6 km/h
1214 10-04-2017 00:30:00 10.5 C 7.76 g/m*3 10.5 C 3.2 km/h
1215 10-04-2017 00:35:00 10.7 C 7.76 g/m*3 10.7 C 3.2 km/h
1216 10-04-2017 00:40:00 10.7 C 7.76 g/m*3 10.7 C 0 km/h
1217 10-04-2017 00:45:00 10.7 C 7.66 g/m*3 10.7 C 0 km/h
1218 10-04-2017 00:50:00 10.4 C 7.52 g/m*3 10.4 C 0 km/h
1219 10-04-2017 00:55:00 10.1 C 7.56 g/m*3 10.1 C 0 km/h
1220 10-04-2017 01:00:00 9.9 C 7.47 g/m*3 9.9 C 0 km/h
1221 10-04-2017 01:05:00 9.7 C 7.47 g/m*3 9.7 C 0 km/h
1222 10-04-2017 01:10:00 9.6 C 7.42 g/m*3 9.6 C 0 km/h
1223 10-04-2017 01:15:00 9.4 C 7.42 g/m*3 9.4 C 0 km/h
1224 10-04-2017 01:20:00 9.2 C 7.32 g/m*3 9.2 C 0 km/h
1225 10-04-2017 01:25:00 9.1 C 7.36 g/m*3 9.1 C 0 km/h
Sensor: Nr:Datum:Temp:Abs-Feuchte:Windchill:Wind:
Aussen-T/F 1226 10-04-2017 01:30:00 9.1 C 7.45 g/m*3 9.1 C 0 km/h
1227 10-04-2017 01:35:00 9.1 C 7.45 g/m*3 9.1 C 0 km/h
1228 10-04-2017 01:40:00 9.2 C 7.5 g/m*3 9.2 C 0 km/h
1229 10-04-2017 01:45:00 9.1 C 7.36 g/m*3 9.1 C 0 km/h
1230 10-04-2017 01:50:00 8.9 C 7.36 g/m*3 8.9 C 0 km/h
1231 10-04-2017 01:55:00 8.8 C 7.31 g/m*3 8.8 C 0 km/h
1232 10-04-2017 02:00:00 8.8 C 7.4 g/m*3 8.8 C 0 km/h
1233 10-04-2017 02:05:00 8.7 C 7.35 g/m*3 8.7 C 0 km/h
1234 10-04-2017 02:10:00 8.7 C 7.35 g/m*3 8.7 C 0 km/h
1235 10-04-2017 02:15:00 8.6 C 7.3 g/m*3 8.6 C 0 km/h
1236 10-04-2017 02:20:00 8.4 C 7.21 g/m*3 8.4 C 0 km/h
1237 10-04-2017 02:25:00 8.3 C 7.25 g/m*3 8.3 C 0 km/h
1238 10-04-2017 02:30:00 8.2 C 7.2 g/m*3 8.2 C 0 km/h
1239 10-04-2017 02:35:00 8.1 C 7.16 g/m*3 8.1 C 0 km/h
1240 10-04-2017 02:40:00 7.9 C 7.15 g/m*3 7.9 C 0 km/h
1241 10-04-2017 02:45:00 7.9 C 7.15 g/m*3 7.9 C 0 km/h
1242 10-04-2017 02:50:00 7.8 C 7.1 g/m*3 7.8 C 0 km/h
1243 10-04-2017 02:55:00 7.8 C 7.18 g/m*3 7.8 C 0 km/h
1244 10-04-2017 03:00:00 7.7 C 7.14 g/m*3 7.7 C 0 km/h
1245 10-04-2017 03:05:00 7.7 C 7.14 g/m*3 7.7 C 0 km/h
1246 10-04-2017 03:10:00 7.7 C 7.22 g/m*3 7.7 C 0 km/h
1247 10-04-2017 03:15:00 7.8 C 7.26 g/m*3 7.8 C 0 km/h
1248 10-04-2017 03:20:00 7.9 C 7.23 g/m*3 7.9 C 1.6 km/h
1249 10-04-2017 03:25:00 7.8 C 7.18 g/m*3 7.8 C 0 km/h
1250 10-04-2017 03:30:00 7.8 C 7.18 g/m*3 7.8 C 0 km/h
Sensor: Nr:Datum:Temp:Abs-Feuchte:Windchill:Wind:
Aussen-T/F 1251 10-04-2017 03:35:00 7.8 C 7.18 g/m*3 7.8 C 1.6 km/h
1252 10-04-2017 03:40:00 7.8 C 7.26 g/m*3 7.8 C 1.6 km/h
1253 10-04-2017 03:45:00 7.8 C 7.26 g/m*3 7.8 C 1.6 km/h
1254 10-04-2017 03:50:00 7.7 C 7.14 g/m*3 7.7 C 1.6 km/h
1255 10-04-2017 03:55:00 7.7 C 7.14 g/m*3 7.7 C 0 km/h
1256 10-04-2017 04:00:00 7.5 C 7.04 g/m*3 7.5 C 0 km/h
1257 10-04-2017 04:05:00 7.3 C 6.95 g/m*3 7.3 C 0 km/h
1258 10-04-2017 04:10:00 7.2 C 6.99 g/m*3 7.2 C 0 km/h
1259 10-04-2017 04:15:00 7.2 C 6.99 g/m*3 7.2 C 1.6 km/h
1260 10-04-2017 04:20:00 7.3 C 7.11 g/m*3 7.3 C 3.2 km/h
1261 10-04-2017 04:25:00 7.4 C 7.16 g/m*3 7.4 C 0 km/h
1262 10-04-2017 04:30:00 7.3 C 7.03 g/m*3 7.3 C 0 km/h
1263 10-04-2017 04:35:00 7.2 C 6.99 g/m*3 7.2 C 0 km/h
1264 10-04-2017 04:40:00 7 C 6.9 g/m*3 7 C 1.6 km/h
1265 10-04-2017 04:45:00 6.9 C 6.85 g/m*3 6.9 C 1.6 km/h
1266 10-04-2017 04:50:00 6.8 C 6.88 g/m*3 6.8 C 0 km/h
1267 10-04-2017 04:55:00 6.8 C 6.88 g/m*3 6.8 C 0 km/h
1268 10-04-2017 05:00:00 6.9 C 7.01 g/m*3 6.9 C 1.6 km/h
1269 10-04-2017 05:05:00 7.1 C 7.1 g/m*3 7.1 C 1.6 km/h
1270 10-04-2017 05:10:00 7.1 C 7.02 g/m*3 7.1 C 3.2 km/h
1271 10-04-2017 05:15:00 7 C 6.97 g/m*3 7 C 0 km/h
1272 10-04-2017 05:20:00 7.1 C 7.02 g/m*3 7.1 C 0 km/h
1273 10-04-2017 05:25:00 7.1 C 7.02 g/m*3 7.1 C 0 km/h
1274 10-04-2017 05:30:00 7.1 C 7.02 g/m*3 7.1 C 0 km/h
1275 10-04-2017 05:35:00 7.1 C 7.02 g/m*3 7.1 C 0 km/h
Sensor: Nr:Datum:Temp:Abs-Feuchte:Windchill:Wind:
Aussen-T/F 1276 10-04-2017 05:40:00 7.2 C 7.06 g/m*3 7.2 C 3.2 km/h
1277 10-04-2017 05:45:00 7.3 C 7.11 g/m*3 7.3 C 3.2 km/h
1278 10-04-2017 05:50:00 7.5 C 7.12 g/m*3 7.5 C 1.6 km/h
1279 10-04-2017 05:55:00 7.6 C 7.17 g/m*3 7.6 C 3.2 km/h
1280 10-04-2017 06:00:00 7.6 C 7.01 g/m*3 7.6 C 0 km/h
1281 10-04-2017 06:05:00 7.3 C 6.79 g/m*3 7.3 C 0 km/h
1282 10-04-2017 06:10:00 7.2 C 6.91 g/m*3 7.2 C 4.8 km/h
1283 10-04-2017 06:15:00 6.9 C 6.77 g/m*3 6.9 C 1.6 km/h
1284 10-04-2017 06:20:00 6.8 C 6.81 g/m*3 6.8 C 1.6 km/h
1285 10-04-2017 06:25:00 6.8 C 6.81 g/m*3 6.8 C 3.2 km/h
1286 10-04-2017 06:30:00 6.7 C 6.76 g/m*3 6.7 C 0 km/h
1287 10-04-2017 06:35:00 6.6 C 6.72 g/m*3 6.6 C 0 km/h
1288 10-04-2017 06:40:00 6.4 C 6.71 g/m*3 6.4 C 4.8 km/h
1289 10-04-2017 06:45:00 6.5 C 6.82 g/m*3 6.5 C 3.2 km/h
1290 10-04-2017 06:50:00 6.6 C 6.87 g/m*3 6.6 C 1.6 km/h
1291 10-04-2017 06:55:00 6.5 C 6.82 g/m*3 6.5 C 1.6 km/h
1292 10-04-2017 07:00:00 6.3 C 6.66 g/m*3 6.3 C 0 km/h
1293 10-04-2017 07:05:00 6.3 C 6.74 g/m*3 6.3 C 0 km/h
1294 10-04-2017 07:10:00 6.2 C 6.69 g/m*3 6.2 C 0 km/h
1295 10-04-2017 07:15:00 6.2 C 6.69 g/m*3 6.2 C 0 km/h
1296 10-04-2017 07:20:00 6.2 C 6.77 g/m*3 6.2 C 0 km/h
1297 10-04-2017 07:25:00 6.2 C 6.77 g/m*3 6.2 C 0 km/h
1298 10-04-2017 07:30:00 6.2 C 6.77 g/m*3 6.2 C 0 km/h
1299 10-04-2017 07:35:00 6.3 C 6.81 g/m*3 6.3 C 0 km/h
1300 10-04-2017 07:40:00 6.3 C 6.81 g/m*3 6.3 C 0 km/h
Sensor: Nr:Datum:Temp:Abs-Feuchte:Windchill:Wind:
Aussen-T/F 1301 10-04-2017 07:45:00 6.3 C 6.81 g/m*3 6.3 C 0 km/h
1302 10-04-2017 07:50:00 6.3 C 6.81 g/m*3 6.3 C 0 km/h
1303 10-04-2017 07:55:00 6.4 C 6.85 g/m*3 6.4 C 0 km/h
1304 10-04-2017 08:00:00 6.6 C 6.95 g/m*3 6.6 C 1.6 km/h
1305 10-04-2017 08:05:00 6.7 C 6.99 g/m*3 6.7 C 0 km/h
1306 10-04-2017 08:10:00 6.7 C 6.99 g/m*3 6.7 C 0 km/h
1307 10-04-2017 08:15:00 6.9 C 7.08 g/m*3 6.9 C 0 km/h
1308 10-04-2017 08:20:00 7.1 C 7.18 g/m*3 7.1 C 0 km/h
1309 10-04-2017 08:25:00 7.2 C 7.22 g/m*3 7.2 C 0 km/h
1310 10-04-2017 08:30:00 7.3 C 7.27 g/m*3 7.3 C 0 km/h
1311 10-04-2017 08:35:00 7.4 C 7.24 g/m*3 7.4 C 1.6 km/h
1312 10-04-2017 08:40:00 7.6 C 7.33 g/m*3 7.6 C 0 km/h
1313 10-04-2017 08:45:00 7.7 C 7.38 g/m*3 7.7 C 0 km/h
1314 10-04-2017 08:50:00 7.9 C 7.56 g/m*3 7.9 C 0 km/h
1315 10-04-2017 08:55:00 8.1 C 7.66 g/m*3 8.1 C 0 km/h
1316 10-04-2017 09:00:00 8.3 C 7.67 g/m*3 8.3 C 0 km/h
1317 10-04-2017 09:05:00 8.6 C 7.82 g/m*3 8.6 C 0 km/h
1318 10-04-2017 09:10:00 8.9 C 7.97 g/m*3 8.9 C 0 km/h
1319 10-04-2017 09:15:00 9.2 C 8.04 g/m*3 9.2 C 0 km/h
1320 10-04-2017 09:20:00 9.4 C 8.14 g/m*3 9.4 C 0 km/h
1321 10-04-2017 09:25:00 9.6 C 8.15 g/m*3 9.6 C 0 km/h
1322 10-04-2017 09:30:00 9.9 C 8.4 g/m*3 9.9 C 0 km/h
1323 10-04-2017 09:35:00 10.2 C 8.56 g/m*3 10.2 C 0 km/h
1324 10-04-2017 09:40:00 10.5 C 8.44 g/m*3 10.5 C 1.6 km/h
1325 10-04-2017 09:45:00 10.8 C 8.3 g/m*3 10.8 C 3.2 km/h
Sensor: Nr:Datum:Temp:Abs-Feuchte:Windchill:Wind:
Aussen-T/F 1326 10-04-2017 09:50:00 11.1 C 8.46 g/m*3 11.1 C 1.6 km/h
1327 10-04-2017 09:55:00 11.3 C 8.57 g/m*3 11.3 C 3.2 km/h
1328 10-04-2017 10:00:00 11.5 C 8.57 g/m*3 11.5 C 4.8 km/h
1329 10-04-2017 10:05:00 11.7 C 8.58 g/m*3 11.7 C 3.2 km/h
1330 10-04-2017 10:10:00 11.9 C 8.68 g/m*3 11.9 C 3.2 km/h
1331 10-04-2017 10:15:00 12.2 C 8.63 g/m*3 12.2 C 1.6 km/h
1332 10-04-2017 10:20:00 12.6 C 8.52 g/m*3 12.6 C 8.1 km/h
1333 10-04-2017 10:25:00 12.9 C 8.45 g/m*3 12.9 C 9.7 km/h
1334 10-04-2017 10:30:00 13.2 C 8.61 g/m*3 13.2 C 3.2 km/h
1335 10-04-2017 10:35:00 13.4 C 8.6 g/m*3 13.4 C 11.3 km/h
1336 10-04-2017 10:40:00 13.8 C 8.7 g/m*3 13.8 C 6.4 km/h
1337 10-04-2017 10:45:00 13.9 C 8.63 g/m*3 13.9 C 19.3 km/h
1338 10-04-2017 10:50:00 14.1 C 8.74 g/m*3 14.1 C 9.7 km/h
1339 10-04-2017 10:55:00 14.2 C 8.79 g/m*3 14.2 C 16.1 km/h
1340 10-04-2017 11:00:00 14.4 C 8.78 g/m*3 14.4 C 12.9 km/h
1341 10-04-2017 11:05:00 14.4 C 8.78 g/m*3 14.4 C 14.5 km/h
1342 10-04-2017 11:10:00 14.5 C 8.95 g/m*3 14.5 C 12.9 km/h
1343 10-04-2017 11:15:00 14.4 C 8.9 g/m*3 14.4 C 16.1 km/h
1344 10-04-2017 11:20:00 14.4 C 8.9 g/m*3 14.4 C 16.1 km/h
1345 10-04-2017 11:25:00 14.4 C 9.02 g/m*3 14.4 C 16.1 km/h
1346 10-04-2017 11:30:00 14.4 C 8.9 g/m*3 14.4 C 16.1 km/h
1347 10-04-2017 11:35:00 14.4 C 8.9 g/m*3 14.4 C 19.3 km/h
1348 10-04-2017 11:40:00 14.5 C 9.08 g/m*3 14.5 C 12.9 km/h
1349 10-04-2017 11:45:00 14.6 C 9.01 g/m*3 14.6 C 16.1 km/h
1350 10-04-2017 11:50:00 14.5 C 8.95 g/m*3 14.5 C 14.5 km/h
Sensor: Nr:Datum:Temp:Abs-Feuchte:Windchill:Wind:
Aussen-T/F 1351 10-04-2017 11:55:00 14.6 C 9.01 g/m*3 14.6 C 14.5 km/h
1352 10-04-2017 12:00:00 14.7 C 8.81 g/m*3 14.7 C 19.3 km/h
1353 10-04-2017 12:05:00 14.6 C 8.88 g/m*3 14.6 C 20.9 km/h
1354 10-04-2017 12:10:00 14.7 C 8.94 g/m*3 14.7 C 11.3 km/h
1355 10-04-2017 12:15:00 14.8 C 8.87 g/m*3 14.8 C 16.1 km/h
1356 10-04-2017 12:20:00 14.8 C 8.74 g/m*3 14.8 C 14.5 km/h
1357 10-04-2017 12:25:00 14.8 C 8.74 g/m*3 14.8 C 12.9 km/h
1358 10-04-2017 12:30:00 14.7 C 8.69 g/m*3 14.7 C 16.1 km/h
1359 10-04-2017 12:35:00 14.8 C 8.74 g/m*3 14.8 C 16.1 km/h
1360 10-04-2017 12:40:00 14.7 C 8.69 g/m*3 14.7 C 16.1 km/h
1361 10-04-2017 12:45:00 14.8 C 8.74 g/m*3 14.8 C 14.5 km/h
1362 10-04-2017 12:50:00 14.8 C 8.74 g/m*3 14.8 C 17.7 km/h
1363 10-04-2017 12:55:00 14.8 C 8.74 g/m*3 14.8 C 14.5 km/h
1364 10-04-2017 13:00:00 14.8 C 8.74 g/m*3 14.8 C 17.7 km/h
1365 10-04-2017 13:05:00 14.8 C 8.87 g/m*3 14.8 C 12.9 km/h
1366 10-04-2017 13:10:00 14.7 C 8.69 g/m*3 14.7 C 19.3 km/h
1367 10-04-2017 13:15:00 14.7 C 8.69 g/m*3 14.7 C 16.1 km/h
1368 10-04-2017 13:20:00 14.6 C 8.76 g/m*3 14.6 C 19.3 km/h
1369 10-04-2017 13:25:00 14.5 C 8.71 g/m*3 14.5 C 12.9 km/h
1370 10-04-2017 13:30:00 14.4 C 8.65 g/m*3 14.4 C 11.3 km/h
1371 10-04-2017 13:35:00 14.5 C 8.83 g/m*3 14.5 C 16.1 km/h
1372 10-04-2017 13:40:00 14.3 C 8.48 g/m*3 14.3 C 19.3 km/h
1373 10-04-2017 13:45:00 14.2 C 8.55 g/m*3 14.2 C 11.3 km/h
1374 10-04-2017 13:50:00 14.2 C 8.67 g/m*3 14.2 C 11.3 km/h
1375 10-04-2017 13:55:00 14.2 C 8.67 g/m*3 14.2 C 11.3 km/h
Sensor: Nr:Datum:Temp:Abs-Feuchte:Windchill:Wind:
Aussen-T/F 1376 10-04-2017 14:00:00 14.2 C 8.55 g/m*3 14.2 C 12.9 km/h
1377 10-04-2017 14:05:00 14.1 C 8.5 g/m*3 14.1 C 14.5 km/h
1378 10-04-2017 14:10:00 14.2 C 8.43 g/m*3 14.2 C 12.9 km/h
1379 10-04-2017 14:15:00 14.3 C 8.6 g/m*3 14.3 C 11.3 km/h
1380 10-04-2017 14:20:00 14.3 C 8.23 g/m*3 14.3 C 17.7 km/h
1381 10-04-2017 14:25:00 14.3 C 7.86 g/m*3 14.3 C 11.3 km/h
1382 10-04-2017 14:30:00 14.4 C 8.03 g/m*3 14.4 C 12.9 km/h
1383 10-04-2017 14:35:00 14.4 C 8.03 g/m*3 14.4 C 9.7 km/h
1384 10-04-2017 14:40:00 14.4 C 8.03 g/m*3 14.4 C 12.9 km/h
1385 10-04-2017 14:45:00 14.4 C 7.91 g/m*3 14.4 C 24.1 km/h
1386 10-04-2017 14:50:00 14.3 C 8.11 g/m*3 14.3 C 24.1 km/h
1387 10-04-2017 14:55:00 14.3 C 8.11 g/m*3 14.3 C 14.5 km/h
1388 10-04-2017 15:00:00 14.5 C 8.21 g/m*3 14.5 C 12.9 km/h
1389 10-04-2017 15:05:00 14.7 C 8.06 g/m*3 14.7 C 11.3 km/h
1390 10-04-2017 15:10:00 14.8 C 7.98 g/m*3 14.8 C 9.7 km/h
1391 10-04-2017 15:15:00 14.9 C 7.9 g/m*3 14.9 C 14.5 km/h
1392 10-04-2017 15:20:00 15 C 7.95 g/m*3 15 C 16.1 km/h
1393 10-04-2017 15:25:00 14.9 C 7.9 g/m*3 14.9 C 16.1 km/h
1394 10-04-2017 15:30:00 15 C 7.95 g/m*3 15 C 12.9 km/h
1395 10-04-2017 15:35:00 15.1 C 8.26 g/m*3 15.1 C 14.5 km/h
1396 10-04-2017 15:40:00 15.1 C 8.26 g/m*3 15.1 C 19.3 km/h
1397 10-04-2017 15:45:00 14.9 C 8.03 g/m*3 14.9 C 17.7 km/h
1398 10-04-2017 15:50:00 14.7 C 8.06 g/m*3 14.7 C 17.7 km/h
1399 10-04-2017 15:55:00 14.4 C 7.91 g/m*3 14.4 C 20.9 km/h
1400 10-04-2017 16:00:00 14.2 C 7.94 g/m*3 14.2 C 17.7 km/h
Sensor: Nr:Datum:Temp:Abs-Feuchte:Windchill:Wind:
Aussen-T/F 1401 10-04-2017 16:05:00 14.1 C 7.77 g/m*3 14.1 C 22.5 km/h
1402 10-04-2017 16:10:00 14 C 7.84 g/m*3 14 C 14.5 km/h
1403 10-04-2017 16:15:00 14.2 C 7.82 g/m*3 14.2 C 12.9 km/h
1404 10-04-2017 16:20:00 14.2 C 7.69 g/m*3 14.2 C 25.7 km/h
1405 10-04-2017 16:25:00 14.2 C 7.82 g/m*3 14.2 C 11.3 km/h
1406 10-04-2017 16:30:00 14.2 C 7.69 g/m*3 14.2 C 19.3 km/h
1407 10-04-2017 16:35:00 14.3 C 7.74 g/m*3 14.3 C 19.3 km/h
1408 10-04-2017 16:40:00 14.6 C 7.88 g/m*3 14.6 C 16.1 km/h
1409 10-04-2017 16:45:00 14.5 C 7.84 g/m*3 14.5 C 17.7 km/h
1410 10-04-2017 16:50:00 14.3 C 7.74 g/m*3 14.3 C 16.1 km/h
1411 10-04-2017 16:55:00 14.2 C 7.82 g/m*3 14.2 C 14.5 km/h
1412 10-04-2017 17:00:00 14.1 C 7.89 g/m*3 14.1 C 9.7 km/h
1413 10-04-2017 17:05:00 13.9 C 7.67 g/m*3 13.9 C 14.5 km/h
1414 10-04-2017 17:10:00 13.8 C 7.86 g/m*3 13.8 C 11.3 km/h
1415 10-04-2017 17:15:00 13.7 C 7.82 g/m*3 13.7 C 9.7 km/h
1416 10-04-2017 17:20:00 13.9 C 7.91 g/m*3 13.9 C 9.7 km/h
1417 10-04-2017 17:25:00 14.2 C 7.69 g/m*3 14.2 C 14.5 km/h
1418 10-04-2017 17:30:00 14.1 C 7.65 g/m*3 14.1 C 12.9 km/h
1419 10-04-2017 17:35:00 13.9 C 7.43 g/m*3 13.9 C 14.5 km/h
1420 10-04-2017 17:40:00 13.7 C 7.34 g/m*3 13.7 C 14.5 km/h
1421 10-04-2017 17:45:00 13.6 C 7.41 g/m*3 13.6 C 11.3 km/h
1422 10-04-2017 17:50:00 13.6 C 7.53 g/m*3 13.6 C 12.9 km/h
1423 10-04-2017 17:55:00 13.6 C 7.53 g/m*3 13.6 C 8.1 km/h
1424 10-04-2017 18:00:00 13.7 C 7.7 g/m*3 13.7 C 9.7 km/h
1425 10-04-2017 18:05:00 13.7 C 7.7 g/m*3 13.7 C 8.1 km/h
Sensor: Nr:Datum:Temp:Abs-Feuchte:Windchill:Wind:
Aussen-T/F 1426 10-04-2017 18:10:00 13.6 C 7.65 g/m*3 13.6 C 6.4 km/h
1427 10-04-2017 18:15:00 13.6 C 7.77 g/m*3 13.6 C 4.8 km/h
1428 10-04-2017 18:20:00 13.5 C 7.72 g/m*3 13.5 C 6.4 km/h
1429 10-04-2017 18:25:00 13.4 C 7.56 g/m*3 13.4 C 6.4 km/h
1430 10-04-2017 18:30:00 13.4 C 7.56 g/m*3 13.4 C 9.7 km/h
1431 10-04-2017 18:35:00 13.4 C 7.56 g/m*3 13.4 C 9.7 km/h
1432 10-04-2017 18:40:00 13.4 C 7.56 g/m*3 13.4 C 6.4 km/h
1433 10-04-2017 18:45:00 13.6 C 7.41 g/m*3 13.6 C 8.1 km/h
1434 10-04-2017 18:50:00 13.7 C 7.58 g/m*3 13.7 C 4.8 km/h
1435 10-04-2017 18:55:00 13.8 C 7.51 g/m*3 13.8 C 11.3 km/h
1436 10-04-2017 19:00:00 14.2 C 7.57 g/m*3 14.2 C 4.8 km/h
1437 10-04-2017 19:05:00 14.3 C 7.37 g/m*3 14.3 C 3.2 km/h
1438 10-04-2017 19:10:00 14.1 C 7.4 g/m*3 14.1 C 8.1 km/h
1439 10-04-2017 19:15:00 14 C 7.48 g/m*3 14 C 4.8 km/h
1440 10-04-2017 19:20:00 13.8 C 7.27 g/m*3 13.8 C 4.8 km/h
1441 10-04-2017 19:25:00 13.6 C 7.3 g/m*3 13.6 C 4.8 km/h
1442 10-04-2017 19:30:00 13.3 C 7.16 g/m*3 13.3 C 11.3 km/h
1443 10-04-2017 19:35:00 13.2 C 7.12 g/m*3 13.2 C 4.8 km/h
1444 10-04-2017 19:40:00 13.2 C 7.12 g/m*3 13.2 C 4.8 km/h
1445 10-04-2017 19:45:00 13.1 C 7.07 g/m*3 13.1 C 6.4 km/h
1446 10-04-2017 19:50:00 13 C 7.03 g/m*3 13 C 8.1 km/h
1447 10-04-2017 19:55:00 12.9 C 6.99 g/m*3 12.9 C 4.8 km/h
1448 10-04-2017 20:00:00 12.8 C 6.83 g/m*3 12.8 C 9.7 km/h
1449 10-04-2017 20:05:00 12.7 C 6.9 g/m*3 12.7 C 4.8 km/h
1450 10-04-2017 20:10:00 12.7 C 6.79 g/m*3 12.7 C 12.9 km/h
Sensor: Nr:Datum:Temp:Abs-Feuchte:Windchill:Wind:
Aussen-T/F 1451 10-04-2017 20:15:00 12.6 C 6.64 g/m*3 12.6 C 11.3 km/h
1452 10-04-2017 20:20:00 12.6 C 6.64 g/m*3 12.6 C 8.1 km/h
1453 10-04-2017 20:25:00 12.4 C 6.77 g/m*3 12.4 C 6.4 km/h
1454 10-04-2017 20:30:00 12.3 C 6.84 g/m*3 12.3 C 3.2 km/h
1455 10-04-2017 20:35:00 11.9 C 6.57 g/m*3 11.9 C 9.7 km/h
1456 10-04-2017 20:40:00 11.8 C 6.74 g/m*3 11.8 C 1.6 km/h
1457 10-04-2017 20:45:00 11.6 C 6.55 g/m*3 11.6 C 3.2 km/h
1458 10-04-2017 20:50:00 11.3 C 6.63 g/m*3 11.3 C 0 km/h
1459 10-04-2017 20:55:00 11.2 C 6.39 g/m*3 11.2 C 4.8 km/h
1460 10-04-2017 21:00:00 11.2 C 6.49 g/m*3 11.2 C 9.7 km/h
1461 10-04-2017 21:05:00 11.1 C 6.35 g/m*3 11.1 C 4.8 km/h
1462 10-04-2017 21:10:00 11.1 C 6.45 g/m*3 11.1 C 3.2 km/h
1463 10-04-2017 21:15:00 10.9 C 6.37 g/m*3 10.9 C 3.2 km/h
1464 10-04-2017 21:20:00 10.7 C 6.29 g/m*3 10.18 C 6.4 km/h
1465 10-04-2017 21:25:00 10.7 C 6.19 g/m*3 10.18 C 6.4 km/h
1466 10-04-2017 21:30:00 10.7 C 6.38 g/m*3 10.7 C 3.2 km/h
1467 10-04-2017 21:35:00 10.6 C 6.25 g/m*3 10.06 C 6.4 km/h
1468 10-04-2017 21:40:00 10.5 C 6.3 g/m*3 10.5 C 4.8 km/h
1469 10-04-2017 21:45:00 10.4 C 6.17 g/m*3 9.16 C 9.7 km/h
1470 10-04-2017 21:50:00 10.6 C 6.34 g/m*3 9.69 C 8.1 km/h
1471 10-04-2017 21:55:00 10.5 C 6.21 g/m*3 10.5 C 3.2 km/h
1472 10-04-2017 22:00:00 10.5 C 6.11 g/m*3 9.28 C 9.7 km/h
1473 10-04-2017 22:05:00 10.4 C 6.17 g/m*3 9.46 C 8.1 km/h
1474 10-04-2017 22:10:00 10.3 C 6.13 g/m*3 10.3 C 4.8 km/h
1475 10-04-2017 22:15:00 10.3 C 6.22 g/m*3 10.3 C 4.8 km/h
Sensor: Nr:Datum:Temp:Abs-Feuchte:Windchill:Wind:
Aussen-T/F 1476 10-04-2017 22:20:00 10.1 C 6.24 g/m*3 10.1 C 1.6 km/h
1477 10-04-2017 22:25:00 9.8 C 6.22 g/m*3 9.8 C 0 km/h
1478 10-04-2017 22:30:00 9.4 C 6.15 g/m*3 9.4 C 1.6 km/h
1479 10-04-2017 22:35:00 9.2 C 6.07 g/m*3 9.2 C 3.2 km/h
1480 10-04-2017 22:40:00 9.2 C 6.07 g/m*3 9.2 C 4.8 km/h
1481 10-04-2017 22:45:00 9.3 C 6.11 g/m*3 9.3 C 1.6 km/h
1482 10-04-2017 22:50:00 9.3 C 6.2 g/m*3 9.3 C 3.2 km/h
1483 10-04-2017 22:55:00 9.1 C 6.12 g/m*3 8.33 C 6.4 km/h
1484 10-04-2017 23:00:00 9.1 C 6.12 g/m*3 7.93 C 8.1 km/h
1485 10-04-2017 23:05:00 9.1 C 6.12 g/m*3 9.1 C 3.2 km/h
1486 10-04-2017 23:10:00 9 C 6.08 g/m*3 9 C 4.8 km/h
1487 10-04-2017 23:15:00 8.9 C 6.04 g/m*3 8.9 C 1.6 km/h
1488 10-04-2017 23:20:00 8.8 C 6.18 g/m*3 8.8 C 1.6 km/h
1489 10-04-2017 23:25:00 8.7 C 6.14 g/m*3 8.7 C 4.8 km/h
1490 10-04-2017 23:30:00 8.6 C 6.19 g/m*3 8.6 C 1.6 km/h
1491 10-04-2017 23:35:00 8.3 C 6.15 g/m*3 8.3 C 3.2 km/h
1492 10-04-2017 23:40:00 8.3 C 6.15 g/m*3 8.3 C 4.8 km/h
1493 10-04-2017 23:45:00 8.2 C 6.2 g/m*3 8.2 C 4.8 km/h
1494 10-04-2017 23:50:00 8.2 C 6.2 g/m*3 8.2 C 0 km/h
1495 10-04-2017 23:55:00 8.1 C 6.24 g/m*3 8.1 C 4.8 km/h
1496 11-04-2017 00:00:00 8.1 C 6.24 g/m*3 8.1 C 3.2 km/h
1497 11-04-2017 00:05:00 8 C 6.28 g/m*3 8 C 1.6 km/h
1498 11-04-2017 00:10:00 8.1 C 6.24 g/m*3 8.1 C 3.2 km/h
1499 11-04-2017 00:15:00 8.2 C 6.36 g/m*3 8.2 C 4.8 km/h
1500 11-04-2017 00:20:00 8.4 C 6.36 g/m*3 6.78 C 9.7 km/h
Sensor: Nr:Datum:Temp:Abs-Feuchte:Windchill:Wind:
Aussen-T/F 1501 11-04-2017 00:25:00 8.6 C 6.44 g/m*3 8.6 C 4.8 km/h
1502 11-04-2017 00:30:00 8.7 C 6.4 g/m*3 7.87 C 6.4 km/h
1503 11-04-2017 00:35:00 8.7 C 6.4 g/m*3 8.7 C 4.8 km/h
1504 11-04-2017 00:40:00 8.7 C 6.49 g/m*3 8.7 C 3.2 km/h
1505 11-04-2017 00:45:00 8.7 C 6.49 g/m*3 7.13 C 9.7 km/h
1506 11-04-2017 00:50:00 8.7 C 6.4 g/m*3 7.13 C 9.7 km/h
1507 11-04-2017 00:55:00 8.8 C 6.44 g/m*3 8.8 C 4.8 km/h
1508 11-04-2017 01:00:00 8.8 C 6.44 g/m*3 7.98 C 6.4 km/h
1509 11-04-2017 01:05:00 8.8 C 6.44 g/m*3 7.58 C 8.1 km/h
1510 11-04-2017 01:10:00 8.8 C 6.44 g/m*3 8.8 C 3.2 km/h
1511 11-04-2017 01:15:00 8.7 C 6.4 g/m*3 8.7 C 4.8 km/h
1512 11-04-2017 01:20:00 8.7 C 6.4 g/m*3 8.7 C 4.8 km/h
1513 11-04-2017 01:25:00 8.7 C 6.4 g/m*3 8.7 C 4.8 km/h
1514 11-04-2017 01:30:00 8.7 C 6.4 g/m*3 8.7 C 4.8 km/h
1515 11-04-2017 01:35:00 8.7 C 6.4 g/m*3 7.87 C 6.4 km/h
1516 11-04-2017 01:40:00 8.8 C 6.35 g/m*3 5.93 C 19.3 km/h
1517 11-04-2017 01:45:00 8.8 C 6.35 g/m*3 7.58 C 8.1 km/h
1518 11-04-2017 01:50:00 8.7 C 6.4 g/m*3 8.7 C 4.8 km/h
1519 11-04-2017 01:55:00 8.7 C 6.4 g/m*3 7.87 C 6.4 km/h
1520 11-04-2017 02:00:00 8.6 C 6.36 g/m*3 8.6 C 3.2 km/h
1521 11-04-2017 02:05:00 8.6 C 6.36 g/m*3 7.75 C 6.4 km/h
1522 11-04-2017 02:10:00 8.4 C 6.36 g/m*3 8.4 C 4.8 km/h
1523 11-04-2017 02:15:00 8.4 C 6.36 g/m*3 7.11 C 8.1 km/h
1524 11-04-2017 02:20:00 8.4 C 6.36 g/m*3 8.4 C 4.8 km/h
1525 11-04-2017 02:25:00 8.3 C 6.32 g/m*3 7.41 C 6.4 km/h
Sensor: Nr:Datum:Temp:Abs-Feuchte:Windchill:Wind:
Aussen-T/F 1526 11-04-2017 02:30:00 8.3 C 6.32 g/m*3 6.66 C 9.7 km/h
1527 11-04-2017 02:35:00 8.3 C 6.32 g/m*3 7.41 C 6.4 km/h
1528 11-04-2017 02:40:00 8.2 C 6.36 g/m*3 6.54 C 9.7 km/h
1529 11-04-2017 02:45:00 8.1 C 6.32 g/m*3 7.17 C 6.4 km/h
1530 11-04-2017 02:50:00 7.9 C 6.24 g/m*3 6.52 C 8.1 km/h
1531 11-04-2017 02:55:00 7.8 C 6.28 g/m*3 6.4 C 8.1 km/h
1532 11-04-2017 03:00:00 7.8 C 6.28 g/m*3 7.8 C 4.8 km/h
1533 11-04-2017 03:05:00 7.8 C 6.37 g/m*3 6.83 C 6.4 km/h
1534 11-04-2017 03:10:00 7.7 C 6.32 g/m*3 7.7 C 4.8 km/h
1535 11-04-2017 03:15:00 7.6 C 6.28 g/m*3 7.6 C 4.8 km/h
1536 11-04-2017 03:20:00 7.6 C 6.36 g/m*3 5.82 C 9.7 km/h
1537 11-04-2017 03:25:00 7.6 C 6.36 g/m*3 6.6 C 6.4 km/h
1538 11-04-2017 03:30:00 7.6 C 6.36 g/m*3 7.6 C 4.8 km/h
1539 11-04-2017 03:35:00 7.6 C 6.36 g/m*3 6.16 C 8.1 km/h
1540 11-04-2017 03:40:00 7.6 C 6.36 g/m*3 7.6 C 3.2 km/h
1541 11-04-2017 03:45:00 7.6 C 6.36 g/m*3 6.16 C 8.1 km/h
1542 11-04-2017 03:50:00 7.6 C 6.36 g/m*3 6.6 C 6.4 km/h
1543 11-04-2017 03:55:00 7.6 C 6.36 g/m*3 6.6 C 6.4 km/h
1544 11-04-2017 04:00:00 7.6 C 6.36 g/m*3 6.6 C 6.4 km/h
1545 11-04-2017 04:05:00 7.6 C 6.36 g/m*3 7.6 C 4.8 km/h
1546 11-04-2017 04:10:00 7.5 C 6.32 g/m*3 7.5 C 4.8 km/h
1547 11-04-2017 04:15:00 7.5 C 6.32 g/m*3 6.48 C 6.4 km/h
1548 11-04-2017 04:20:00 7.5 C 6.4 g/m*3 7.5 C 4.8 km/h
1549 11-04-2017 04:25:00 7.4 C 6.36 g/m*3 7.4 C 3.2 km/h
1550 11-04-2017 04:30:00 7.4 C 6.36 g/m*3 5.58 C 9.7 km/h
Sensor: Nr:Datum:Temp:Abs-Feuchte:Windchill:Wind:
Aussen-T/F 1551 11-04-2017 04:35:00 7.4 C 6.36 g/m*3 7.4 C 4.8 km/h
1552 11-04-2017 04:40:00 7.4 C 6.36 g/m*3 7.4 C 3.2 km/h
1553 11-04-2017 04:45:00 7.3 C 6.4 g/m*3 7.3 C 4.8 km/h
1554 11-04-2017 04:50:00 7.3 C 6.4 g/m*3 7.3 C 1.6 km/h
1555 11-04-2017 04:55:00 7.3 C 6.4 g/m*3 7.3 C 3.2 km/h
1556 11-04-2017 05:00:00 7.3 C 6.4 g/m*3 7.3 C 3.2 km/h
1557 11-04-2017 05:05:00 7.3 C 6.4 g/m*3 7.3 C 1.6 km/h
1558 11-04-2017 05:10:00 7.3 C 6.4 g/m*3 7.3 C 1.6 km/h
1559 11-04-2017 05:15:00 7.3 C 6.4 g/m*3 7.3 C 4.8 km/h
1560 11-04-2017 05:20:00 7.3 C 6.4 g/m*3 6.25 C 6.4 km/h
1561 11-04-2017 05:25:00 7.3 C 6.4 g/m*3 7.3 C 3.2 km/h
1562 11-04-2017 05:30:00 7.3 C 6.4 g/m*3 7.3 C 1.6 km/h
1563 11-04-2017 05:35:00 7.2 C 6.36 g/m*3 7.2 C 4.8 km/h
1564 11-04-2017 05:40:00 7.2 C 6.44 g/m*3 7.2 C 4.8 km/h
1565 11-04-2017 05:45:00 7.2 C 6.44 g/m*3 7.2 C 1.6 km/h
1566 11-04-2017 05:50:00 7.2 C 6.44 g/m*3 7.2 C 4.8 km/h
1567 11-04-2017 05:55:00 7.2 C 6.44 g/m*3 7.2 C 4.8 km/h
1568 11-04-2017 06:00:00 7.2 C 6.44 g/m*3 7.2 C 3.2 km/h
1569 11-04-2017 06:05:00 7.2 C 6.44 g/m*3 7.2 C 4.8 km/h
1570 11-04-2017 06:10:00 7.2 C 6.44 g/m*3 7.2 C 4.8 km/h
1571 11-04-2017 06:15:00 7.1 C 6.4 g/m*3 6.02 C 6.4 km/h
1572 11-04-2017 06:20:00 7.1 C 6.4 g/m*3 7.1 C 4.8 km/h
1573 11-04-2017 06:25:00 7.1 C 6.47 g/m*3 7.1 C 1.6 km/h
1574 11-04-2017 06:30:00 7 C 6.43 g/m*3 7 C 1.6 km/h
1575 11-04-2017 06:35:00 7 C 6.43 g/m*3 7 C 3.2 km/h
Sensor: Nr:Datum:Temp:Abs-Feuchte:Windchill:Wind:
Aussen-T/F 1576 11-04-2017 06:40:00 6.9 C 6.39 g/m*3 6.9 C 1.6 km/h
1577 11-04-2017 06:45:00 6.9 C 6.39 g/m*3 6.9 C 3.2 km/h
1578 11-04-2017 06:50:00 6.8 C 6.35 g/m*3 6.8 C 1.6 km/h
1579 11-04-2017 06:55:00 6.8 C 6.42 g/m*3 6.8 C 4.8 km/h
1580 11-04-2017 07:00:00 6.7 C 6.38 g/m*3 5.11 C 8.1 km/h
1581 11-04-2017 07:05:00 6.7 C 6.38 g/m*3 6.7 C 1.6 km/h
1582 11-04-2017 07:10:00 6.7 C 6.38 g/m*3 6.7 C 4.8 km/h
1583 11-04-2017 07:15:00 6.7 C 6.38 g/m*3 6.7 C 4.8 km/h
1584 11-04-2017 07:20:00 6.7 C 6.46 g/m*3 5.56 C 6.4 km/h
1585 11-04-2017 07:25:00 6.7 C 6.46 g/m*3 5.56 C 6.4 km/h
1586 11-04-2017 07:30:00 6.7 C 6.46 g/m*3 5.11 C 8.1 km/h
1587 11-04-2017 07:35:00 6.7 C 6.46 g/m*3 6.7 C 3.2 km/h
1588 11-04-2017 07:40:00 6.7 C 6.46 g/m*3 4.44 C 11.3 km/h
1589 11-04-2017 07:45:00 6.7 C 6.46 g/m*3 6.7 C 3.2 km/h
1590 11-04-2017 07:50:00 6.7 C 6.46 g/m*3 6.7 C 1.6 km/h
1591 11-04-2017 07:55:00 6.7 C 6.46 g/m*3 6.7 C 1.6 km/h
1592 11-04-2017 08:00:00 6.8 C 6.5 g/m*3 6.8 C 1.6 km/h
1593 11-04-2017 08:05:00 6.8 C 6.5 g/m*3 6.8 C 3.2 km/h
1594 11-04-2017 08:10:00 6.9 C 6.54 g/m*3 6.9 C 0 km/h
1595 11-04-2017 08:15:00 6.9 C 6.54 g/m*3 6.9 C 0 km/h
1596 11-04-2017 08:20:00 7 C 6.59 g/m*3 7 C 3.2 km/h
1597 11-04-2017 08:25:00 7.1 C 6.63 g/m*3 7.1 C 0 km/h
1598 11-04-2017 08:30:00 7.2 C 6.59 g/m*3 7.2 C 4.8 km/h
1599 11-04-2017 08:35:00 7.2 C 6.59 g/m*3 7.2 C 3.2 km/h
1600 11-04-2017 08:40:00 7.3 C 6.64 g/m*3 6.25 C 6.4 km/h
Sensor: Nr:Datum:Temp:Abs-Feuchte:Windchill:Wind:
Aussen-T/F 1601 11-04-2017 08:45:00 7.4 C 6.6 g/m*3 6.37 C 6.4 km/h
1602 11-04-2017 08:50:00 7.4 C 6.6 g/m*3 6.37 C 6.4 km/h
1603 11-04-2017 08:55:00 7.5 C 6.64 g/m*3 6.48 C 6.4 km/h
1604 11-04-2017 09:00:00 7.6 C 6.69 g/m*3 6.16 C 8.1 km/h
1605 11-04-2017 09:05:00 7.7 C 6.65 g/m*3 5.65 C 11.3 km/h
1606 11-04-2017 09:10:00 7.8 C 6.69 g/m*3 6.83 C 6.4 km/h
1607 11-04-2017 09:15:00 7.8 C 6.61 g/m*3 6.06 C 9.7 km/h
1608 11-04-2017 09:20:00 7.9 C 6.65 g/m*3 6.52 C 8.1 km/h
1609 11-04-2017 09:25:00 7.9 C 6.65 g/m*3 6.18 C 9.7 km/h
1610 11-04-2017 09:30:00 7.9 C 6.65 g/m*3 6.94 C 6.4 km/h
1611 11-04-2017 09:35:00 8 C 6.7 g/m*3 6.64 C 8.1 km/h
1612 11-04-2017 09:40:00 8.1 C 6.66 g/m*3 6.42 C 9.7 km/h
1613 11-04-2017 09:45:00 8.1 C 6.66 g/m*3 6.75 C 8.1 km/h
1614 11-04-2017 09:50:00 8.2 C 6.7 g/m*3 7.29 C 6.4 km/h
1615 11-04-2017 09:55:00 8.3 C 6.66 g/m*3 7.41 C 6.4 km/h
1616 11-04-2017 10:00:00 8.4 C 6.53 g/m*3 6.78 C 9.7 km/h
1617 11-04-2017 10:05:00 8.3 C 6.41 g/m*3 6.37 C 11.3 km/h
1618 11-04-2017 10:10:00 8.2 C 6.36 g/m*3 6.87 C 8.1 km/h
1619 11-04-2017 10:15:00 8.1 C 6.41 g/m*3 8.1 C 4.8 km/h
1620 11-04-2017 10:20:00 8.1 C 6.32 g/m*3 8.1 C 4.8 km/h
1621 11-04-2017 10:25:00 8.1 C 6.32 g/m*3 6.75 C 8.1 km/h
1622 11-04-2017 10:30:00 8.1 C 6.24 g/m*3 6.75 C 8.1 km/h
1623 11-04-2017 10:35:00 8.3 C 6.41 g/m*3 7.41 C 6.4 km/h
1624 11-04-2017 10:40:00 8.6 C 6.36 g/m*3 7.34 C 8.1 km/h
1625 11-04-2017 10:45:00 8.8 C 6.27 g/m*3 7.58 C 8.1 km/h
Sensor: Nr:Datum:Temp:Abs-Feuchte:Windchill:Wind:
Aussen-T/F 1626 11-04-2017 10:50:00 8.9 C 6.31 g/m*3 8.1 C 6.4 km/h
1627 11-04-2017 10:55:00 8.9 C 6.22 g/m*3 7.37 C 9.7 km/h
1628 11-04-2017 11:00:00 8.9 C 6.22 g/m*3 8.9 C 4.8 km/h
1629 11-04-2017 11:05:00 9 C 6.17 g/m*3 9 C 4.8 km/h
1630 11-04-2017 11:10:00 9.2 C 6.25 g/m*3 8.05 C 8.1 km/h
1631 11-04-2017 11:15:00 9.3 C 6.2 g/m*3 7.85 C 9.7 km/h
1632 11-04-2017 11:20:00 9.3 C 6.02 g/m*3 8.56 C 6.4 km/h
1633 11-04-2017 11:25:00 9.4 C 6.24 g/m*3 8.28 C 8.1 km/h
1634 11-04-2017 11:30:00 9.8 C 6.31 g/m*3 8.75 C 8.1 km/h
1635 11-04-2017 11:35:00 9.9 C 6.07 g/m*3 8.87 C 8.1 km/h
1636 11-04-2017 11:40:00 10.1 C 6.15 g/m*3 8.54 C 11.3 km/h
1637 11-04-2017 11:45:00 10.2 C 6 g/m*3 9.22 C 8.1 km/h
1638 11-04-2017 11:50:00 10.3 C 6.03 g/m*3 10.3 C 4.8 km/h
1639 11-04-2017 11:55:00 10.4 C 5.98 g/m*3 9.83 C 6.4 km/h
1640 11-04-2017 12:00:00 10.3 C 5.84 g/m*3 9.72 C 6.4 km/h
1641 11-04-2017 12:05:00 10.3 C 6.03 g/m*3 9.34 C 8.1 km/h
1642 11-04-2017 12:10:00 10.3 C 6.13 g/m*3 9.72 C 6.4 km/h
1643 11-04-2017 12:15:00 10.4 C 6.07 g/m*3 9.46 C 8.1 km/h
1644 11-04-2017 12:20:00 10.4 C 5.78 g/m*3 9.83 C 6.4 km/h
1645 11-04-2017 12:25:00 10.3 C 5.94 g/m*3 10.3 C 4.8 km/h
1646 11-04-2017 12:30:00 10.3 C 5.94 g/m*3 9.72 C 6.4 km/h
1647 11-04-2017 12:35:00 10.4 C 5.88 g/m*3 10.4 C 3.2 km/h
1648 11-04-2017 12:40:00 10.6 C 5.86 g/m*3 10.6 C 1.6 km/h
1649 11-04-2017 12:45:00 10.7 C 5.99 g/m*3 10.7 C 4.8 km/h
1650 11-04-2017 12:50:00 10.8 C 6.23 g/m*3 10.8 C 3.2 km/h
Sensor: Nr:Datum:Temp:Abs-Feuchte:Windchill:Wind:
Aussen-T/F 1651 11-04-2017 12:55:00 10.9 C 6.07 g/m*3 10.9 C 4.8 km/h
1652 11-04-2017 13:00:00 11.1 C 6.14 g/m*3 11.1 C 6.4 km/h
1653 11-04-2017 13:05:00 11.1 C 6.14 g/m*3 11.1 C 4.8 km/h
1654 11-04-2017 13:10:00 11.1 C 6.04 g/m*3 11.1 C 8.1 km/h
1655 11-04-2017 13:15:00 10.9 C 6.07 g/m*3 9.51 C 11.3 km/h
1656 11-04-2017 13:20:00 10.9 C 6.07 g/m*3 10.9 C 4.8 km/h
1657 11-04-2017 13:25:00 11 C 6.01 g/m*3 10.16 C 8.1 km/h
1658 11-04-2017 13:30:00 11.1 C 5.94 g/m*3 11.1 C 9.7 km/h
1659 11-04-2017 13:35:00 11.2 C 5.98 g/m*3 11.2 C 6.4 km/h
1660 11-04-2017 13:40:00 11.3 C 5.92 g/m*3 11.3 C 6.4 km/h
1661 11-04-2017 13:45:00 11.5 C 5.89 g/m*3 11.5 C 4.8 km/h
1662 11-04-2017 13:50:00 11.6 C 6.03 g/m*3 11.6 C 6.4 km/h
1663 11-04-2017 13:55:00 11.7 C 5.75 g/m*3 11.7 C 1.6 km/h
1664 11-04-2017 14:00:00 11.7 C 5.86 g/m*3 11.7 C 9.7 km/h
1665 11-04-2017 14:05:00 11.7 C 5.65 g/m*3 11.7 C 8.1 km/h
1666 11-04-2017 14:10:00 11.7 C 5.86 g/m*3 11.7 C 4.8 km/h
1667 11-04-2017 14:15:00 11.7 C 5.65 g/m*3 11.7 C 3.2 km/h
1668 11-04-2017 14:20:00 11.7 C 5.75 g/m*3 11.7 C 3.2 km/h
1669 11-04-2017 14:25:00 11.7 C 5.65 g/m*3 11.7 C 8.1 km/h
1670 11-04-2017 14:30:00 11.7 C 5.75 g/m*3 11.7 C 6.4 km/h
1671 11-04-2017 14:35:00 11.8 C 5.68 g/m*3 11.8 C 4.8 km/h
1672 11-04-2017 14:40:00 11.8 C 5.68 g/m*3 11.8 C 6.4 km/h
1673 11-04-2017 14:45:00 11.7 C 5.75 g/m*3 11.7 C 6.4 km/h
1674 11-04-2017 14:50:00 11.6 C 5.82 g/m*3 11.6 C 4.8 km/h
1675 11-04-2017 14:55:00 11.7 C 5.86 g/m*3 11.7 C 6.4 km/h
Sensor: Nr:Datum:Temp:Abs-Feuchte:Windchill:Wind:
Aussen-T/F 1676 11-04-2017 15:00:00 11.7 C 5.65 g/m*3 11.7 C 3.2 km/h
1677 11-04-2017 15:05:00 11.9 C 5.82 g/m*3 11.9 C 4.8 km/h
1678 11-04-2017 15:10:00 12.2 C 5.94 g/m*3 12.2 C 6.4 km/h
1679 11-04-2017 15:15:00 12.4 C 5.9 g/m*3 12.4 C 4.8 km/h
1680 11-04-2017 15:20:00 12.6 C 5.75 g/m*3 12.6 C 8.1 km/h
1681 11-04-2017 15:25:00 12.7 C 5.79 g/m*3 12.7 C 4.8 km/h
1682 11-04-2017 15:30:00 12.7 C 5.79 g/m*3 12.7 C 3.2 km/h
1683 11-04-2017 15:35:00 12.8 C 5.26 g/m*3 12.8 C 1.6 km/h
1684 11-04-2017 15:40:00 12.8 C 5.6 g/m*3 12.8 C 3.2 km/h
1685 11-04-2017 15:45:00 13.1 C 5.71 g/m*3 13.1 C 6.4 km/h
1686 11-04-2017 15:50:00 13.2 C 5.63 g/m*3 13.2 C 3.2 km/h
1687 11-04-2017 15:55:00 13.3 C 5.78 g/m*3 13.3 C 6.4 km/h
1688 11-04-2017 16:00:00 13.4 C 5.58 g/m*3 13.4 C 6.4 km/h
1689 11-04-2017 16:05:00 13.6 C 6 g/m*3 13.6 C 6.4 km/h
1690 11-04-2017 16:10:00 13.7 C 5.68 g/m*3 13.7 C 3.2 km/h
1691 11-04-2017 16:15:00 13.8 C 5.72 g/m*3 13.8 C 8.1 km/h
1692 11-04-2017 16:20:00 13.9 C 5.99 g/m*3 13.9 C 4.8 km/h
1693 11-04-2017 16:25:00 14.2 C 5.98 g/m*3 14.2 C 8.1 km/h
1694 11-04-2017 16:30:00 14.3 C 5.9 g/m*3 14.3 C 4.8 km/h
1695 11-04-2017 16:35:00 14.5 C 5.97 g/m*3 14.5 C 3.2 km/h
1696 11-04-2017 16:40:00 14.6 C 5.76 g/m*3 14.6 C 6.4 km/h
1697 11-04-2017 16:45:00 14.4 C 5.81 g/m*3 14.4 C 6.4 km/h
1698 11-04-2017 16:50:00 14.3 C 5.9 g/m*3 14.3 C 3.2 km/h
1699 11-04-2017 16:55:00 14.6 C 6.01 g/m*3 14.6 C 6.4 km/h
1700 11-04-2017 17:00:00 14.6 C 5.88 g/m*3 14.6 C 6.4 km/h
Sensor: Nr:Datum:Temp:Abs-Feuchte:Windchill:Wind:
Aussen-T/F 1701 11-04-2017 17:05:00 14.3 C 5.9 g/m*3 14.3 C 4.8 km/h
1702 11-04-2017 17:10:00 14.1 C 5.95 g/m*3 14.1 C 6.4 km/h
1703 11-04-2017 17:15:00 14.2 C 5.86 g/m*3 14.2 C 6.4 km/h
1704 11-04-2017 17:20:00 14.2 C 5.86 g/m*3 14.2 C 3.2 km/h
1705 11-04-2017 17:25:00 14.2 C 5.74 g/m*3 14.2 C 9.7 km/h
1706 11-04-2017 17:30:00 14.1 C 5.83 g/m*3 14.1 C 4.8 km/h
1707 11-04-2017 17:35:00 14 C 5.79 g/m*3 14 C 4.8 km/h
1708 11-04-2017 17:40:00 14 C 5.79 g/m*3 14 C 3.2 km/h
1709 11-04-2017 17:45:00 14 C 5.79 g/m*3 14 C 3.2 km/h
1710 11-04-2017 17:50:00 14.1 C 5.95 g/m*3 14.1 C 6.4 km/h
1711 11-04-2017 17:55:00 14.3 C 5.77 g/m*3 14.3 C 8.1 km/h
1712 11-04-2017 18:00:00 14.4 C 5.81 g/m*3 14.4 C 8.1 km/h
1713 11-04-2017 18:05:00 14.4 C 5.69 g/m*3 14.4 C 6.4 km/h
1714 11-04-2017 18:10:00 14.3 C 5.77 g/m*3 14.3 C 4.8 km/h
1715 11-04-2017 18:15:00 14.4 C 6.18 g/m*3 14.4 C 1.6 km/h
1716 11-04-2017 18:20:00 14.9 C 5.99 g/m*3 14.9 C 4.8 km/h
1717 11-04-2017 18:25:00 15.2 C 5.84 g/m*3 15.2 C 6.4 km/h
1718 11-04-2017 18:30:00 15.3 C 5.75 g/m*3 15.3 C 6.4 km/h
1719 11-04-2017 18:35:00 15.6 C 5.98 g/m*3 15.6 C 4.8 km/h
1720 11-04-2017 18:40:00 15.8 C 5.92 g/m*3 15.8 C 4.8 km/h
1721 11-04-2017 18:45:00 15.8 C 6.06 g/m*3 15.8 C 4.8 km/h
1722 11-04-2017 18:50:00 16 C 6.13 g/m*3 16 C 3.2 km/h
1723 11-04-2017 18:55:00 16.1 C 6.17 g/m*3 16.1 C 3.2 km/h
1724 11-04-2017 19:00:00 16.2 C 5.93 g/m*3 16.2 C 3.2 km/h
1725 11-04-2017 19:05:00 16.1 C 6.03 g/m*3 16.1 C 4.8 km/h
Sensor: Nr:Datum:Temp:Abs-Feuchte:Windchill:Wind:
Aussen-T/F 1726 11-04-2017 19:10:00 15.9 C 5.96 g/m*3 15.9 C 4.8 km/h
1727 11-04-2017 19:15:00 15.7 C 5.89 g/m*3 15.7 C 3.2 km/h
1728 11-04-2017 19:20:00 15.5 C 6.48 g/m*3 15.5 C 0 km/h
1729 11-04-2017 19:25:00 15.3 C 6.66 g/m*3 15.3 C 0 km/h
1730 11-04-2017 19:30:00 15.1 C 6.71 g/m*3 15.1 C 0 km/h
1731 11-04-2017 19:35:00 14.8 C 6.71 g/m*3 14.8 C 1.6 km/h
1732 11-04-2017 19:40:00 14.3 C 6.76 g/m*3 14.3 C 1.6 km/h
1733 11-04-2017 19:45:00 13.8 C 6.55 g/m*3 13.8 C 1.6 km/h
1734 11-04-2017 19:50:00 13.3 C 6.59 g/m*3 13.3 C 1.6 km/h
1735 11-04-2017 19:55:00 12.9 C 6.65 g/m*3 12.9 C 3.2 km/h
1736 11-04-2017 20:00:00 12.4 C 6.56 g/m*3 12.4 C 3.2 km/h
1737 11-04-2017 20:05:00 11.9 C 6.46 g/m*3 11.9 C 3.2 km/h
1738 11-04-2017 20:10:00 11.6 C 6.44 g/m*3 11.6 C 3.2 km/h
1739 11-04-2017 20:15:00 11.2 C 6.39 g/m*3 11.2 C 4.8 km/h
1740 11-04-2017 20:20:00 10.8 C 6.33 g/m*3 10.8 C 4.8 km/h
1741 11-04-2017 20:25:00 10.6 C 6.25 g/m*3 10.6 C 4.8 km/h
1742 11-04-2017 20:30:00 10.4 C 6.26 g/m*3 10.4 C 4.8 km/h
1743 11-04-2017 20:35:00 10.2 C 6.28 g/m*3 10.2 C 4.8 km/h
1744 11-04-2017 20:40:00 10.1 C 6.24 g/m*3 10.1 C 4.8 km/h
1745 11-04-2017 20:45:00 9.9 C 6.26 g/m*3 9.9 C 4.8 km/h
1746 11-04-2017 20:50:00 9.8 C 6.31 g/m*3 9.8 C 3.2 km/h
1747 11-04-2017 20:55:00 9.6 C 6.32 g/m*3 9.6 C 1.6 km/h
1748 11-04-2017 21:00:00 9.3 C 6.2 g/m*3 9.3 C 0 km/h
1749 11-04-2017 21:05:00 9.2 C 6.25 g/m*3 9.2 C 1.6 km/h
1750 11-04-2017 21:10:00 8.9 C 6.22 g/m*3 8.9 C 3.2 km/h
Sensor: Nr:Datum:Temp:Abs-Feuchte:Windchill:Wind:
Aussen-T/F 1751 11-04-2017 21:15:00 8.8 C 6.18 g/m*3 8.8 C 3.2 km/h
1752 11-04-2017 21:20:00 8.7 C 6.14 g/m*3 8.7 C 3.2 km/h
1753 11-04-2017 21:25:00 8.6 C 6.19 g/m*3 8.6 C 0 km/h
1754 11-04-2017 21:30:00 8.5 C 6.23 g/m*3 8.5 C 1.6 km/h
1755 11-04-2017 21:35:00 8.4 C 6.19 g/m*3 8.4 C 0 km/h
1756 11-04-2017 21:40:00 8.3 C 6.15 g/m*3 8.3 C 0 km/h
1757 11-04-2017 21:45:00 8.2 C 6.2 g/m*3 8.2 C 0 km/h
1758 11-04-2017 21:50:00 8 C 6.12 g/m*3 8 C 0 km/h
1759 11-04-2017 21:55:00 7.9 C 6.08 g/m*3 7.9 C 0 km/h
1760 11-04-2017 22:00:00 7.8 C 6.12 g/m*3 7.8 C 0 km/h
1761 11-04-2017 22:05:00 7.7 C 6.08 g/m*3 7.7 C 0 km/h
1762 11-04-2017 22:10:00 7.6 C 6.04 g/m*3 7.6 C 0 km/h
1763 11-04-2017 22:15:00 7.6 C 6.04 g/m*3 7.6 C 1.6 km/h
1764 11-04-2017 22:20:00 7.4 C 6.04 g/m*3 7.4 C 1.6 km/h
1765 11-04-2017 22:25:00 7.4 C 6.04 g/m*3 7.4 C 0 km/h
1766 11-04-2017 22:30:00 7.3 C 6 g/m*3 7.3 C 1.6 km/h
1767 11-04-2017 22:35:00 7.3 C 6.08 g/m*3 7.3 C 0 km/h
1768 11-04-2017 22:40:00 7.2 C 6.12 g/m*3 7.2 C 1.6 km/h
1769 11-04-2017 22:45:00 7.1 C 6.08 g/m*3 7.1 C 1.6 km/h
1770 11-04-2017 22:50:00 6.9 C 6 g/m*3 6.9 C 0 km/h
1771 11-04-2017 22:55:00 6.7 C 5.93 g/m*3 6.7 C 0 km/h
1772 11-04-2017 23:00:00 6.7 C 5.93 g/m*3 6.7 C 0 km/h
1773 11-04-2017 23:05:00 6.6 C 5.96 g/m*3 6.6 C 0 km/h
1774 11-04-2017 23:10:00 6.6 C 6.04 g/m*3 6.6 C 1.6 km/h
1775 11-04-2017 23:15:00 6.5 C 5.92 g/m*3 6.5 C 0 km/h
Sensor: Nr:Datum:Temp:Abs-Feuchte:Windchill:Wind:
Aussen-T/F 1776 11-04-2017 23:20:00 6.4 C 5.89 g/m*3 6.4 C 1.6 km/h
1777 11-04-2017 23:25:00 6.4 C 5.96 g/m*3 6.4 C 1.6 km/h
1778 11-04-2017 23:30:00 6.4 C 5.96 g/m*3 6.4 C 1.6 km/h
1779 11-04-2017 23:35:00 6.4 C 5.96 g/m*3 6.4 C 0 km/h
1780 11-04-2017 23:40:00 6.4 C 5.96 g/m*3 6.4 C 0 km/h
1781 11-04-2017 23:45:00 6.4 C 5.96 g/m*3 6.4 C 0 km/h
1782 11-04-2017 23:50:00 6.4 C 5.96 g/m*3 6.4 C 1.6 km/h
1783 11-04-2017 23:55:00 6.4 C 6.04 g/m*3 6.4 C 0 km/h
1784 12-04-2017 00:00:00 6.4 C 6.04 g/m*3 6.4 C 0 km/h
1785 12-04-2017 00:05:00 6.4 C 6.04 g/m*3 6.4 C 1.6 km/h
1786 12-04-2017 00:10:00 6.4 C 6.04 g/m*3 6.4 C 4.8 km/h
1787 12-04-2017 00:15:00 6.5 C 6.07 g/m*3 6.5 C 1.6 km/h
1788 12-04-2017 00:20:00 6.6 C 6.04 g/m*3 6.6 C 4.8 km/h
1789 12-04-2017 00:25:00 6.6 C 6.04 g/m*3 5.44 C 6.4 km/h
1790 12-04-2017 00:30:00 6.7 C 6.08 g/m*3 6.7 C 1.6 km/h
1791 12-04-2017 00:35:00 6.6 C 6.04 g/m*3 6.6 C 3.2 km/h
1792 12-04-2017 00:40:00 6.6 C 6.04 g/m*3 6.6 C 3.2 km/h
1793 12-04-2017 00:45:00 6.6 C 6.04 g/m*3 6.6 C 1.6 km/h
1794 12-04-2017 00:50:00 6.6 C 6.04 g/m*3 6.6 C 1.6 km/h
1795 12-04-2017 00:55:00 6.6 C 6.04 g/m*3 6.6 C 4.8 km/h
1796 12-04-2017 01:00:00 6.6 C 6.11 g/m*3 6.6 C 1.6 km/h
1797 12-04-2017 01:05:00 6.6 C 6.11 g/m*3 4.99 C 8.1 km/h
1798 12-04-2017 01:10:00 6.6 C 6.11 g/m*3 6.6 C 1.6 km/h
1799 12-04-2017 01:15:00 6.6 C 6.11 g/m*3 6.6 C 4.8 km/h
1800 12-04-2017 01:20:00 6.6 C 6.11 g/m*3 6.6 C 1.6 km/h
Sensor: Nr:Datum:Temp:Abs-Feuchte:Windchill:Wind:
Aussen-T/F 1801 12-04-2017 01:25:00 6.5 C 6.07 g/m*3 6.5 C 1.6 km/h
1802 12-04-2017 01:30:00 6.4 C 6.04 g/m*3 6.4 C 4.8 km/h
1803 12-04-2017 01:35:00 6.4 C 6.04 g/m*3 5.21 C 6.4 km/h
1804 12-04-2017 01:40:00 6.4 C 6.04 g/m*3 5.21 C 6.4 km/h
1805 12-04-2017 01:45:00 6.3 C 6 g/m*3 6.3 C 3.2 km/h
1806 12-04-2017 01:50:00 6.3 C 6 g/m*3 6.3 C 1.6 km/h
1807 12-04-2017 01:55:00 6.2 C 5.96 g/m*3 6.2 C 1.6 km/h
1808 12-04-2017 02:00:00 6.1 C 5.92 g/m*3 6.1 C 4.8 km/h
1809 12-04-2017 02:05:00 6.1 C 5.99 g/m*3 6.1 C 0 km/h
1810 12-04-2017 02:10:00 6 C 5.95 g/m*3 6 C 4.8 km/h
1811 12-04-2017 02:15:00 6 C 5.95 g/m*3 6 C 3.2 km/h
1812 12-04-2017 02:20:00 5.9 C 5.91 g/m*3 5.9 C 4.8 km/h
1813 12-04-2017 02:25:00 5.8 C 5.87 g/m*3 5.8 C 1.6 km/h
1814 12-04-2017 02:30:00 5.7 C 5.84 g/m*3 5.7 C 1.6 km/h
1815 12-04-2017 02:35:00 5.6 C 5.8 g/m*3 5.6 C 1.6 km/h
1816 12-04-2017 02:40:00 5.5 C 5.83 g/m*3 5.5 C 1.6 km/h
1817 12-04-2017 02:45:00 5.4 C 5.79 g/m*3 5.4 C 4.8 km/h
1818 12-04-2017 02:50:00 5.3 C 5.82 g/m*3 3.94 C 6.4 km/h
1819 12-04-2017 02:55:00 5.3 C 5.82 g/m*3 5.3 C 4.8 km/h
1820 12-04-2017 03:00:00 5.3 C 5.82 g/m*3 3.94 C 6.4 km/h
1821 12-04-2017 03:05:00 5.2 C 5.78 g/m*3 5.2 C 3.2 km/h
1822 12-04-2017 03:10:00 5.2 C 5.85 g/m*3 5.2 C 3.2 km/h
1823 12-04-2017 03:15:00 5.2 C 5.85 g/m*3 5.2 C 3.2 km/h
1824 12-04-2017 03:20:00 5.3 C 5.89 g/m*3 5.3 C 3.2 km/h
1825 12-04-2017 03:25:00 5.3 C 5.89 g/m*3 5.3 C 1.6 km/h
Sensor: Nr:Datum:Temp:Abs-Feuchte:Windchill:Wind:
Aussen-T/F 1826 12-04-2017 03:30:00 5.3 C 5.89 g/m*3 3.94 C 6.4 km/h
1827 12-04-2017 03:35:00 5.5 C 5.97 g/m*3 4.17 C 6.4 km/h
1828 12-04-2017 03:40:00 5.6 C 5.94 g/m*3 4.29 C 6.4 km/h
1829 12-04-2017 03:45:00 5.7 C 5.98 g/m*3 5.7 C 1.6 km/h
1830 12-04-2017 03:50:00 5.7 C 5.98 g/m*3 5.7 C 4.8 km/h
1831 12-04-2017 03:55:00 5.7 C 5.98 g/m*3 5.7 C 4.8 km/h
1832 12-04-2017 04:00:00 5.7 C 5.98 g/m*3 5.7 C 3.2 km/h
1833 12-04-2017 04:05:00 5.7 C 5.98 g/m*3 5.7 C 1.6 km/h
1834 12-04-2017 04:10:00 5.6 C 5.94 g/m*3 5.6 C 1.6 km/h
1835 12-04-2017 04:15:00 5.6 C 5.94 g/m*3 5.6 C 4.8 km/h
1836 12-04-2017 04:20:00 5.6 C 5.94 g/m*3 5.6 C 1.6 km/h
1837 12-04-2017 04:25:00 5.5 C 5.9 g/m*3 5.5 C 1.6 km/h
1838 12-04-2017 04:30:00 5.4 C 5.86 g/m*3 5.4 C 3.2 km/h
1839 12-04-2017 04:35:00 5.4 C 5.86 g/m*3 5.4 C 3.2 km/h
1840 12-04-2017 04:40:00 5.4 C 5.86 g/m*3 4.06 C 6.4 km/h
1841 12-04-2017 04:45:00 5.4 C 5.86 g/m*3 4.06 C 6.4 km/h
1842 12-04-2017 04:50:00 5.3 C 5.82 g/m*3 3.94 C 6.4 km/h
1843 12-04-2017 04:55:00 5.3 C 5.82 g/m*3 3.94 C 6.4 km/h
1844 12-04-2017 05:00:00 5.3 C 5.82 g/m*3 5.3 C 3.2 km/h
1845 12-04-2017 05:05:00 5.2 C 5.78 g/m*3 5.2 C 4.8 km/h
1846 12-04-2017 05:10:00 5.2 C 5.78 g/m*3 2.96 C 9.7 km/h
1847 12-04-2017 05:15:00 5.2 C 5.85 g/m*3 3.82 C 6.4 km/h
1848 12-04-2017 05:20:00 5.2 C 5.85 g/m*3 5.2 C 4.8 km/h
1849 12-04-2017 05:25:00 5.1 C 5.81 g/m*3 5.1 C 3.2 km/h
1850 12-04-2017 05:30:00 5 C 5.78 g/m*3 5 C 3.2 km/h
Sensor: Nr:Datum:Temp:Abs-Feuchte:Windchill:Wind:
Aussen-T/F 1851 12-04-2017 05:35:00 4.9 C 5.74 g/m*3 2.99 C 8.1 km/h
1852 12-04-2017 05:40:00 4.9 C 5.74 g/m*3 2.61 C 9.7 km/h
1853 12-04-2017 05:45:00 4.8 C 5.7 g/m*3 4.8 C 0 km/h
1854 12-04-2017 05:50:00 4.8 C 5.77 g/m*3 4.8 C 1.6 km/h
1855 12-04-2017 05:55:00 4.7 C 5.73 g/m*3 4.7 C 0 km/h
1856 12-04-2017 06:00:00 4.7 C 5.73 g/m*3 4.7 C 0 km/h
1857 12-04-2017 06:05:00 4.6 C 5.69 g/m*3 4.6 C 1.6 km/h
1858 12-04-2017 06:10:00 4.6 C 5.76 g/m*3 4.6 C 1.6 km/h
1859 12-04-2017 06:15:00 4.6 C 5.76 g/m*3 3.13 C 6.4 km/h
1860 12-04-2017 06:20:00 4.7 C 5.8 g/m*3 3.25 C 6.4 km/h
1861 12-04-2017 06:25:00 4.7 C 5.73 g/m*3 4.7 C 1.6 km/h
1862 12-04-2017 06:30:00 4.7 C 5.73 g/m*3 3.25 C 6.4 km/h
1863 12-04-2017 06:35:00 4.7 C 5.73 g/m*3 4.7 C 4.8 km/h
1864 12-04-2017 06:40:00 4.6 C 5.69 g/m*3 4.6 C 3.2 km/h
1865 12-04-2017 06:45:00 4.6 C 5.76 g/m*3 4.6 C 4.8 km/h
1866 12-04-2017 06:50:00 4.6 C 5.76 g/m*3 4.6 C 1.6 km/h
1867 12-04-2017 06:55:00 4.6 C 5.76 g/m*3 4.6 C 4.8 km/h
1868 12-04-2017 07:00:00 4.6 C 5.76 g/m*3 4.6 C 1.6 km/h
1869 12-04-2017 07:05:00 4.6 C 5.82 g/m*3 4.6 C 3.2 km/h
1870 12-04-2017 07:10:00 4.6 C 5.82 g/m*3 4.6 C 3.2 km/h
1871 12-04-2017 07:15:00 4.7 C 5.86 g/m*3 4.7 C 1.6 km/h
1872 12-04-2017 07:20:00 4.8 C 5.9 g/m*3 4.8 C 0 km/h
1873 12-04-2017 07:25:00 4.8 C 5.83 g/m*3 4.8 C 0 km/h
1874 12-04-2017 07:30:00 4.9 C 5.87 g/m*3 4.9 C 0 km/h
1875 12-04-2017 07:35:00 4.9 C 5.87 g/m*3 4.9 C 1.6 km/h
Sensor: Nr:Datum:Temp:Abs-Feuchte:Windchill:Wind:
Aussen-T/F 1876 12-04-2017 07:40:00 5 C 5.91 g/m*3 5 C 0 km/h
1877 12-04-2017 07:45:00 5.1 C 6.02 g/m*3 5.1 C 0 km/h
1878 12-04-2017 07:50:00 5.2 C 5.99 g/m*3 5.2 C 3.2 km/h
1879 12-04-2017 07:55:00 5.3 C 6.03 g/m*3 5.3 C 0 km/h
1880 12-04-2017 08:00:00 5.4 C 6.14 g/m*3 5.4 C 3.2 km/h
1881 12-04-2017 08:05:00 5.6 C 6.15 g/m*3 5.6 C 3.2 km/h
1882 12-04-2017 08:10:00 5.8 C 6.16 g/m*3 4.52 C 6.4 km/h
1883 12-04-2017 08:15:00 6.1 C 6.28 g/m*3 6.1 C 1.6 km/h
1884 12-04-2017 08:20:00 6.3 C 6.29 g/m*3 3.68 C 12.9 km/h
1885 12-04-2017 08:25:00 6.6 C 6.34 g/m*3 4.99 C 8.1 km/h
1886 12-04-2017 08:30:00 6.8 C 6.27 g/m*3 4.56 C 11.3 km/h
1887 12-04-2017 08:35:00 7 C 6.28 g/m*3 4.8 C 11.3 km/h
1888 12-04-2017 08:40:00 7.2 C 6.28 g/m*3 5.04 C 11.3 km/h
1889 12-04-2017 08:45:00 7.2 C 6.28 g/m*3 4.77 C 12.9 km/h
1890 12-04-2017 08:50:00 7.3 C 6.24 g/m*3 4.66 C 14.5 km/h
1891 12-04-2017 08:55:00 7.6 C 6.36 g/m*3 5.53 C 11.3 km/h
1892 12-04-2017 09:00:00 7.7 C 6.41 g/m*3 5.65 C 11.3 km/h
1893 12-04-2017 09:05:00 7.8 C 6.37 g/m*3 5.77 C 11.3 km/h
1894 12-04-2017 09:10:00 8 C 6.37 g/m*3 6.01 C 11.3 km/h
1895 12-04-2017 09:15:00 8.2 C 6.53 g/m*3 6.54 C 9.7 km/h
1896 12-04-2017 09:20:00 8.4 C 6.53 g/m*3 6.24 C 12.9 km/h
1897 12-04-2017 09:25:00 8.6 C 6.44 g/m*3 6.25 C 14.5 km/h
1898 12-04-2017 09:30:00 8.8 C 6.53 g/m*3 6.72 C 12.9 km/h
1899 12-04-2017 09:35:00 8.9 C 6.57 g/m*3 7.09 C 11.3 km/h
1900 12-04-2017 09:40:00 9.1 C 6.65 g/m*3 7.61 C 9.7 km/h
Sensor: Nr:Datum:Temp:Abs-Feuchte:Windchill:Wind:
Aussen-T/F 1901 12-04-2017 09:45:00 9.3 C 6.65 g/m*3 8.16 C 8.1 km/h
1902 12-04-2017 09:50:00 9.4 C 6.6 g/m*3 7.7 C 11.3 km/h
1903 12-04-2017 09:55:00 9.6 C 6.6 g/m*3 7.94 C 11.3 km/h
1904 12-04-2017 10:00:00 9.8 C 6.59 g/m*3 8.18 C 11.3 km/h
1905 12-04-2017 10:05:00 9.9 C 6.63 g/m*3 8.3 C 11.3 km/h
1906 12-04-2017 10:10:00 10.1 C 6.52 g/m*3 8.31 C 12.9 km/h
1907 12-04-2017 10:15:00 10.2 C 6.66 g/m*3 8.66 C 11.3 km/h
1908 12-04-2017 10:20:00 10.3 C 6.51 g/m*3 9.04 C 9.7 km/h
1909 12-04-2017 10:25:00 10.3 C 6.51 g/m*3 8.55 C 12.9 km/h
1910 12-04-2017 10:30:00 10.3 C 6.42 g/m*3 8.55 C 12.9 km/h
1911 12-04-2017 10:35:00 10.5 C 6.5 g/m*3 9.28 C 9.7 km/h
1912 12-04-2017 10:40:00 10.7 C 6.48 g/m*3 9.26 C 11.3 km/h
1913 12-04-2017 10:45:00 10.9 C 6.47 g/m*3 9.08 C 14.5 km/h
1914 12-04-2017 10:50:00 11.1 C 6.55 g/m*3 11.1 C 9.7 km/h
1915 12-04-2017 10:55:00 11.3 C 6.53 g/m*3 11.3 C 9.7 km/h
1916 12-04-2017 11:00:00 11.5 C 6.61 g/m*3 11.5 C 14.5 km/h
1917 12-04-2017 11:05:00 11.7 C 6.59 g/m*3 11.7 C 9.7 km/h
1918 12-04-2017 11:10:00 11.9 C 6.67 g/m*3 11.9 C 8.1 km/h
1919 12-04-2017 11:15:00 12.1 C 6.76 g/m*3 12.1 C 9.7 km/h
1920 12-04-2017 11:20:00 12.2 C 6.69 g/m*3 12.2 C 11.3 km/h
1921 12-04-2017 11:25:00 12.4 C 6.77 g/m*3 12.4 C 3.2 km/h
1922 12-04-2017 11:30:00 12.6 C 6.75 g/m*3 12.6 C 8.1 km/h
1923 12-04-2017 11:35:00 12.7 C 6.79 g/m*3 12.7 C 11.3 km/h
1924 12-04-2017 11:40:00 12.9 C 6.88 g/m*3 12.9 C 11.3 km/h
1925 12-04-2017 11:45:00 13.1 C 6.85 g/m*3 13.1 C 11.3 km/h
Sensor: Nr:Datum:Temp:Abs-Feuchte:Windchill:Wind:
Aussen-T/F 1926 12-04-2017 11:50:00 13.3 C 6.82 g/m*3 13.3 C 11.3 km/h
1927 12-04-2017 11:55:00 13.5 C 6.9 g/m*3 13.5 C 11.3 km/h
1928 12-04-2017 12:00:00 13.7 C 6.99 g/m*3 13.7 C 12.9 km/h
1929 12-04-2017 12:05:00 13.9 C 6.95 g/m*3 13.9 C 11.3 km/h
1930 12-04-2017 12:10:00 14.1 C 6.92 g/m*3 14.1 C 12.9 km/h
1931 12-04-2017 12:15:00 14.3 C 7 g/m*3 14.3 C 12.9 km/h
1932 12-04-2017 12:20:00 14.6 C 7.01 g/m*3 14.6 C 14.5 km/h
1933 12-04-2017 12:25:00 14.8 C 6.97 g/m*3 14.8 C 12.9 km/h
1934 12-04-2017 12:30:00 14.9 C 6.75 g/m*3 14.9 C 14.5 km/h
1935 12-04-2017 12:35:00 15 C 6.8 g/m*3 15 C 12.9 km/h
1936 12-04-2017 12:40:00 15.1 C 6.84 g/m*3 15.1 C 19.3 km/h
1937 12-04-2017 12:45:00 15.2 C 6.88 g/m*3 15.2 C 14.5 km/h
1938 12-04-2017 12:50:00 15.3 C 7.05 g/m*3 15.3 C 9.7 km/h
1939 12-04-2017 12:55:00 15.4 C 7.09 g/m*3 15.4 C 14.5 km/h
1940 12-04-2017 13:00:00 15.6 C 7.05 g/m*3 15.6 C 14.5 km/h
1941 12-04-2017 13:05:00 15.8 C 7.13 g/m*3 15.8 C 12.9 km/h
1942 12-04-2017 13:10:00 16.1 C 7.13 g/m*3 16.1 C 16.1 km/h
1943 12-04-2017 13:15:00 16.4 C 7.26 g/m*3 16.4 C 11.3 km/h
1944 12-04-2017 13:20:00 16.6 C 7.35 g/m*3 16.6 C 11.3 km/h
1945 12-04-2017 13:25:00 16.8 C 7.29 g/m*3 16.8 C 17.7 km/h
1946 12-04-2017 13:30:00 16.9 C 7.19 g/m*3 16.9 C 12.9 km/h
1947 12-04-2017 13:35:00 16.9 C 7.34 g/m*3 16.9 C 17.7 km/h
1948 12-04-2017 13:40:00 17 C 7.38 g/m*3 17 C 16.1 km/h
1949 12-04-2017 13:45:00 17 C 7.38 g/m*3 17 C 12.9 km/h
1950 12-04-2017 13:50:00 17.1 C 7.42 g/m*3 17.1 C 14.5 km/h
Sensor: Nr:Datum:Temp:Abs-Feuchte:Windchill:Wind:
Aussen-T/F 1951 12-04-2017 13:55:00 17.2 C 7.47 g/m*3 17.2 C 17.7 km/h
1952 12-04-2017 14:00:00 17.4 C 7.41 g/m*3 17.4 C 17.7 km/h
1953 12-04-2017 14:05:00 17.6 C 7.35 g/m*3 17.6 C 17.7 km/h
1954 12-04-2017 14:10:00 17.7 C 7.39 g/m*3 17.7 C 16.1 km/h
1955 12-04-2017 14:15:00 17.7 C 7.24 g/m*3 17.7 C 19.3 km/h
1956 12-04-2017 14:20:00 17.8 C 7.44 g/m*3 17.8 C 16.1 km/h
1957 12-04-2017 14:25:00 17.8 C 7.59 g/m*3 17.8 C 14.5 km/h
1958 12-04-2017 14:30:00 17.9 C 7.63 g/m*3 17.9 C 14.5 km/h
1959 12-04-2017 14:35:00 17.8 C 7.44 g/m*3 17.8 C 12.9 km/h
1960 12-04-2017 14:40:00 17.9 C 7.48 g/m*3 17.9 C 14.5 km/h
1961 12-04-2017 14:45:00 17.9 C 7.48 g/m*3 17.9 C 16.1 km/h
1962 12-04-2017 14:50:00 17.8 C 7.13 g/m*3 17.8 C 17.7 km/h
1963 12-04-2017 14:55:00 17.8 C 7.13 g/m*3 17.8 C 14.5 km/h
1964 12-04-2017 15:00:00 17.8 C 7.44 g/m*3 17.8 C 9.7 km/h
1965 12-04-2017 15:05:00 17.9 C 7.33 g/m*3 17.9 C 14.5 km/h
1966 12-04-2017 15:10:00 17.8 C 7.13 g/m*3 17.8 C 17.7 km/h
1967 12-04-2017 15:15:00 17.8 C 7.44 g/m*3 17.8 C 11.3 km/h
1968 12-04-2017 15:20:00 17.8 C 7.13 g/m*3 17.8 C 17.7 km/h
1969 12-04-2017 15:25:00 17.7 C 7.09 g/m*3 17.7 C 20.9 km/h
1970 12-04-2017 15:30:00 17.7 C 7.24 g/m*3 17.7 C 16.1 km/h
1971 12-04-2017 15:35:00 17.7 C 7.24 g/m*3 17.7 C 19.3 km/h
1972 12-04-2017 15:40:00 17.7 C 7.39 g/m*3 17.7 C 17.7 km/h
1973 12-04-2017 15:45:00 17.7 C 7.24 g/m*3 17.7 C 19.3 km/h
1974 12-04-2017 15:50:00 17.7 C 7.24 g/m*3 17.7 C 11.3 km/h
1975 12-04-2017 15:55:00 17.7 C 7.24 g/m*3 17.7 C 11.3 km/h
Sensor: Nr:Datum:Temp:Abs-Feuchte:Windchill:Wind:
Aussen-T/F 1976 12-04-2017 16:00:00 17.6 C 7.05 g/m*3 17.6 C 16.1 km/h
1977 12-04-2017 16:05:00 17.5 C 7.16 g/m*3 17.5 C 20.9 km/h
1978 12-04-2017 16:10:00 17.6 C 7.2 g/m*3 17.6 C 16.1 km/h
1979 12-04-2017 16:15:00 17.5 C 7.01 g/m*3 17.5 C 20.9 km/h
1980 12-04-2017 16:20:00 17.5 C 7.16 g/m*3 17.5 C 16.1 km/h
1981 12-04-2017 16:25:00 17.4 C 7.11 g/m*3 17.4 C 14.5 km/h
1982 12-04-2017 16:30:00 17.3 C 7.07 g/m*3 17.3 C 16.1 km/h
1983 12-04-2017 16:35:00 17.2 C 7.18 g/m*3 17.2 C 17.7 km/h
1984 12-04-2017 16:40:00 17.1 C 7.28 g/m*3 17.1 C 19.3 km/h
1985 12-04-2017 16:45:00 17.1 C 7.13 g/m*3 17.1 C 17.7 km/h
1986 12-04-2017 16:50:00 17 C 7.09 g/m*3 17 C 14.5 km/h
1987 12-04-2017 16:55:00 17.1 C 7.13 g/m*3 17.1 C 14.5 km/h
1988 12-04-2017 17:00:00 17.2 C 7.03 g/m*3 17.2 C 17.7 km/h
1989 12-04-2017 17:05:00 17.2 C 7.18 g/m*3 17.2 C 16.1 km/h
1990 12-04-2017 17:10:00 17.1 C 6.99 g/m*3 17.1 C 14.5 km/h
1991 12-04-2017 17:15:00 17.1 C 7.28 g/m*3 17.1 C 9.7 km/h
1992 12-04-2017 17:20:00 17.2 C 7.18 g/m*3 17.2 C 11.3 km/h
1993 12-04-2017 17:25:00 17.2 C 7.18 g/m*3 17.2 C 11.3 km/h
1994 12-04-2017 17:30:00 17.2 C 7.18 g/m*3 17.2 C 11.3 km/h
1995 12-04-2017 17:35:00 17.2 C 7.03 g/m*3 17.2 C 14.5 km/h
1996 12-04-2017 17:40:00 17.2 C 6.88 g/m*3 17.2 C 14.5 km/h
1997 12-04-2017 17:45:00 17.2 C 7.18 g/m*3 17.2 C 14.5 km/h
1998 12-04-2017 17:50:00 17.2 C 7.03 g/m*3 17.2 C 9.7 km/h
1999 12-04-2017 17:55:00 17.3 C 7.22 g/m*3 17.3 C 12.9 km/h
2000 12-04-2017 18:00:00 17.3 C 7.37 g/m*3 17.3 C 9.7 km/h
Sensor: Nr:Datum:Temp:Abs-Feuchte:Windchill:Wind:
Aussen-T/F 2001 12-04-2017 18:05:00 17.4 C 7.26 g/m*3 17.4 C 9.7 km/h
2002 12-04-2017 18:10:00 17.4 C 7.41 g/m*3 17.4 C 11.3 km/h
2003 12-04-2017 18:15:00 17.5 C 7.45 g/m*3 17.5 C 4.8 km/h
2004 12-04-2017 18:20:00 17.5 C 7.45 g/m*3 17.5 C 6.4 km/h
2005 12-04-2017 18:25:00 17.4 C 7.41 g/m*3 17.4 C 8.1 km/h
2006 12-04-2017 18:30:00 17.4 C 7.56 g/m*3 17.4 C 11.3 km/h
2007 12-04-2017 18:35:00 17.5 C 7.6 g/m*3 17.5 C 6.4 km/h
2008 12-04-2017 18:40:00 17.6 C 7.65 g/m*3 17.6 C 8.1 km/h
2009 12-04-2017 18:45:00 17.7 C 7.54 g/m*3 17.7 C 9.7 km/h
2010 12-04-2017 18:50:00 17.7 C 7.24 g/m*3 17.7 C 9.7 km/h
2011 12-04-2017 18:55:00 17.6 C 7.2 g/m*3 17.6 C 14.5 km/h
2012 12-04-2017 19:00:00 17.4 C 7.26 g/m*3 17.4 C 16.1 km/h
2013 12-04-2017 19:05:00 17.3 C 7.07 g/m*3 17.3 C 9.7 km/h
2014 12-04-2017 19:10:00 17.3 C 7.22 g/m*3 17.3 C 16.1 km/h
2015 12-04-2017 19:15:00 17.6 C 7.35 g/m*3 17.6 C 17.7 km/h
2016 12-04-2017 19:20:00 17.4 C 7.41 g/m*3 17.4 C 11.3 km/h
2017 12-04-2017 19:25:00 17.2 C 7.32 g/m*3 17.2 C 14.5 km/h
2018 12-04-2017 19:30:00 17 C 7.38 g/m*3 17 C 9.7 km/h
2019 12-04-2017 19:35:00 16.9 C 7.34 g/m*3 16.9 C 11.3 km/h
2020 12-04-2017 19:40:00 16.8 C 7.43 g/m*3 16.8 C 11.3 km/h
2021 12-04-2017 19:45:00 16.7 C 7.25 g/m*3 16.7 C 14.5 km/h
2022 12-04-2017 19:50:00 16.7 C 7.39 g/m*3 16.7 C 9.7 km/h
2023 12-04-2017 19:55:00 16.5 C 7.02 g/m*3 16.5 C 9.7 km/h
2024 12-04-2017 20:00:00 16.3 C 6.8 g/m*3 16.3 C 6.4 km/h
2025 12-04-2017 20:05:00 16.1 C 6.85 g/m*3 16.1 C 6.4 km/h
Sensor: Nr:Datum:Temp:Abs-Feuchte:Windchill:Wind:
Aussen-T/F 2026 12-04-2017 20:10:00 15.9 C 7.18 g/m*3 15.9 C 4.8 km/h
2027 12-04-2017 20:15:00 15.6 C 7.18 g/m*3 15.6 C 0 km/h
2028 12-04-2017 20:20:00 15.3 C 7.18 g/m*3 15.3 C 1.6 km/h
2029 12-04-2017 20:25:00 15.1 C 6.58 g/m*3 15.1 C 11.3 km/h
2030 12-04-2017 20:30:00 15.1 C 6.71 g/m*3 15.1 C 4.8 km/h
2031 12-04-2017 20:35:00 15.2 C 6.62 g/m*3 15.2 C 11.3 km/h
2032 12-04-2017 20:40:00 15.3 C 6.53 g/m*3 15.3 C 9.7 km/h
2033 12-04-2017 20:45:00 15.4 C 6.44 g/m*3 15.4 C 9.7 km/h
2034 12-04-2017 20:50:00 15.5 C 6.48 g/m*3 15.5 C 9.7 km/h
2035 12-04-2017 20:55:00 15.5 C 6.61 g/m*3 15.5 C 6.4 km/h
2036 12-04-2017 21:00:00 15.5 C 6.61 g/m*3 15.5 C 11.3 km/h
2037 12-04-2017 21:05:00 15.4 C 6.57 g/m*3 15.4 C 14.5 km/h
2038 12-04-2017 21:10:00 15.5 C 6.74 g/m*3 15.5 C 11.3 km/h
2039 12-04-2017 21:15:00 15.5 C 7.01 g/m*3 15.5 C 12.9 km/h
2040 12-04-2017 21:20:00 15.3 C 7.57 g/m*3 15.3 C 8.1 km/h
2041 12-04-2017 21:25:00 14.8 C 7.73 g/m*3 14.8 C 16.1 km/h
2042 12-04-2017 21:30:00 14.4 C 7.79 g/m*3 14.4 C 14.5 km/h
2043 12-04-2017 21:35:00 14.1 C 7.89 g/m*3 14.1 C 11.3 km/h
2044 12-04-2017 21:40:00 13.8 C 7.86 g/m*3 13.8 C 22.5 km/h
2045 12-04-2017 21:45:00 13.6 C 7.89 g/m*3 13.6 C 14.5 km/h
2046 12-04-2017 21:50:00 13.3 C 7.86 g/m*3 13.3 C 12.9 km/h
2047 12-04-2017 21:55:00 13.2 C 7.92 g/m*3 13.2 C 16.1 km/h
2048 12-04-2017 22:00:00 13 C 7.94 g/m*3 13 C 16.1 km/h
2049 12-04-2017 22:05:00 12.9 C 7.89 g/m*3 12.9 C 14.5 km/h
2050 12-04-2017 22:10:00 12.8 C 7.95 g/m*3 12.8 C 14.5 km/h
Sensor: Nr:Datum:Temp:Abs-Feuchte:Windchill:Wind:
Aussen-T/F 2051 12-04-2017 22:15:00 12.7 C 7.9 g/m*3 12.7 C 11.3 km/h
2052 12-04-2017 22:20:00 12.5 C 7.81 g/m*3 12.5 C 11.3 km/h
2053 12-04-2017 22:25:00 12.4 C 7.87 g/m*3 12.4 C 14.5 km/h
2054 12-04-2017 22:30:00 12.2 C 7.77 g/m*3 12.2 C 11.3 km/h
2055 12-04-2017 22:35:00 12.1 C 7.83 g/m*3 12.1 C 9.7 km/h
2056 12-04-2017 22:40:00 12.1 C 7.83 g/m*3 12.1 C 11.3 km/h
2057 12-04-2017 22:45:00 11.9 C 7.73 g/m*3 11.9 C 8.1 km/h
2058 12-04-2017 22:50:00 11.9 C 7.73 g/m*3 11.9 C 8.1 km/h
2059 12-04-2017 22:55:00 11.8 C 7.79 g/m*3 11.8 C 9.7 km/h
2060 12-04-2017 23:00:00 11.8 C 7.79 g/m*3 11.8 C 12.9 km/h
2061 12-04-2017 23:05:00 11.7 C 7.74 g/m*3 11.7 C 12.9 km/h
2062 12-04-2017 23:10:00 11.7 C 7.74 g/m*3 11.7 C 6.4 km/h
2063 12-04-2017 23:15:00 11.7 C 7.74 g/m*3 11.7 C 3.2 km/h
2064 12-04-2017 23:20:00 11.6 C 7.69 g/m*3 11.6 C 6.4 km/h
2065 12-04-2017 23:25:00 11.6 C 7.8 g/m*3 11.6 C 9.7 km/h
2066 12-04-2017 23:30:00 11.5 C 7.75 g/m*3 11.5 C 6.4 km/h
2067 12-04-2017 23:35:00 11.5 C 7.85 g/m*3 11.5 C 8.1 km/h
2068 12-04-2017 23:40:00 11.4 C 7.8 g/m*3 11.4 C 8.1 km/h
2069 12-04-2017 23:45:00 11.3 C 7.75 g/m*3 11.3 C 6.4 km/h
2070 12-04-2017 23:50:00 11.3 C 7.85 g/m*3 11.3 C 8.1 km/h
2071 12-04-2017 23:55:00 11.3 C 7.85 g/m*3 11.3 C 9.7 km/h
2072 13-04-2017 00:00:00 11.2 C 7.8 g/m*3 11.2 C 4.8 km/h
2073 13-04-2017 00:05:00 11.2 C 7.8 g/m*3 11.2 C 8.1 km/h
2074 13-04-2017 00:10:00 11.2 C 7.8 g/m*3 11.2 C 6.4 km/h
2075 13-04-2017 00:15:00 11.2 C 7.8 g/m*3 11.2 C 11.3 km/h
Sensor: Nr:Datum:Temp:Abs-Feuchte:Windchill:Wind:
Aussen-T/F 2076 13-04-2017 00:20:00 11.2 C 7.8 g/m*3 11.2 C 11.3 km/h
2077 13-04-2017 00:25:00 11.1 C 7.76 g/m*3 11.1 C 3.2 km/h
2078 13-04-2017 00:30:00 11.1 C 7.76 g/m*3 11.1 C 1.6 km/h
2079 13-04-2017 00:35:00 11.1 C 7.76 g/m*3 11.1 C 1.6 km/h
2080 13-04-2017 00:40:00 11 C 7.71 g/m*3 11 C 1.6 km/h
2081 13-04-2017 00:45:00 10.9 C 7.66 g/m*3 10.9 C 0 km/h
2082 13-04-2017 00:50:00 10.8 C 7.51 g/m*3 10.8 C 1.6 km/h
2083 13-04-2017 00:55:00 10.8 C 7.41 g/m*3 10.29 C 6.4 km/h
2084 13-04-2017 01:00:00 10.8 C 7.31 g/m*3 10.8 C 1.6 km/h
2085 13-04-2017 01:05:00 10.8 C 7.22 g/m*3 10.29 C 6.4 km/h
2086 13-04-2017 01:10:00 10.8 C 7.22 g/m*3 10.8 C 4.8 km/h
2087 13-04-2017 01:15:00 10.8 C 7.22 g/m*3 10.8 C 3.2 km/h
2088 13-04-2017 01:20:00 10.8 C 7.22 g/m*3 10.8 C 1.6 km/h
2089 13-04-2017 01:25:00 10.8 C 7.22 g/m*3 10.8 C 1.6 km/h
2090 13-04-2017 01:30:00 10.8 C 7.22 g/m*3 10.8 C 1.6 km/h
2091 13-04-2017 01:35:00 10.8 C 7.31 g/m*3 10.8 C 1.6 km/h
2092 13-04-2017 01:40:00 10.7 C 7.27 g/m*3 10.7 C 1.6 km/h
2093 13-04-2017 01:45:00 10.7 C 7.27 g/m*3 10.7 C 3.2 km/h
2094 13-04-2017 01:50:00 10.7 C 7.27 g/m*3 10.7 C 1.6 km/h
2095 13-04-2017 01:55:00 10.7 C 7.27 g/m*3 10.7 C 1.6 km/h
2096 13-04-2017 02:00:00 10.7 C 7.27 g/m*3 10.7 C 1.6 km/h
2097 13-04-2017 02:05:00 10.6 C 7.22 g/m*3 10.6 C 3.2 km/h
2098 13-04-2017 02:10:00 10.6 C 7.22 g/m*3 10.6 C 1.6 km/h
2099 13-04-2017 02:15:00 10.6 C 7.22 g/m*3 10.6 C 4.8 km/h
2100 13-04-2017 02:20:00 10.6 C 7.22 g/m*3 10.6 C 1.6 km/h
Sensor: Nr:Datum:Temp:Abs-Feuchte:Windchill:Wind:
Aussen-T/F 2101 13-04-2017 02:25:00 10.5 C 7.18 g/m*3 10.5 C 1.6 km/h
2102 13-04-2017 02:30:00 10.5 C 7.27 g/m*3 10.5 C 1.6 km/h
2103 13-04-2017 02:35:00 10.5 C 7.27 g/m*3 10.5 C 3.2 km/h
2104 13-04-2017 02:40:00 10.5 C 7.27 g/m*3 10.5 C 1.6 km/h
2105 13-04-2017 02:45:00 10.4 C 7.23 g/m*3 10.4 C 1.6 km/h
2106 13-04-2017 02:50:00 10.4 C 7.23 g/m*3 10.4 C 3.2 km/h
2107 13-04-2017 02:55:00 10.4 C 7.23 g/m*3 10.4 C 1.6 km/h
2108 13-04-2017 03:00:00 10.4 C 7.23 g/m*3 9.83 C 6.4 km/h
2109 13-04-2017 03:05:00 10.4 C 7.23 g/m*3 9.83 C 6.4 km/h
2110 13-04-2017 03:10:00 10.4 C 7.23 g/m*3 9.83 C 6.4 km/h
2111 13-04-2017 03:15:00 10.5 C 7.27 g/m*3 9.95 C 6.4 km/h
2112 13-04-2017 03:20:00 10.5 C 7.27 g/m*3 10.5 C 4.8 km/h
2113 13-04-2017 03:25:00 10.5 C 7.27 g/m*3 9.02 C 11.3 km/h
2114 13-04-2017 03:30:00 10.4 C 7.32 g/m*3 9.83 C 6.4 km/h
2115 13-04-2017 03:35:00 10.4 C 7.32 g/m*3 9.83 C 6.4 km/h
2116 13-04-2017 03:40:00 10.3 C 7.37 g/m*3 10.3 C 1.6 km/h
2117 13-04-2017 03:45:00 10.2 C 7.33 g/m*3 10.2 C 1.6 km/h
2118 13-04-2017 03:50:00 10 C 7.33 g/m*3 10 C 3.2 km/h
2119 13-04-2017 03:55:00 9.8 C 7.33 g/m*3 9.8 C 1.6 km/h
2120 13-04-2017 04:00:00 9.7 C 7.28 g/m*3 9.7 C 3.2 km/h
2121 13-04-2017 04:05:00 9.6 C 7.33 g/m*3 9.6 C 4.8 km/h
2122 13-04-2017 04:10:00 9.6 C 7.33 g/m*3 8.91 C 6.4 km/h
2123 13-04-2017 04:15:00 9.5 C 7.28 g/m*3 9.5 C 4.8 km/h
2124 13-04-2017 04:20:00 9.5 C 7.28 g/m*3 9.5 C 3.2 km/h
2125 13-04-2017 04:25:00 9.4 C 7.24 g/m*3 9.4 C 3.2 km/h
Sensor: Nr:Datum:Temp:Abs-Feuchte:Windchill:Wind:
Aussen-T/F 2126 13-04-2017 04:30:00 9.4 C 7.33 g/m*3 9.4 C 1.6 km/h
2127 13-04-2017 04:35:00 9.4 C 7.33 g/m*3 9.4 C 4.8 km/h
2128 13-04-2017 04:40:00 9.5 C 7.37 g/m*3 9.5 C 4.8 km/h
2129 13-04-2017 04:45:00 9.6 C 7.42 g/m*3 8.91 C 6.4 km/h
2130 13-04-2017 04:50:00 9.6 C 7.33 g/m*3 8.21 C 9.7 km/h
2131 13-04-2017 04:55:00 9.7 C 7.38 g/m*3 9.7 C 3.2 km/h
2132 13-04-2017 05:00:00 9.7 C 7.38 g/m*3 8.63 C 8.1 km/h
2133 13-04-2017 05:05:00 9.8 C 7.42 g/m*3 9.14 C 6.4 km/h
2134 13-04-2017 05:10:00 9.8 C 7.42 g/m*3 9.8 C 3.2 km/h
2135 13-04-2017 05:15:00 9.8 C 7.42 g/m*3 9.14 C 6.4 km/h
2136 13-04-2017 05:20:00 9.8 C 7.42 g/m*3 8.45 C 9.7 km/h
2137 13-04-2017 05:25:00 9.8 C 7.42 g/m*3 9.14 C 6.4 km/h
2138 13-04-2017 05:30:00 9.9 C 7.47 g/m*3 9.25 C 6.4 km/h
2139 13-04-2017 05:35:00 9.9 C 7.56 g/m*3 9.25 C 6.4 km/h
2140 13-04-2017 05:40:00 9.9 C 7.66 g/m*3 9.9 C 3.2 km/h
2141 13-04-2017 05:45:00 9.9 C 7.84 g/m*3 9.9 C 3.2 km/h
2142 13-04-2017 05:50:00 9.7 C 7.84 g/m*3 9.7 C 3.2 km/h
2143 13-04-2017 05:55:00 9.6 C 7.79 g/m*3 9.6 C 3.2 km/h
2144 13-04-2017 06:00:00 9.4 C 7.78 g/m*3 9.4 C 4.8 km/h
2145 13-04-2017 06:05:00 9.4 C 7.87 g/m*3 9.4 C 3.2 km/h
2146 13-04-2017 06:10:00 9.3 C 7.82 g/m*3 9.3 C 1.6 km/h
2147 13-04-2017 06:15:00 9.3 C 7.82 g/m*3 9.3 C 1.6 km/h
2148 13-04-2017 06:20:00 9.3 C 7.82 g/m*3 9.3 C 0 km/h
2149 13-04-2017 06:25:00 9.3 C 7.82 g/m*3 9.3 C 1.6 km/h
2150 13-04-2017 06:30:00 9.2 C 7.77 g/m*3 9.2 C 3.2 km/h
Sensor: Nr:Datum:Temp:Abs-Feuchte:Windchill:Wind:
Aussen-T/F 2151 13-04-2017 06:35:00 9.2 C 7.77 g/m*3 9.2 C 3.2 km/h
2152 13-04-2017 06:40:00 9.3 C 7.82 g/m*3 9.3 C 3.2 km/h
2153 13-04-2017 06:45:00 9.2 C 7.77 g/m*3 8.05 C 8.1 km/h
2154 13-04-2017 06:50:00 9.2 C 7.68 g/m*3 9.2 C 3.2 km/h
2155 13-04-2017 06:55:00 9.2 C 7.77 g/m*3 9.2 C 3.2 km/h
2156 13-04-2017 07:00:00 9.1 C 7.72 g/m*3 9.1 C 0 km/h
2157 13-04-2017 07:05:00 9.1 C 7.72 g/m*3 9.1 C 0 km/h
2158 13-04-2017 07:10:00 8.9 C 7.53 g/m*3 8.9 C 0 km/h
2159 13-04-2017 07:15:00 8.8 C 7.57 g/m*3 8.8 C 1.6 km/h
2160 13-04-2017 07:20:00 8.8 C 7.57 g/m*3 8.8 C 0 km/h
2161 13-04-2017 07:25:00 8.8 C 7.66 g/m*3 7.98 C 6.4 km/h
2162 13-04-2017 07:30:00 8.8 C 7.75 g/m*3 8.8 C 1.6 km/h
2163 13-04-2017 07:35:00 8.9 C 7.71 g/m*3 8.9 C 4.8 km/h
2164 13-04-2017 07:40:00 8.9 C 7.71 g/m*3 8.1 C 6.4 km/h
2165 13-04-2017 07:45:00 9.1 C 7.81 g/m*3 9.1 C 1.6 km/h
2166 13-04-2017 07:50:00 9.1 C 7.72 g/m*3 7.93 C 8.1 km/h
2167 13-04-2017 07:55:00 9.2 C 7.77 g/m*3 8.45 C 6.4 km/h
2168 13-04-2017 08:00:00 9.3 C 7.82 g/m*3 9.3 C 1.6 km/h
2169 13-04-2017 08:05:00 9.3 C 7.73 g/m*3 8.16 C 8.1 km/h
2170 13-04-2017 08:10:00 9.4 C 7.78 g/m*3 8.28 C 8.1 km/h
2171 13-04-2017 08:15:00 9.5 C 7.83 g/m*3 9.5 C 3.2 km/h
2172 13-04-2017 08:20:00 9.6 C 7.88 g/m*3 9.6 C 4.8 km/h
2173 13-04-2017 08:25:00 9.6 C 7.88 g/m*3 8.91 C 6.4 km/h
2174 13-04-2017 08:30:00 9.7 C 7.93 g/m*3 9.7 C 4.8 km/h
2175 13-04-2017 08:35:00 9.7 C 7.93 g/m*3 9.02 C 6.4 km/h
Sensor: Nr:Datum:Temp:Abs-Feuchte:Windchill:Wind:
Aussen-T/F 2176 13-04-2017 08:40:00 9.8 C 7.89 g/m*3 9.14 C 6.4 km/h
2177 13-04-2017 08:45:00 9.9 C 7.94 g/m*3 9.9 C 4.8 km/h
2178 13-04-2017 08:50:00 9.9 C 7.94 g/m*3 9.9 C 3.2 km/h
2179 13-04-2017 08:55:00 10 C 7.99 g/m*3 9.37 C 6.4 km/h
2180 13-04-2017 09:00:00 10.1 C 8.04 g/m*3 10.1 C 4.8 km/h
2181 13-04-2017 09:05:00 10.2 C 8.09 g/m*3 10.2 C 1.6 km/h
2182 13-04-2017 09:10:00 10.3 C 8.14 g/m*3 10.3 C 4.8 km/h
2183 13-04-2017 09:15:00 10.4 C 8.19 g/m*3 10.4 C 3.2 km/h
2184 13-04-2017 09:20:00 10.5 C 8.15 g/m*3 9.02 C 11.3 km/h
2185 13-04-2017 09:25:00 10.6 C 8.1 g/m*3 10.06 C 6.4 km/h
2186 13-04-2017 09:30:00 10.6 C 8.1 g/m*3 10.6 C 4.8 km/h
2187 13-04-2017 09:35:00 10.7 C 8.05 g/m*3 10.18 C 6.4 km/h
2188 13-04-2017 09:40:00 10.8 C 8.2 g/m*3 10.8 C 4.8 km/h
2189 13-04-2017 09:45:00 10.9 C 8.06 g/m*3 10.04 C 8.1 km/h
2190 13-04-2017 09:50:00 11 C 7.91 g/m*3 10.16 C 8.1 km/h
2191 13-04-2017 09:55:00 11.2 C 8.11 g/m*3 11.2 C 3.2 km/h
2192 13-04-2017 10:00:00 11.3 C 8.06 g/m*3 11.3 C 6.4 km/h
2193 13-04-2017 10:05:00 11.3 C 7.75 g/m*3 11.3 C 8.1 km/h
2194 13-04-2017 10:10:00 11.3 C 7.75 g/m*3 11.3 C 9.7 km/h
2195 13-04-2017 10:15:00 11.2 C 7.7 g/m*3 11.2 C 4.8 km/h
2196 13-04-2017 10:20:00 11.2 C 7.7 g/m*3 11.2 C 4.8 km/h
2197 13-04-2017 10:25:00 11.2 C 7.5 g/m*3 11.2 C 8.1 km/h
2198 13-04-2017 10:30:00 11.3 C 7.34 g/m*3 11.3 C 8.1 km/h
2199 13-04-2017 10:35:00 11.5 C 7.13 g/m*3 11.5 C 12.9 km/h
2200 13-04-2017 10:40:00 11.9 C 6.88 g/m*3 11.9 C 16.1 km/h
Sensor: Nr:Datum:Temp:Abs-Feuchte:Windchill:Wind:
Aussen-T/F 2201 13-04-2017 10:45:00 12.1 C 6.76 g/m*3 12.1 C 20.9 km/h
2202 13-04-2017 10:50:00 12.2 C 6.69 g/m*3 12.2 C 11.3 km/h
2203 13-04-2017 10:55:00 12.4 C 6.77 g/m*3 12.4 C 20.9 km/h
2204 13-04-2017 11:00:00 12.4 C 6.66 g/m*3 12.4 C 14.5 km/h
2205 13-04-2017 11:05:00 12.5 C 6.6 g/m*3 12.5 C 16.1 km/h
2206 13-04-2017 11:10:00 12.6 C 6.53 g/m*3 12.6 C 12.9 km/h
2207 13-04-2017 11:15:00 12.7 C 6.68 g/m*3 12.7 C 16.1 km/h
2208 13-04-2017 11:20:00 12.6 C 6.53 g/m*3 12.6 C 14.5 km/h
2209 13-04-2017 11:25:00 12.6 C 6.64 g/m*3 12.6 C 9.7 km/h
2210 13-04-2017 11:30:00 12.7 C 6.57 g/m*3 12.7 C 11.3 km/h
2211 13-04-2017 11:35:00 12.8 C 6.61 g/m*3 12.8 C 14.5 km/h
2212 13-04-2017 11:40:00 12.8 C 6.72 g/m*3 12.8 C 9.7 km/h
2213 13-04-2017 11:45:00 12.8 C 6.72 g/m*3 12.8 C 11.3 km/h
2214 13-04-2017 11:50:00 12.9 C 6.54 g/m*3 12.9 C 12.9 km/h
2215 13-04-2017 11:55:00 13.1 C 6.62 g/m*3 13.1 C 9.7 km/h
2216 13-04-2017 12:00:00 13.1 C 6.5 g/m*3 13.1 C 9.7 km/h
2217 13-04-2017 12:05:00 13.2 C 6.54 g/m*3 13.2 C 11.3 km/h
2218 13-04-2017 12:10:00 13.3 C 6.7 g/m*3 13.3 C 11.3 km/h
2219 13-04-2017 12:15:00 13.2 C 6.66 g/m*3 13.2 C 19.3 km/h
2220 13-04-2017 12:20:00 13.2 C 6.66 g/m*3 13.2 C 14.5 km/h
2221 13-04-2017 12:25:00 13.2 C 6.66 g/m*3 13.2 C 14.5 km/h
2222 13-04-2017 12:30:00 13.3 C 6.59 g/m*3 13.3 C 12.9 km/h
2223 13-04-2017 12:35:00 13.2 C 6.43 g/m*3 13.2 C 16.1 km/h
2224 13-04-2017 12:40:00 13.1 C 6.39 g/m*3 13.1 C 11.3 km/h
2225 13-04-2017 12:45:00 12.9 C 6.42 g/m*3 12.9 C 9.7 km/h
Sensor: Nr:Datum:Temp:Abs-Feuchte:Windchill:Wind:
Aussen-T/F 2226 13-04-2017 12:50:00 12.7 C 6.35 g/m*3 12.7 C 11.3 km/h
2227 13-04-2017 12:55:00 12.7 C 6.68 g/m*3 12.7 C 11.3 km/h
2228 13-04-2017 13:00:00 12.7 C 6.57 g/m*3 12.7 C 14.5 km/h
2229 13-04-2017 13:05:00 12.7 C 6.57 g/m*3 12.7 C 16.1 km/h
2230 13-04-2017 13:10:00 12.8 C 6.61 g/m*3 12.8 C 8.1 km/h
2231 13-04-2017 13:15:00 12.8 C 6.5 g/m*3 12.8 C 16.1 km/h
2232 13-04-2017 13:20:00 12.9 C 6.65 g/m*3 12.9 C 11.3 km/h
2233 13-04-2017 13:25:00 13 C 6.46 g/m*3 13 C 8.1 km/h
2234 13-04-2017 13:30:00 13.1 C 6.62 g/m*3 13.1 C 14.5 km/h
2235 13-04-2017 13:35:00 13.3 C 6.59 g/m*3 13.3 C 16.1 km/h
2236 13-04-2017 13:40:00 13.4 C 6.63 g/m*3 13.4 C 11.3 km/h
2237 13-04-2017 13:45:00 13.3 C 6.35 g/m*3 13.3 C 12.9 km/h
2238 13-04-2017 13:50:00 13.4 C 6.51 g/m*3 13.4 C 9.7 km/h
2239 13-04-2017 13:55:00 13.6 C 6.59 g/m*3 13.6 C 11.3 km/h
2240 13-04-2017 14:00:00 13.7 C 6.39 g/m*3 13.7 C 9.7 km/h
2241 13-04-2017 14:05:00 13.7 C 6.39 g/m*3 13.7 C 12.9 km/h
2242 13-04-2017 14:10:00 13.7 C 6.39 g/m*3 13.7 C 8.1 km/h
2243 13-04-2017 14:15:00 13.8 C 6.31 g/m*3 13.8 C 9.7 km/h
2244 13-04-2017 14:20:00 14 C 6.39 g/m*3 14 C 9.7 km/h
2245 13-04-2017 14:25:00 14.2 C 6.47 g/m*3 14.2 C 6.4 km/h
2246 13-04-2017 14:30:00 14.3 C 6.27 g/m*3 14.3 C 19.3 km/h
2247 13-04-2017 14:35:00 14.2 C 6.35 g/m*3 14.2 C 16.1 km/h
2248 13-04-2017 14:40:00 14.2 C 6.23 g/m*3 14.2 C 11.3 km/h
2249 13-04-2017 14:45:00 14.2 C 6.23 g/m*3 14.2 C 9.7 km/h
2250 13-04-2017 14:50:00 14.3 C 6.27 g/m*3 14.3 C 6.4 km/h
Sensor: Nr:Datum:Temp:Abs-Feuchte:Windchill:Wind:
Aussen-T/F 2251 13-04-2017 14:55:00 14.3 C 6.14 g/m*3 14.3 C 6.4 km/h
2252 13-04-2017 15:00:00 14.4 C 6.18 g/m*3 14.4 C 8.1 km/h
2253 13-04-2017 15:05:00 14.5 C 6.09 g/m*3 14.5 C 9.7 km/h
2254 13-04-2017 15:10:00 14.4 C 6.43 g/m*3 14.4 C 12.9 km/h
2255 13-04-2017 15:15:00 14.3 C 6.51 g/m*3 14.3 C 8.1 km/h
2256 13-04-2017 15:20:00 13.9 C 6.47 g/m*3 13.9 C 14.5 km/h
2257 13-04-2017 15:25:00 13.7 C 6.51 g/m*3 13.7 C 11.3 km/h
2258 13-04-2017 15:30:00 13.7 C 6.75 g/m*3 13.7 C 8.1 km/h
2259 13-04-2017 15:35:00 13.9 C 6.59 g/m*3 13.9 C 16.1 km/h
2260 13-04-2017 15:40:00 14.1 C 6.67 g/m*3 14.1 C 11.3 km/h
2261 13-04-2017 15:45:00 14.3 C 6.76 g/m*3 14.3 C 9.7 km/h
2262 13-04-2017 15:50:00 14.5 C 6.84 g/m*3 14.5 C 9.7 km/h
2263 13-04-2017 15:55:00 14.6 C 6.76 g/m*3 14.6 C 11.3 km/h
2264 13-04-2017 16:00:00 14.4 C 6.8 g/m*3 14.4 C 11.3 km/h
2265 13-04-2017 16:05:00 14.3 C 6.63 g/m*3 14.3 C 11.3 km/h
2266 13-04-2017 16:10:00 14.3 C 6.76 g/m*3 14.3 C 8.1 km/h
2267 13-04-2017 16:15:00 14.4 C 6.68 g/m*3 14.4 C 8.1 km/h
2268 13-04-2017 16:20:00 14.5 C 6.59 g/m*3 14.5 C 9.7 km/h
2269 13-04-2017 16:25:00 14.5 C 6.59 g/m*3 14.5 C 11.3 km/h
2270 13-04-2017 16:30:00 14.4 C 6.68 g/m*3 14.4 C 4.8 km/h
2271 13-04-2017 16:35:00 14.7 C 6.8 g/m*3 14.7 C 12.9 km/h
2272 13-04-2017 16:40:00 15 C 6.8 g/m*3 15 C 8.1 km/h
2273 13-04-2017 16:45:00 15.2 C 6.88 g/m*3 15.2 C 14.5 km/h
2274 13-04-2017 16:50:00 15.2 C 6.88 g/m*3 15.2 C 9.7 km/h
2275 13-04-2017 16:55:00 14.8 C 6.71 g/m*3 14.8 C 12.9 km/h
Sensor: Nr:Datum:Temp:Abs-Feuchte:Windchill:Wind:
Aussen-T/F 2276 13-04-2017 17:00:00 14.6 C 6.76 g/m*3 14.6 C 12.9 km/h
2277 13-04-2017 17:05:00 14.4 C 6.68 g/m*3 14.4 C 9.7 km/h
2278 13-04-2017 17:10:00 14.2 C 6.47 g/m*3 14.2 C 11.3 km/h
2279 13-04-2017 17:15:00 14.1 C 6.55 g/m*3 14.1 C 6.4 km/h
2280 13-04-2017 17:20:00 14 C 6.63 g/m*3 14 C 6.4 km/h
2281 13-04-2017 17:25:00 14 C 6.51 g/m*3 14 C 8.1 km/h
2282 13-04-2017 17:30:00 14.2 C 6.84 g/m*3 14.2 C 6.4 km/h
2283 13-04-2017 17:35:00 14.6 C 6.76 g/m*3 14.6 C 3.2 km/h
2284 13-04-2017 17:40:00 14.7 C 6.8 g/m*3 14.7 C 8.1 km/h
2285 13-04-2017 17:45:00 14.7 C 6.92 g/m*3 14.7 C 9.7 km/h
2286 13-04-2017 17:50:00 14.6 C 6.63 g/m*3 14.6 C 11.3 km/h
2287 13-04-2017 17:55:00 14.5 C 6.59 g/m*3 14.5 C 8.1 km/h
2288 13-04-2017 18:00:00 14.3 C 6.63 g/m*3 14.3 C 11.3 km/h
2289 13-04-2017 18:05:00 14.1 C 6.55 g/m*3 14.1 C 11.3 km/h
2290 13-04-2017 18:10:00 14 C 6.75 g/m*3 14 C 11.3 km/h
2291 13-04-2017 18:15:00 14.3 C 6.76 g/m*3 14.3 C 11.3 km/h
2292 13-04-2017 18:20:00 14.6 C 6.76 g/m*3 14.6 C 11.3 km/h
2293 13-04-2017 18:25:00 14.7 C 6.55 g/m*3 14.7 C 14.5 km/h
2294 13-04-2017 18:30:00 14.7 C 6.67 g/m*3 14.7 C 8.1 km/h
2295 13-04-2017 18:35:00 14.3 C 6.51 g/m*3 14.3 C 11.3 km/h
2296 13-04-2017 18:40:00 13.9 C 6.47 g/m*3 13.9 C 12.9 km/h
2297 13-04-2017 18:45:00 13.8 C 6.55 g/m*3 13.8 C 11.3 km/h
2298 13-04-2017 18:50:00 13.7 C 6.51 g/m*3 13.7 C 11.3 km/h
2299 13-04-2017 18:55:00 13.6 C 6.47 g/m*3 13.6 C 11.3 km/h
2300 13-04-2017 19:00:00 13.4 C 6.39 g/m*3 13.4 C 9.7 km/h
Sensor: Nr:Datum:Temp:Abs-Feuchte:Windchill:Wind:
Aussen-T/F 2301 13-04-2017 19:05:00 13.4 C 6.39 g/m*3 13.4 C 8.1 km/h
2302 13-04-2017 19:10:00 13.3 C 6.47 g/m*3 13.3 C 8.1 km/h
2303 13-04-2017 19:15:00 13.2 C 6.54 g/m*3 13.2 C 8.1 km/h
2304 13-04-2017 19:20:00 13.2 C 6.43 g/m*3 13.2 C 8.1 km/h
2305 13-04-2017 19:25:00 13.2 C 6.43 g/m*3 13.2 C 6.4 km/h
2306 13-04-2017 19:30:00 13.1 C 6.39 g/m*3 13.1 C 6.4 km/h
2307 13-04-2017 19:35:00 13.1 C 6.5 g/m*3 13.1 C 4.8 km/h
2308 13-04-2017 19:40:00 12.9 C 6.31 g/m*3 12.9 C 4.8 km/h
2309 13-04-2017 19:45:00 12.9 C 6.42 g/m*3 12.9 C 3.2 km/h
2310 13-04-2017 19:50:00 12.8 C 6.5 g/m*3 12.8 C 6.4 km/h
2311 13-04-2017 19:55:00 12.8 C 6.61 g/m*3 12.8 C 4.8 km/h
2312 13-04-2017 20:00:00 12.7 C 6.57 g/m*3 12.7 C 4.8 km/h
2313 13-04-2017 20:05:00 12.6 C 6.31 g/m*3 12.6 C 3.2 km/h
2314 13-04-2017 20:10:00 12.6 C 6.42 g/m*3 12.6 C 1.6 km/h
2315 13-04-2017 20:15:00 12.5 C 6.27 g/m*3 12.5 C 3.2 km/h
2316 13-04-2017 20:20:00 12.4 C 6.34 g/m*3 12.4 C 4.8 km/h
2317 13-04-2017 20:25:00 12.4 C 6.23 g/m*3 12.4 C 4.8 km/h
2318 13-04-2017 20:30:00 12.3 C 6.41 g/m*3 12.3 C 3.2 km/h
2319 13-04-2017 20:35:00 12.3 C 6.3 g/m*3 12.3 C 3.2 km/h
2320 13-04-2017 20:40:00 12.3 C 6.41 g/m*3 12.3 C 3.2 km/h
2321 13-04-2017 20:45:00 12.2 C 6.37 g/m*3 12.2 C 3.2 km/h
2322 13-04-2017 20:50:00 12.2 C 6.26 g/m*3 12.2 C 6.4 km/h
2323 13-04-2017 20:55:00 12.2 C 6.26 g/m*3 12.2 C 4.8 km/h
2324 13-04-2017 21:00:00 12.1 C 6.22 g/m*3 12.1 C 6.4 km/h
2325 13-04-2017 21:05:00 12.1 C 6.43 g/m*3 12.1 C 8.1 km/h
Sensor: Nr:Datum:Temp:Abs-Feuchte:Windchill:Wind:
Aussen-T/F 2326 13-04-2017 21:10:00 12 C 6.18 g/m*3 12 C 6.4 km/h
2327 13-04-2017 21:15:00 11.8 C 6.31 g/m*3 11.8 C 4.8 km/h
2328 13-04-2017 21:20:00 11.6 C 6.34 g/m*3 11.6 C 1.6 km/h
2329 13-04-2017 21:25:00 11.2 C 6.18 g/m*3 11.2 C 6.4 km/h
2330 13-04-2017 21:30:00 11 C 6.41 g/m*3 11 C 1.6 km/h
2331 13-04-2017 21:35:00 10.7 C 6.38 g/m*3 10.7 C 1.6 km/h
2332 13-04-2017 21:40:00 10.4 C 6.36 g/m*3 10.4 C 1.6 km/h
2333 13-04-2017 21:45:00 10.2 C 6.38 g/m*3 10.2 C 3.2 km/h
2334 13-04-2017 21:50:00 10 C 6.48 g/m*3 10 C 0 km/h
2335 13-04-2017 21:55:00 9.9 C 6.54 g/m*3 9.9 C 1.6 km/h
2336 13-04-2017 22:00:00 9.9 C 6.54 g/m*3 9.9 C 0 km/h
2337 13-04-2017 22:05:00 9.8 C 6.49 g/m*3 9.8 C 1.6 km/h
2338 13-04-2017 22:10:00 9.8 C 6.49 g/m*3 9.8 C 1.6 km/h
2339 13-04-2017 22:15:00 9.8 C 6.4 g/m*3 9.8 C 0 km/h
2340 13-04-2017 22:20:00 9.8 C 6.4 g/m*3 9.8 C 1.6 km/h
2341 13-04-2017 22:25:00 9.7 C 6.45 g/m*3 9.7 C 0 km/h
2342 13-04-2017 22:30:00 9.6 C 6.32 g/m*3 9.6 C 0 km/h
2343 13-04-2017 22:35:00 9.4 C 6.33 g/m*3 9.4 C 1.6 km/h
2344 13-04-2017 22:40:00 9.3 C 6.38 g/m*3 9.3 C 1.6 km/h
2345 13-04-2017 22:45:00 9.2 C 6.43 g/m*3 9.2 C 1.6 km/h
2346 13-04-2017 22:50:00 9.2 C 6.43 g/m*3 9.2 C 0 km/h
2347 13-04-2017 22:55:00 9.2 C 6.43 g/m*3 9.2 C 0 km/h
2348 13-04-2017 23:00:00 9.2 C 6.43 g/m*3 9.2 C 0 km/h
2349 13-04-2017 23:05:00 9.2 C 6.52 g/m*3 9.2 C 0 km/h
2350 13-04-2017 23:10:00 9.2 C 6.61 g/m*3 9.2 C 0 km/h
Sensor: Nr:Datum:Temp:Abs-Feuchte:Windchill:Wind:
Aussen-T/F 2351 13-04-2017 23:15:00 9.2 C 6.61 g/m*3 9.2 C 0 km/h
2352 13-04-2017 23:20:00 9.2 C 6.61 g/m*3 9.2 C 0 km/h
2353 13-04-2017 23:25:00 9.2 C 6.61 g/m*3 9.2 C 0 km/h
2354 13-04-2017 23:30:00 9.2 C 6.7 g/m*3 9.2 C 0 km/h
2355 13-04-2017 23:35:00 9.3 C 6.65 g/m*3 9.3 C 0 km/h
2356 13-04-2017 23:40:00 9.2 C 6.7 g/m*3 9.2 C 0 km/h
2357 13-04-2017 23:45:00 9.2 C 6.52 g/m*3 9.2 C 0 km/h
2358 13-04-2017 23:50:00 9.1 C 6.48 g/m*3 9.1 C 1.6 km/h
2359 13-04-2017 23:55:00 9 C 6.35 g/m*3 9 C 3.2 km/h
2360 14-04-2017 00:00:00 8.8 C 6.27 g/m*3 8.8 C 0 km/h
2361 14-04-2017 00:05:00 8.7 C 6.23 g/m*3 8.7 C 0 km/h
2362 14-04-2017 00:10:00 8.7 C 6.31 g/m*3 8.7 C 1.6 km/h
2363 14-04-2017 00:15:00 8.6 C 6.19 g/m*3 7.75 C 6.4 km/h
2364 14-04-2017 00:20:00 8.6 C 6.19 g/m*3 8.6 C 0 km/h
2365 14-04-2017 00:25:00 8.5 C 6.15 g/m*3 8.5 C 0 km/h
2366 14-04-2017 00:30:00 8.5 C 6.15 g/m*3 8.5 C 1.6 km/h
2367 14-04-2017 00:35:00 8.7 C 6.23 g/m*3 8.7 C 0 km/h
2368 14-04-2017 00:40:00 8.8 C 6.27 g/m*3 8.8 C 3.2 km/h
2369 14-04-2017 00:45:00 9.1 C 6.12 g/m*3 7.61 C 9.7 km/h
2370 14-04-2017 00:50:00 9.4 C 6.15 g/m*3 8.28 C 8.1 km/h
2371 14-04-2017 00:55:00 9.6 C 6.14 g/m*3 7.94 C 11.3 km/h
2372 14-04-2017 01:00:00 9.7 C 6.18 g/m*3 9.02 C 6.4 km/h
2373 14-04-2017 01:05:00 9.7 C 6.18 g/m*3 9.7 C 3.2 km/h
2374 14-04-2017 01:10:00 9.5 C 6.1 g/m*3 8.79 C 6.4 km/h
2375 14-04-2017 01:15:00 9.4 C 6.06 g/m*3 8.28 C 8.1 km/h
Sensor: Nr:Datum:Temp:Abs-Feuchte:Windchill:Wind:
Aussen-T/F 2376 14-04-2017 01:20:00 9.4 C 6.06 g/m*3 9.4 C 4.8 km/h
2377 14-04-2017 01:25:00 9.4 C 6.15 g/m*3 9.4 C 3.2 km/h
2378 14-04-2017 01:30:00 9.3 C 6.11 g/m*3 7.85 C 9.7 km/h
2379 14-04-2017 01:35:00 9.2 C 6.07 g/m*3 8.05 C 8.1 km/h
2380 14-04-2017 01:40:00 9.2 C 6.16 g/m*3 9.2 C 3.2 km/h
2381 14-04-2017 01:45:00 8.9 C 6.13 g/m*3 8.9 C 3.2 km/h
2382 14-04-2017 01:50:00 8.7 C 6.05 g/m*3 8.7 C 4.8 km/h
2383 14-04-2017 01:55:00 8.6 C 6.1 g/m*3 8.6 C 1.6 km/h
2384 14-04-2017 02:00:00 8.3 C 6.15 g/m*3 8.3 C 3.2 km/h
2385 14-04-2017 02:05:00 8.2 C 6.2 g/m*3 8.2 C 3.2 km/h
2386 14-04-2017 02:10:00 7.9 C 6.08 g/m*3 7.9 C 1.6 km/h
2387 14-04-2017 02:15:00 7.7 C 6.08 g/m*3 7.7 C 3.2 km/h
2388 14-04-2017 02:20:00 7.8 C 6.12 g/m*3 6.4 C 8.1 km/h
2389 14-04-2017 02:25:00 7.7 C 6 g/m*3 7.7 C 4.8 km/h
2390 14-04-2017 02:30:00 7.7 C 6.08 g/m*3 7.7 C 3.2 km/h
2391 14-04-2017 02:35:00 7.5 C 6 g/m*3 7.5 C 3.2 km/h
2392 14-04-2017 02:40:00 7.3 C 6 g/m*3 7.3 C 1.6 km/h
2393 14-04-2017 02:45:00 7.2 C 6.04 g/m*3 7.2 C 4.8 km/h
2394 14-04-2017 02:50:00 7.1 C 6.01 g/m*3 7.1 C 4.8 km/h
2395 14-04-2017 02:55:00 7.1 C 6.08 g/m*3 7.1 C 0 km/h
2396 14-04-2017 03:00:00 6.9 C 6 g/m*3 6.9 C 3.2 km/h
2397 14-04-2017 03:05:00 6.7 C 6 g/m*3 6.7 C 3.2 km/h
2398 14-04-2017 03:10:00 6.6 C 6.04 g/m*3 6.6 C 3.2 km/h
2399 14-04-2017 03:15:00 6.6 C 6.04 g/m*3 6.6 C 3.2 km/h
2400 14-04-2017 03:20:00 6.5 C 6.07 g/m*3 6.5 C 3.2 km/h
Sensor: Nr:Datum:Temp:Abs-Feuchte:Windchill:Wind:
Aussen-T/F 2401 14-04-2017 03:25:00 6.5 C 6.07 g/m*3 6.5 C 0 km/h
2402 14-04-2017 03:30:00 6.4 C 6.04 g/m*3 6.4 C 0 km/h
2403 14-04-2017 03:35:00 6.3 C 6 g/m*3 6.3 C 0 km/h
2404 14-04-2017 03:40:00 6.2 C 5.96 g/m*3 6.2 C 0 km/h
2405 14-04-2017 03:45:00 6 C 5.95 g/m*3 6 C 0 km/h
2406 14-04-2017 03:50:00 5.8 C 5.87 g/m*3 5.8 C 3.2 km/h
2407 14-04-2017 03:55:00 5.8 C 5.87 g/m*3 5.8 C 1.6 km/h
2408 14-04-2017 04:00:00 5.7 C 5.84 g/m*3 5.7 C 0 km/h
2409 14-04-2017 04:05:00 5.6 C 5.87 g/m*3 5.6 C 0 km/h
2410 14-04-2017 04:10:00 5.6 C 5.94 g/m*3 5.6 C 1.6 km/h
2411 14-04-2017 04:15:00 5.6 C 5.94 g/m*3 5.6 C 1.6 km/h
2412 14-04-2017 04:20:00 5.6 C 5.94 g/m*3 5.6 C 0 km/h
2413 14-04-2017 04:25:00 5.6 C 5.94 g/m*3 5.6 C 0 km/h
2414 14-04-2017 04:30:00 5.6 C 6.01 g/m*3 5.6 C 3.2 km/h
2415 14-04-2017 04:35:00 5.6 C 6.01 g/m*3 5.6 C 0 km/h
2416 14-04-2017 04:40:00 5.6 C 6.01 g/m*3 5.6 C 0 km/h
2417 14-04-2017 04:45:00 5.6 C 5.94 g/m*3 5.6 C 0 km/h
2418 14-04-2017 04:50:00 5.4 C 5.86 g/m*3 5.4 C 0 km/h
2419 14-04-2017 04:55:00 5.3 C 5.89 g/m*3 5.3 C 0 km/h
2420 14-04-2017 05:00:00 5.2 C 5.85 g/m*3 5.2 C 0 km/h
2421 14-04-2017 05:05:00 5.2 C 5.85 g/m*3 5.2 C 0 km/h
2422 14-04-2017 05:10:00 5.1 C 5.81 g/m*3 5.1 C 0 km/h
2423 14-04-2017 05:15:00 5 C 5.84 g/m*3 5 C 0 km/h
2424 14-04-2017 05:20:00 4.9 C 5.81 g/m*3 4.9 C 3.2 km/h
2425 14-04-2017 05:25:00 4.8 C 5.77 g/m*3 4.8 C 0 km/h
Sensor: Nr:Datum:Temp:Abs-Feuchte:Windchill:Wind:
Aussen-T/F 2426 14-04-2017 05:30:00 4.8 C 5.83 g/m*3 4.8 C 0 km/h
2427 14-04-2017 05:35:00 4.8 C 5.77 g/m*3 4.8 C 0 km/h
2428 14-04-2017 05:40:00 4.7 C 5.8 g/m*3 4.7 C 1.6 km/h
2429 14-04-2017 05:45:00 4.6 C 5.76 g/m*3 4.6 C 1.6 km/h
2430 14-04-2017 05:50:00 4.6 C 5.82 g/m*3 4.6 C 0 km/h
2431 14-04-2017 05:55:00 4.5 C 5.78 g/m*3 4.5 C 0 km/h
2432 14-04-2017 06:00:00 4.4 C 5.75 g/m*3 4.4 C 0 km/h
2433 14-04-2017 06:05:00 4.3 C 5.64 g/m*3 4.3 C 0 km/h
2434 14-04-2017 06:10:00 4.1 C 5.57 g/m*3 4.1 C 0 km/h
2435 14-04-2017 06:15:00 3.9 C 5.56 g/m*3 3.9 C 1.6 km/h
2436 14-04-2017 06:20:00 3.8 C 5.52 g/m*3 3.8 C 1.6 km/h
2437 14-04-2017 06:25:00 3.8 C 5.58 g/m*3 3.8 C 1.6 km/h
2438 14-04-2017 06:30:00 3.7 C 5.55 g/m*3 3.7 C 0 km/h
2439 14-04-2017 06:35:00 3.6 C 5.51 g/m*3 3.6 C 0 km/h
2440 14-04-2017 06:40:00 3.4 C 5.44 g/m*3 3.4 C 0 km/h
2441 14-04-2017 06:45:00 3.3 C 5.4 g/m*3 3.3 C 0 km/h
2442 14-04-2017 06:50:00 3.3 C 5.46 g/m*3 3.3 C 0 km/h
2443 14-04-2017 06:55:00 3.2 C 5.42 g/m*3 3.2 C 0 km/h
2444 14-04-2017 07:00:00 3.2 C 5.42 g/m*3 3.2 C 0 km/h
2445 14-04-2017 07:05:00 3.1 C 5.39 g/m*3 3.1 C 0 km/h
2446 14-04-2017 07:10:00 3.1 C 5.45 g/m*3 3.1 C 0 km/h
2447 14-04-2017 07:15:00 3.1 C 5.45 g/m*3 3.1 C 0 km/h
2448 14-04-2017 07:20:00 3.1 C 5.45 g/m*3 3.1 C 0 km/h
2449 14-04-2017 07:25:00 3.1 C 5.45 g/m*3 3.1 C 0 km/h
2450 14-04-2017 07:30:00 3.1 C 5.45 g/m*3 3.1 C 0 km/h
Sensor: Nr:Datum:Temp:Abs-Feuchte:Windchill:Wind:
Aussen-T/F 2451 14-04-2017 07:35:00 3.1 C 5.51 g/m*3 3.1 C 0 km/h
2452 14-04-2017 07:40:00 3.1 C 5.51 g/m*3 3.1 C 0 km/h
2453 14-04-2017 07:45:00 3.2 C 5.54 g/m*3 3.2 C 0 km/h
2454 14-04-2017 07:50:00 3.2 C 5.54 g/m*3 3.2 C 0 km/h
2455 14-04-2017 07:55:00 3.3 C 5.58 g/m*3 3.3 C 0 km/h
2456 14-04-2017 08:00:00 3.3 C 5.58 g/m*3 3.3 C 0 km/h
2457 14-04-2017 08:05:00 3.3 C 5.58 g/m*3 3.3 C 0 km/h
2458 14-04-2017 08:10:00 3.4 C 5.62 g/m*3 3.4 C 0 km/h
2459 14-04-2017 08:15:00 3.4 C 5.62 g/m*3 3.4 C 0 km/h
2460 14-04-2017 08:20:00 3.5 C 5.66 g/m*3 3.5 C 0 km/h
2461 14-04-2017 08:25:00 3.6 C 5.69 g/m*3 3.6 C 0 km/h
2462 14-04-2017 08:30:00 3.7 C 5.8 g/m*3 3.7 C 0 km/h
2463 14-04-2017 08:35:00 3.8 C 5.83 g/m*3 3.8 C 0 km/h
2464 14-04-2017 08:40:00 3.8 C 5.83 g/m*3 3.8 C 1.6 km/h
2465 14-04-2017 08:45:00 4 C 5.91 g/m*3 4 C 0 km/h
2466 14-04-2017 08:50:00 4.1 C 5.95 g/m*3 4.1 C 0 km/h
2467 14-04-2017 08:55:00 4.2 C 5.99 g/m*3 4.2 C 0 km/h
2468 14-04-2017 09:00:00 4.3 C 6.03 g/m*3 4.3 C 0 km/h
2469 14-04-2017 09:05:00 4.4 C 6.07 g/m*3 4.4 C 0 km/h
2470 14-04-2017 09:10:00 4.6 C 6.09 g/m*3 4.6 C 0 km/h
2471 14-04-2017 09:15:00 4.7 C 6.13 g/m*3 4.7 C 0 km/h
2472 14-04-2017 09:20:00 4.8 C 6.17 g/m*3 4.8 C 0 km/h
2473 14-04-2017 09:25:00 5 C 6.25 g/m*3 5 C 0 km/h
2474 14-04-2017 09:30:00 5.2 C 6.33 g/m*3 5.2 C 0 km/h
2475 14-04-2017 09:35:00 5.3 C 6.31 g/m*3 5.3 C 0 km/h
Sensor: Nr:Datum:Temp:Abs-Feuchte:Windchill:Wind:
Aussen-T/F 2476 14-04-2017 09:40:00 5.6 C 6.43 g/m*3 5.6 C 0 km/h
2477 14-04-2017 09:45:00 5.7 C 6.48 g/m*3 5.7 C 0 km/h
2478 14-04-2017 09:50:00 5.8 C 6.45 g/m*3 5.8 C 0 km/h
2479 14-04-2017 09:55:00 5.9 C 6.49 g/m*3 5.9 C 0 km/h
2480 14-04-2017 10:00:00 6.1 C 6.5 g/m*3 6.1 C 1.6 km/h
2481 14-04-2017 10:05:00 6.3 C 6.51 g/m*3 6.3 C 1.6 km/h
2482 14-04-2017 10:10:00 6.6 C 6.49 g/m*3 6.6 C 0 km/h
2483 14-04-2017 10:15:00 6.8 C 6.58 g/m*3 6.8 C 0 km/h
2484 14-04-2017 10:20:00 6.9 C 6.54 g/m*3 6.9 C 0 km/h
2485 14-04-2017 10:25:00 7.2 C 6.44 g/m*3 7.2 C 1.6 km/h
2486 14-04-2017 10:30:00 7.5 C 6.4 g/m*3 7.5 C 1.6 km/h
2487 14-04-2017 10:35:00 7.8 C 6.37 g/m*3 7.8 C 3.2 km/h
2488 14-04-2017 10:40:00 8.1 C 6.57 g/m*3 8.1 C 4.8 km/h
2489 14-04-2017 10:45:00 8.3 C 6.41 g/m*3 8.3 C 4.8 km/h
2490 14-04-2017 10:50:00 8.6 C 6.36 g/m*3 8.6 C 3.2 km/h
2491 14-04-2017 10:55:00 8.8 C 6.44 g/m*3 8.8 C 1.6 km/h
2492 14-04-2017 11:00:00 9 C 6.52 g/m*3 9 C 4.8 km/h
2493 14-04-2017 11:05:00 9.2 C 6.43 g/m*3 9.2 C 1.6 km/h
2494 14-04-2017 11:10:00 9.4 C 6.6 g/m*3 9.4 C 4.8 km/h
2495 14-04-2017 11:15:00 9.5 C 6.55 g/m*3 9.5 C 1.6 km/h
2496 14-04-2017 11:20:00 9.8 C 6.59 g/m*3 9.14 C 6.4 km/h
2497 14-04-2017 11:25:00 10 C 6.58 g/m*3 10 C 4.8 km/h
2498 14-04-2017 11:30:00 10.1 C 6.52 g/m*3 10.1 C 3.2 km/h
2499 14-04-2017 11:35:00 10.3 C 6.61 g/m*3 10.3 C 3.2 km/h
2500 14-04-2017 11:40:00 10.4 C 6.55 g/m*3 10.4 C 4.8 km/h
Sensor: Nr:Datum:Temp:Abs-Feuchte:Windchill:Wind:
Aussen-T/F 2501 14-04-2017 11:45:00 10.7 C 6.58 g/m*3 10.7 C 4.8 km/h
2502 14-04-2017 11:50:00 10.8 C 6.52 g/m*3 10.29 C 6.4 km/h
2503 14-04-2017 11:55:00 10.9 C 6.56 g/m*3 10.9 C 3.2 km/h
2504 14-04-2017 12:00:00 11 C 6.41 g/m*3 11 C 3.2 km/h
2505 14-04-2017 12:05:00 11.1 C 6.55 g/m*3 11.1 C 3.2 km/h
2506 14-04-2017 12:10:00 11.2 C 6.39 g/m*3 11.2 C 4.8 km/h
2507 14-04-2017 12:15:00 11.5 C 6.3 g/m*3 11.5 C 6.4 km/h
2508 14-04-2017 12:20:00 11.8 C 6.31 g/m*3 11.8 C 9.7 km/h
2509 14-04-2017 12:25:00 11.9 C 6.04 g/m*3 11.9 C 11.3 km/h
2510 14-04-2017 12:30:00 11.9 C 6.04 g/m*3 11.9 C 14.5 km/h
2511 14-04-2017 12:35:00 11.9 C 6.14 g/m*3 11.9 C 14.5 km/h
2512 14-04-2017 12:40:00 12 C 6.07 g/m*3 12 C 9.7 km/h
2513 14-04-2017 12:45:00 12 C 5.97 g/m*3 12 C 6.4 km/h
2514 14-04-2017 12:50:00 11.9 C 5.82 g/m*3 11.9 C 8.1 km/h
2515 14-04-2017 12:55:00 11.9 C 5.82 g/m*3 11.9 C 6.4 km/h
2516 14-04-2017 13:00:00 11.9 C 6.04 g/m*3 11.9 C 3.2 km/h
2517 14-04-2017 13:05:00 12 C 5.86 g/m*3 12 C 4.8 km/h
2518 14-04-2017 13:10:00 12.1 C 6.01 g/m*3 12.1 C 6.4 km/h
2519 14-04-2017 13:15:00 12.1 C 5.79 g/m*3 12.1 C 14.5 km/h
2520 14-04-2017 13:20:00 12.2 C 5.83 g/m*3 12.2 C 6.4 km/h
2521 14-04-2017 13:25:00 12.3 C 5.86 g/m*3 12.3 C 6.4 km/h
2522 14-04-2017 13:30:00 12.5 C 5.94 g/m*3 12.5 C 9.7 km/h
2523 14-04-2017 13:35:00 12.7 C 6.01 g/m*3 12.7 C 11.3 km/h
2524 14-04-2017 13:40:00 12.8 C 6.16 g/m*3 12.8 C 6.4 km/h
2525 14-04-2017 13:45:00 12.9 C 5.97 g/m*3 12.9 C 16.1 km/h
Sensor: Nr:Datum:Temp:Abs-Feuchte:Windchill:Wind:
Aussen-T/F 2526 14-04-2017 13:50:00 13 C 5.9 g/m*3 13 C 6.4 km/h
2527 14-04-2017 13:55:00 13.1 C 5.82 g/m*3 13.1 C 6.4 km/h
2528 14-04-2017 14:00:00 13.1 C 5.82 g/m*3 13.1 C 8.1 km/h
2529 14-04-2017 14:05:00 13.2 C 5.97 g/m*3 13.2 C 3.2 km/h
2530 14-04-2017 14:10:00 13.3 C 6.01 g/m*3 13.3 C 3.2 km/h
2531 14-04-2017 14:15:00 13.5 C 5.97 g/m*3 13.5 C 9.7 km/h
2532 14-04-2017 14:20:00 13.6 C 5.88 g/m*3 13.6 C 9.7 km/h
2533 14-04-2017 14:25:00 13.7 C 6.04 g/m*3 13.7 C 6.4 km/h
2534 14-04-2017 14:30:00 13.8 C 5.96 g/m*3 13.8 C 4.8 km/h
2535 14-04-2017 14:35:00 13.9 C 6.11 g/m*3 13.9 C 6.4 km/h
2536 14-04-2017 14:40:00 14.1 C 6.07 g/m*3 14.1 C 6.4 km/h
2537 14-04-2017 14:45:00 14.3 C 6.02 g/m*3 14.3 C 11.3 km/h
2538 14-04-2017 14:50:00 14.4 C 5.81 g/m*3 14.4 C 6.4 km/h
2539 14-04-2017 14:55:00 14.6 C 6.13 g/m*3 14.6 C 8.1 km/h
2540 14-04-2017 15:00:00 14.7 C 5.92 g/m*3 14.7 C 8.1 km/h
2541 14-04-2017 15:05:00 14.8 C 5.95 g/m*3 14.8 C 8.1 km/h
2542 14-04-2017 15:10:00 15 C 6.28 g/m*3 15 C 8.1 km/h
2543 14-04-2017 15:15:00 15.1 C 6.19 g/m*3 15.1 C 8.1 km/h
2544 14-04-2017 15:20:00 15.3 C 6.14 g/m*3 15.3 C 9.7 km/h
2545 14-04-2017 15:25:00 15.3 C 6.01 g/m*3 15.3 C 4.8 km/h
2546 14-04-2017 15:30:00 15.4 C 5.91 g/m*3 15.4 C 11.3 km/h
2547 14-04-2017 15:35:00 15.5 C 6.21 g/m*3 15.5 C 8.1 km/h
2548 14-04-2017 15:40:00 15.6 C 6.12 g/m*3 15.6 C 14.5 km/h
2549 14-04-2017 15:45:00 15.5 C 6.21 g/m*3 15.5 C 11.3 km/h
2550 14-04-2017 15:50:00 15.5 C 6.08 g/m*3 15.5 C 12.9 km/h
Sensor: Nr:Datum:Temp:Abs-Feuchte:Windchill:Wind:
Aussen-T/F 2551 14-04-2017 15:55:00 15.4 C 6.04 g/m*3 15.4 C 14.5 km/h
2552 14-04-2017 16:00:00 15.5 C 6.21 g/m*3 15.5 C 12.9 km/h
2553 14-04-2017 16:05:00 15.6 C 6.12 g/m*3 15.6 C 11.3 km/h
2554 14-04-2017 16:10:00 15.7 C 6.15 g/m*3 15.7 C 12.9 km/h
2555 14-04-2017 16:15:00 15.7 C 6.02 g/m*3 15.7 C 9.7 km/h
2556 14-04-2017 16:20:00 15.7 C 6.15 g/m*3 15.7 C 14.5 km/h
2557 14-04-2017 16:25:00 15.6 C 6.25 g/m*3 15.6 C 11.3 km/h
2558 14-04-2017 16:30:00 15.6 C 6.25 g/m*3 15.6 C 14.5 km/h
2559 14-04-2017 16:35:00 15.4 C 6.18 g/m*3 15.4 C 11.3 km/h
2560 14-04-2017 16:40:00 15.4 C 6.31 g/m*3 15.4 C 8.1 km/h
2561 14-04-2017 16:45:00 15.5 C 6.21 g/m*3 15.5 C 11.3 km/h
2562 14-04-2017 16:50:00 15.4 C 6.18 g/m*3 15.4 C 8.1 km/h
2563 14-04-2017 16:55:00 15.4 C 6.04 g/m*3 15.4 C 11.3 km/h
2564 14-04-2017 17:00:00 15.7 C 6.02 g/m*3 15.7 C 6.4 km/h
2565 14-04-2017 17:05:00 15.8 C 6.33 g/m*3 15.8 C 8.1 km/h
2566 14-04-2017 17:10:00 16.1 C 6.31 g/m*3 16.1 C 11.3 km/h
2567 14-04-2017 17:15:00 15.8 C 6.19 g/m*3 15.8 C 14.5 km/h
2568 14-04-2017 17:20:00 15.6 C 6.25 g/m*3 15.6 C 9.7 km/h
2569 14-04-2017 17:25:00 15.4 C 6.18 g/m*3 15.4 C 11.3 km/h
2570 14-04-2017 17:30:00 15.4 C 6.18 g/m*3 15.4 C 6.4 km/h
2571 14-04-2017 17:35:00 15.3 C 6.14 g/m*3 15.3 C 6.4 km/h
2572 14-04-2017 17:40:00 15.6 C 6.38 g/m*3 15.6 C 6.4 km/h
2573 14-04-2017 17:45:00 15.9 C 6.23 g/m*3 15.9 C 11.3 km/h
2574 14-04-2017 17:50:00 16 C 6.27 g/m*3 16 C 12.9 km/h
2575 14-04-2017 17:55:00 16.2 C 6.21 g/m*3 16.2 C 9.7 km/h
Sensor: Nr:Datum:Temp:Abs-Feuchte:Windchill:Wind:
Aussen-T/F 2576 14-04-2017 18:00:00 16.4 C 6.14 g/m*3 16.4 C 9.7 km/h
2577 14-04-2017 18:05:00 16.6 C 6.22 g/m*3 16.6 C 11.3 km/h
2578 14-04-2017 18:10:00 16.6 C 6.22 g/m*3 16.6 C 12.9 km/h
2579 14-04-2017 18:15:00 16.4 C 6.14 g/m*3 16.4 C 12.9 km/h
2580 14-04-2017 18:20:00 16.2 C 6.21 g/m*3 16.2 C 6.4 km/h
2581 14-04-2017 18:25:00 15.7 C 6.15 g/m*3 15.7 C 11.3 km/h
2582 14-04-2017 18:30:00 15.4 C 6.18 g/m*3 15.4 C 6.4 km/h
2583 14-04-2017 18:35:00 15.3 C 6.27 g/m*3 15.3 C 9.7 km/h
2584 14-04-2017 18:40:00 15.2 C 6.1 g/m*3 15.2 C 8.1 km/h
2585 14-04-2017 18:45:00 15.1 C 6.19 g/m*3 15.1 C 6.4 km/h
2586 14-04-2017 18:50:00 14.9 C 6.25 g/m*3 14.9 C 4.8 km/h
2587 14-04-2017 18:55:00 14.8 C 6.21 g/m*3 14.8 C 4.8 km/h
2588 14-04-2017 19:00:00 14.7 C 6.3 g/m*3 14.7 C 8.1 km/h
2589 14-04-2017 19:05:00 14.7 C 6.3 g/m*3 14.7 C 11.3 km/h
2590 14-04-2017 19:10:00 14.6 C 6.26 g/m*3 14.6 C 9.7 km/h
2591 14-04-2017 19:15:00 14.5 C 6.22 g/m*3 14.5 C 11.3 km/h
2592 14-04-2017 19:20:00 14.3 C 6.14 g/m*3 14.3 C 9.7 km/h
2593 14-04-2017 19:25:00 14.2 C 6.23 g/m*3 14.2 C 6.4 km/h
2594 14-04-2017 19:30:00 14.1 C 6.31 g/m*3 14.1 C 6.4 km/h
2595 14-04-2017 19:35:00 13.9 C 6.23 g/m*3 13.9 C 11.3 km/h
2596 14-04-2017 19:40:00 13.8 C 6.31 g/m*3 13.8 C 12.9 km/h
2597 14-04-2017 19:45:00 13.7 C 6.39 g/m*3 13.7 C 8.1 km/h
2598 14-04-2017 19:50:00 13.6 C 6.36 g/m*3 13.6 C 8.1 km/h
2599 14-04-2017 19:55:00 13.5 C 6.43 g/m*3 13.5 C 4.8 km/h
2600 14-04-2017 20:00:00 13.4 C 6.39 g/m*3 13.4 C 6.4 km/h
Sensor: Nr:Datum:Temp:Abs-Feuchte:Windchill:Wind:
Aussen-T/F 2601 14-04-2017 20:05:00 13.2 C 6.43 g/m*3 13.2 C 9.7 km/h
2602 14-04-2017 20:10:00 13.1 C 6.39 g/m*3 13.1 C 8.1 km/h
2603 14-04-2017 20:15:00 12.9 C 6.31 g/m*3 12.9 C 3.2 km/h
2604 14-04-2017 20:20:00 12.8 C 6.5 g/m*3 12.8 C 3.2 km/h
2605 14-04-2017 20:25:00 12.7 C 6.57 g/m*3 12.7 C 6.4 km/h
2606 14-04-2017 20:30:00 12.4 C 6.56 g/m*3 12.4 C 4.8 km/h
2607 14-04-2017 20:35:00 12.2 C 6.47 g/m*3 12.2 C 1.6 km/h
2608 14-04-2017 20:40:00 12.1 C 6.43 g/m*3 12.1 C 4.8 km/h
2609 14-04-2017 20:45:00 12 C 6.5 g/m*3 12 C 1.6 km/h
2610 14-04-2017 20:50:00 11.9 C 6.57 g/m*3 11.9 C 1.6 km/h
2611 14-04-2017 20:55:00 11.8 C 6.53 g/m*3 11.8 C 1.6 km/h
2612 14-04-2017 21:00:00 11.7 C 6.48 g/m*3 11.7 C 0 km/h
2613 14-04-2017 21:05:00 11.7 C 6.59 g/m*3 11.7 C 0 km/h
2614 14-04-2017 21:10:00 11.5 C 6.61 g/m*3 11.5 C 0 km/h
2615 14-04-2017 21:15:00 11.3 C 6.63 g/m*3 11.3 C 0 km/h
2616 14-04-2017 21:20:00 11.2 C 6.69 g/m*3 11.2 C 0 km/h
2617 14-04-2017 21:25:00 11.1 C 6.55 g/m*3 11.1 C 3.2 km/h
2618 14-04-2017 21:30:00 11.1 C 6.75 g/m*3 11.1 C 1.6 km/h
2619 14-04-2017 21:35:00 11.1 C 6.75 g/m*3 11.1 C 0 km/h
2620 14-04-2017 21:40:00 11 C 6.71 g/m*3 11 C 0 km/h
2621 14-04-2017 21:45:00 10.9 C 6.56 g/m*3 10.9 C 1.6 km/h
2622 14-04-2017 21:50:00 10.9 C 6.76 g/m*3 10.9 C 0 km/h
2623 14-04-2017 21:55:00 10.9 C 6.76 g/m*3 10.9 C 0 km/h
2624 14-04-2017 22:00:00 10.9 C 6.66 g/m*3 10.9 C 0 km/h
2625 14-04-2017 22:05:00 10.9 C 6.76 g/m*3 10.9 C 0 km/h
Sensor: Nr:Datum:Temp:Abs-Feuchte:Windchill:Wind:
Aussen-T/F 2626 14-04-2017 22:10:00 10.8 C 6.82 g/m*3 10.8 C 1.6 km/h
2627 14-04-2017 22:15:00 10.8 C 6.82 g/m*3 10.8 C 0 km/h
2628 14-04-2017 22:20:00 10.7 C 6.78 g/m*3 10.7 C 0 km/h
2629 14-04-2017 22:25:00 10.7 C 6.78 g/m*3 10.7 C 0 km/h
2630 14-04-2017 22:30:00 10.6 C 6.73 g/m*3 10.6 C 1.6 km/h
2631 14-04-2017 22:35:00 10.6 C 6.73 g/m*3 10.6 C 1.6 km/h
2632 14-04-2017 22:40:00 10.6 C 6.73 g/m*3 10.6 C 1.6 km/h
2633 14-04-2017 22:45:00 10.6 C 6.73 g/m*3 10.6 C 1.6 km/h
2634 14-04-2017 22:50:00 10.6 C 6.73 g/m*3 10.6 C 1.6 km/h
2635 14-04-2017 22:55:00 10.6 C 6.73 g/m*3 10.6 C 1.6 km/h
2636 14-04-2017 23:00:00 10.6 C 6.73 g/m*3 10.6 C 0 km/h
2637 14-04-2017 23:05:00 10.6 C 6.73 g/m*3 10.6 C 0 km/h
2638 14-04-2017 23:10:00 10.5 C 6.69 g/m*3 10.5 C 0 km/h
2639 14-04-2017 23:15:00 10.5 C 6.69 g/m*3 10.5 C 1.6 km/h
2640 14-04-2017 23:20:00 10.4 C 6.75 g/m*3 10.4 C 1.6 km/h
2641 14-04-2017 23:25:00 10.4 C 6.75 g/m*3 10.4 C 1.6 km/h
2642 14-04-2017 23:30:00 10.4 C 6.84 g/m*3 10.4 C 0 km/h
2643 14-04-2017 23:35:00 10.3 C 6.9 g/m*3 10.3 C 0 km/h
2644 14-04-2017 23:40:00 10.3 C 6.9 g/m*3 10.3 C 0 km/h
2645 14-04-2017 23:45:00 10.1 C 6.81 g/m*3 10.1 C 0 km/h
2646 14-04-2017 23:50:00 10 C 6.77 g/m*3 10 C 0 km/h
2647 14-04-2017 23:55:00 9.8 C 6.68 g/m*3 9.8 C 1.6 km/h
2648 15-04-2017 00:00:00 9.7 C 6.73 g/m*3 9.7 C 0 km/h
2649 15-04-2017 00:05:00 9.7 C 6.73 g/m*3 9.7 C 0 km/h
2650 15-04-2017 00:10:00 9.6 C 6.69 g/m*3 9.6 C 3.2 km/h
Sensor: Nr:Datum:Temp:Abs-Feuchte:Windchill:Wind:
Aussen-T/F 2651 15-04-2017 00:15:00 9.4 C 6.6 g/m*3 9.4 C 3.2 km/h
2652 15-04-2017 00:20:00 9.3 C 6.56 g/m*3 9.3 C 3.2 km/h
2653 15-04-2017 00:25:00 9.1 C 6.57 g/m*3 9.1 C 3.2 km/h
2654 15-04-2017 00:30:00 8.9 C 6.48 g/m*3 8.9 C 3.2 km/h
2655 15-04-2017 00:35:00 8.8 C 6.53 g/m*3 8.8 C 3.2 km/h
2656 15-04-2017 00:40:00 8.7 C 6.49 g/m*3 8.7 C 3.2 km/h
2657 15-04-2017 00:45:00 8.6 C 6.53 g/m*3 8.6 C 3.2 km/h
2658 15-04-2017 00:50:00 8.5 C 6.57 g/m*3 8.5 C 3.2 km/h
2659 15-04-2017 00:55:00 8.4 C 6.53 g/m*3 8.4 C 3.2 km/h
2660 15-04-2017 01:00:00 8.3 C 6.49 g/m*3 8.3 C 4.8 km/h
2661 15-04-2017 01:05:00 8.2 C 6.53 g/m*3 8.2 C 3.2 km/h
2662 15-04-2017 01:10:00 8.1 C 6.49 g/m*3 8.1 C 3.2 km/h
2663 15-04-2017 01:15:00 7.9 C 6.49 g/m*3 7.9 C 1.6 km/h
2664 15-04-2017 01:20:00 7.9 C 6.49 g/m*3 7.9 C 3.2 km/h
2665 15-04-2017 01:25:00 7.8 C 6.45 g/m*3 7.8 C 3.2 km/h
2666 15-04-2017 01:30:00 7.7 C 6.49 g/m*3 7.7 C 0 km/h
2667 15-04-2017 01:35:00 7.6 C 6.44 g/m*3 7.6 C 0 km/h
2668 15-04-2017 01:40:00 7.4 C 6.44 g/m*3 7.4 C 0 km/h
2669 15-04-2017 01:45:00 7.3 C 6.4 g/m*3 7.3 C 0 km/h
2670 15-04-2017 01:50:00 7.1 C 6.32 g/m*3 7.1 C 0 km/h
2671 15-04-2017 01:55:00 6.9 C 6.31 g/m*3 6.9 C 0 km/h
2672 15-04-2017 02:00:00 6.8 C 6.35 g/m*3 6.8 C 0 km/h
2673 15-04-2017 02:05:00 6.7 C 6.31 g/m*3 6.7 C 0 km/h
2674 15-04-2017 02:10:00 6.7 C 6.38 g/m*3 6.7 C 1.6 km/h
2675 15-04-2017 02:15:00 6.8 C 6.42 g/m*3 6.8 C 0 km/h
Sensor: Nr:Datum:Temp:Abs-Feuchte:Windchill:Wind:
Aussen-T/F 2676 15-04-2017 02:20:00 6.8 C 6.42 g/m*3 6.8 C 4.8 km/h
2677 15-04-2017 02:25:00 6.8 C 6.42 g/m*3 6.8 C 1.6 km/h
2678 15-04-2017 02:30:00 6.8 C 6.42 g/m*3 6.8 C 0 km/h
2679 15-04-2017 02:35:00 6.8 C 6.42 g/m*3 6.8 C 0 km/h
2680 15-04-2017 02:40:00 6.8 C 6.42 g/m*3 6.8 C 0 km/h
2681 15-04-2017 02:45:00 6.8 C 6.42 g/m*3 6.8 C 0 km/h
2682 15-04-2017 02:50:00 6.8 C 6.42 g/m*3 6.8 C 1.6 km/h
2683 15-04-2017 02:55:00 6.8 C 6.42 g/m*3 6.8 C 0 km/h
2684 15-04-2017 03:00:00 6.8 C 6.42 g/m*3 6.8 C 3.2 km/h
2685 15-04-2017 03:05:00 6.8 C 6.42 g/m*3 6.8 C 0 km/h
2686 15-04-2017 03:10:00 6.8 C 6.42 g/m*3 6.8 C 0 km/h
2687 15-04-2017 03:15:00 6.8 C 6.42 g/m*3 6.8 C 1.6 km/h
2688 15-04-2017 03:20:00 6.8 C 6.42 g/m*3 6.8 C 0 km/h
2689 15-04-2017 03:25:00 6.7 C 6.38 g/m*3 6.7 C 1.6 km/h
2690 15-04-2017 03:30:00 6.7 C 6.38 g/m*3 6.7 C 4.8 km/h
2691 15-04-2017 03:35:00 6.7 C 6.38 g/m*3 6.7 C 1.6 km/h
2692 15-04-2017 03:40:00 6.6 C 6.42 g/m*3 4.99 C 8.1 km/h
2693 15-04-2017 03:45:00 6.6 C 6.42 g/m*3 4.99 C 8.1 km/h
2694 15-04-2017 03:50:00 6.6 C 6.42 g/m*3 6.6 C 4.8 km/h
2695 15-04-2017 03:55:00 6.6 C 6.42 g/m*3 6.6 C 3.2 km/h
2696 15-04-2017 04:00:00 6.5 C 6.37 g/m*3 6.5 C 0 km/h
2697 15-04-2017 04:05:00 6.4 C 6.33 g/m*3 6.4 C 3.2 km/h
2698 15-04-2017 04:10:00 6.4 C 6.41 g/m*3 6.4 C 4.8 km/h
2699 15-04-2017 04:15:00 6.3 C 6.37 g/m*3 6.3 C 0 km/h
2700 15-04-2017 04:20:00 6.3 C 6.37 g/m*3 6.3 C 1.6 km/h
Sensor: Nr:Datum:Temp:Abs-Feuchte:Windchill:Wind:
Aussen-T/F 2701 15-04-2017 04:25:00 6.2 C 6.32 g/m*3 6.2 C 4.8 km/h
2702 15-04-2017 04:30:00 6.2 C 6.4 g/m*3 6.2 C 1.6 km/h
2703 15-04-2017 04:35:00 6.2 C 6.4 g/m*3 6.2 C 0 km/h
2704 15-04-2017 04:40:00 6.2 C 6.4 g/m*3 4.52 C 8.1 km/h
2705 15-04-2017 04:45:00 6.2 C 6.4 g/m*3 6.2 C 0 km/h
2706 15-04-2017 04:50:00 6.2 C 6.47 g/m*3 6.2 C 0 km/h
2707 15-04-2017 04:55:00 6.3 C 6.51 g/m*3 6.3 C 4.8 km/h
2708 15-04-2017 05:00:00 6.3 C 6.44 g/m*3 6.3 C 3.2 km/h
2709 15-04-2017 05:05:00 6.3 C 6.44 g/m*3 6.3 C 4.8 km/h
2710 15-04-2017 05:10:00 6.4 C 6.48 g/m*3 5.21 C 6.4 km/h
2711 15-04-2017 05:15:00 6.4 C 6.48 g/m*3 6.4 C 3.2 km/h
2712 15-04-2017 05:20:00 6.5 C 6.45 g/m*3 6.5 C 1.6 km/h
2713 15-04-2017 05:25:00 6.5 C 6.45 g/m*3 6.5 C 3.2 km/h
2714 15-04-2017 05:30:00 6.5 C 6.45 g/m*3 6.5 C 4.8 km/h
2715 15-04-2017 05:35:00 6.5 C 6.45 g/m*3 6.5 C 0 km/h
2716 15-04-2017 05:40:00 6.5 C 6.45 g/m*3 6.5 C 3.2 km/h
2717 15-04-2017 05:45:00 6.4 C 6.41 g/m*3 6.4 C 0 km/h
2718 15-04-2017 05:50:00 6.4 C 6.41 g/m*3 6.4 C 0 km/h
2719 15-04-2017 05:55:00 6.3 C 6.44 g/m*3 6.3 C 0 km/h
2720 15-04-2017 06:00:00 6.3 C 6.44 g/m*3 6.3 C 0 km/h
2721 15-04-2017 06:05:00 6.3 C 6.44 g/m*3 6.3 C 0 km/h
2722 15-04-2017 06:10:00 6.3 C 6.44 g/m*3 6.3 C 0 km/h
2723 15-04-2017 06:15:00 6.3 C 6.44 g/m*3 6.3 C 0 km/h
2724 15-04-2017 06:20:00 6.3 C 6.44 g/m*3 6.3 C 0 km/h
2725 15-04-2017 06:25:00 6.3 C 6.44 g/m*3 6.3 C 0 km/h
Sensor: Nr:Datum:Temp:Abs-Feuchte:Windchill:Wind:
Aussen-T/F 2726 15-04-2017 06:30:00 6.3 C 6.44 g/m*3 6.3 C 0 km/h
2727 15-04-2017 06:35:00 6.3 C 6.44 g/m*3 6.3 C 0 km/h
2728 15-04-2017 06:40:00 6.3 C 6.44 g/m*3 6.3 C 0 km/h
2729 15-04-2017 06:45:00 6.3 C 6.44 g/m*3 6.3 C 0 km/h
2730 15-04-2017 06:50:00 6.3 C 6.44 g/m*3 6.3 C 0 km/h
2731 15-04-2017 06:55:00 6.4 C 6.48 g/m*3 6.4 C 0 km/h
2732 15-04-2017 07:00:00 6.4 C 6.56 g/m*3 6.4 C 0 km/h
2733 15-04-2017 07:05:00 6.6 C 6.64 g/m*3 6.6 C 0 km/h
2734 15-04-2017 07:10:00 6.6 C 6.64 g/m*3 6.6 C 0 km/h
2735 15-04-2017 07:15:00 6.7 C 6.61 g/m*3 6.7 C 0 km/h
2736 15-04-2017 07:20:00 6.7 C 6.61 g/m*3 6.7 C 0 km/h
2737 15-04-2017 07:25:00 6.8 C 6.65 g/m*3 6.8 C 0 km/h
2738 15-04-2017 07:30:00 6.8 C 6.65 g/m*3 6.8 C 0 km/h
2739 15-04-2017 07:35:00 6.9 C 6.7 g/m*3 6.9 C 0 km/h
2740 15-04-2017 07:40:00 7 C 6.74 g/m*3 7 C 4.8 km/h
2741 15-04-2017 07:45:00 7.1 C 6.79 g/m*3 7.1 C 1.6 km/h
2742 15-04-2017 07:50:00 7.2 C 6.75 g/m*3 7.2 C 1.6 km/h
2743 15-04-2017 07:55:00 7.3 C 6.87 g/m*3 7.3 C 0 km/h
2744 15-04-2017 08:00:00 7.4 C 6.92 g/m*3 7.4 C 1.6 km/h
2745 15-04-2017 08:05:00 7.6 C 6.93 g/m*3 7.6 C 1.6 km/h
2746 15-04-2017 08:10:00 7.8 C 6.86 g/m*3 6.83 C 6.4 km/h
2747 15-04-2017 08:15:00 7.9 C 6.82 g/m*3 7.9 C 4.8 km/h
2748 15-04-2017 08:20:00 8.2 C 6.95 g/m*3 6.25 C 11.3 km/h
2749 15-04-2017 08:25:00 8.4 C 6.87 g/m*3 6.49 C 11.3 km/h
2750 15-04-2017 08:30:00 8.7 C 6.92 g/m*3 7.13 C 9.7 km/h
Sensor: Nr:Datum:Temp:Abs-Feuchte:Windchill:Wind:
Aussen-T/F 2751 15-04-2017 08:35:00 8.9 C 6.92 g/m*3 7.09 C 11.3 km/h
2752 15-04-2017 08:40:00 9.1 C 7.19 g/m*3 8.33 C 6.4 km/h
2753 15-04-2017 08:45:00 9.1 C 7.19 g/m*3 7.93 C 8.1 km/h
2754 15-04-2017 08:50:00 9.2 C 7.23 g/m*3 7.46 C 11.3 km/h
2755 15-04-2017 08:55:00 9.2 C 7.41 g/m*3 9.2 C 4.8 km/h
2756 15-04-2017 09:00:00 9.2 C 7.32 g/m*3 8.45 C 6.4 km/h
2757 15-04-2017 09:05:00 9.2 C 7.41 g/m*3 9.2 C 4.8 km/h
2758 15-04-2017 09:10:00 9.2 C 7.59 g/m*3 9.2 C 3.2 km/h
2759 15-04-2017 09:15:00 9.1 C 7.63 g/m*3 9.1 C 3.2 km/h
2760 15-04-2017 09:20:00 8.9 C 7.62 g/m*3 8.9 C 3.2 km/h
2761 15-04-2017 09:25:00 8.8 C 7.57 g/m*3 8.8 C 4.8 km/h
2762 15-04-2017 09:30:00 8.7 C 7.61 g/m*3 6.6 C 12.9 km/h
2763 15-04-2017 09:35:00 8.7 C 7.61 g/m*3 7.46 C 8.1 km/h
2764 15-04-2017 09:40:00 8.6 C 7.65 g/m*3 8.6 C 3.2 km/h
2765 15-04-2017 09:45:00 8.6 C 7.65 g/m*3 8.6 C 3.2 km/h
2766 15-04-2017 09:50:00 8.5 C 7.68 g/m*3 8.5 C 4.8 km/h
2767 15-04-2017 09:55:00 8.5 C 7.68 g/m*3 8.5 C 3.2 km/h
2768 15-04-2017 10:00:00 8.5 C 7.68 g/m*3 6.61 C 11.3 km/h
2769 15-04-2017 10:05:00 8.5 C 7.68 g/m*3 7.64 C 6.4 km/h
2770 15-04-2017 10:10:00 8.6 C 7.73 g/m*3 8.6 C 4.8 km/h
2771 15-04-2017 10:15:00 8.6 C 7.73 g/m*3 7.75 C 6.4 km/h
2772 15-04-2017 10:20:00 8.6 C 7.65 g/m*3 7.34 C 8.1 km/h
2773 15-04-2017 10:25:00 8.6 C 7.65 g/m*3 6.73 C 11.3 km/h
2774 15-04-2017 10:30:00 8.7 C 7.7 g/m*3 7.87 C 6.4 km/h
2775 15-04-2017 10:35:00 8.7 C 7.61 g/m*3 7.46 C 8.1 km/h
Sensor: Nr:Datum:Temp:Abs-Feuchte:Windchill:Wind:
Aussen-T/F 2776 15-04-2017 10:40:00 8.8 C 7.75 g/m*3 7.98 C 6.4 km/h
2777 15-04-2017 10:45:00 8.8 C 7.75 g/m*3 8.8 C 4.8 km/h
2778 15-04-2017 10:50:00 8.9 C 7.8 g/m*3 8.1 C 6.4 km/h
2779 15-04-2017 10:55:00 9.1 C 7.72 g/m*3 7.93 C 8.1 km/h
2780 15-04-2017 11:00:00 9.2 C 7.77 g/m*3 6.99 C 14.5 km/h
2781 15-04-2017 11:05:00 9.4 C 7.96 g/m*3 8.28 C 8.1 km/h
2782 15-04-2017 11:10:00 9.6 C 7.97 g/m*3 9.6 C 4.8 km/h
2783 15-04-2017 11:15:00 9.7 C 7.93 g/m*3 7.82 C 12.9 km/h
2784 15-04-2017 11:20:00 9.8 C 7.89 g/m*3 7.94 C 12.9 km/h
2785 15-04-2017 11:25:00 9.9 C 7.56 g/m*3 7.66 C 16.1 km/h
2786 15-04-2017 11:30:00 10.2 C 7.99 g/m*3 8.92 C 9.7 km/h
2787 15-04-2017 11:35:00 10.3 C 7.85 g/m*3 8.34 C 14.5 km/h
2788 15-04-2017 11:40:00 10.6 C 7.91 g/m*3 8.53 C 16.1 km/h
2789 15-04-2017 11:45:00 10.8 C 8.11 g/m*3 9.16 C 12.9 km/h
2790 15-04-2017 11:50:00 11.1 C 8.16 g/m*3 11.1 C 12.9 km/h
2791 15-04-2017 11:55:00 11.3 C 8.06 g/m*3 11.3 C 9.7 km/h
2792 15-04-2017 12:00:00 11.4 C 8.01 g/m*3 11.4 C 12.9 km/h
2793 15-04-2017 12:05:00 11.5 C 8.06 g/m*3 11.5 C 12.9 km/h
2794 15-04-2017 12:10:00 11.5 C 7.95 g/m*3 11.5 C 11.3 km/h
2795 15-04-2017 12:15:00 11.5 C 8.06 g/m*3 11.5 C 3.2 km/h
2796 15-04-2017 12:20:00 11.4 C 7.9 g/m*3 11.4 C 9.7 km/h
2797 15-04-2017 12:25:00 11.4 C 7.9 g/m*3 11.4 C 11.3 km/h
2798 15-04-2017 12:30:00 11.3 C 7.96 g/m*3 11.3 C 16.1 km/h
2799 15-04-2017 12:35:00 11.3 C 8.06 g/m*3 11.3 C 6.4 km/h
2800 15-04-2017 12:40:00 11.3 C 7.96 g/m*3 11.3 C 8.1 km/h
Sensor: Nr:Datum:Temp:Abs-Feuchte:Windchill:Wind:
Aussen-T/F 2801 15-04-2017 12:45:00 11.4 C 8.11 g/m*3 11.4 C 9.7 km/h
2802 15-04-2017 12:50:00 11.4 C 8.01 g/m*3 11.4 C 8.1 km/h
2803 15-04-2017 12:55:00 11.4 C 8.01 g/m*3 11.4 C 8.1 km/h
2804 15-04-2017 13:00:00 11.6 C 8.21 g/m*3 11.6 C 14.5 km/h
2805 15-04-2017 13:05:00 11.7 C 8.37 g/m*3 11.7 C 12.9 km/h
2806 15-04-2017 13:10:00 12 C 8.53 g/m*3 12 C 8.1 km/h
2807 15-04-2017 13:15:00 12.3 C 8.47 g/m*3 12.3 C 12.9 km/h
2808 15-04-2017 13:20:00 12.4 C 8.52 g/m*3 12.4 C 12.9 km/h
2809 15-04-2017 13:25:00 12.3 C 8.47 g/m*3 12.3 C 9.7 km/h
2810 15-04-2017 13:30:00 12.3 C 8.47 g/m*3 12.3 C 11.3 km/h
2811 15-04-2017 13:35:00 12.3 C 8.58 g/m*3 12.3 C 9.7 km/h
2812 15-04-2017 13:40:00 12.2 C 8.42 g/m*3 12.2 C 9.7 km/h
2813 15-04-2017 13:45:00 12.2 C 8.52 g/m*3 12.2 C 11.3 km/h
2814 15-04-2017 13:50:00 12.3 C 8.58 g/m*3 12.3 C 17.7 km/h
2815 15-04-2017 13:55:00 12.5 C 8.69 g/m*3 12.5 C 11.3 km/h
2816 15-04-2017 14:00:00 12.7 C 8.57 g/m*3 12.7 C 12.9 km/h
2817 15-04-2017 14:05:00 12.7 C 8.57 g/m*3 12.7 C 11.3 km/h
2818 15-04-2017 14:10:00 12.8 C 8.51 g/m*3 12.8 C 14.5 km/h
2819 15-04-2017 14:15:00 12.8 C 8.74 g/m*3 12.8 C 16.1 km/h
2820 15-04-2017 14:20:00 12.6 C 8.85 g/m*3 12.6 C 24.1 km/h
2821 15-04-2017 14:25:00 12.5 C 8.91 g/m*3 12.5 C 11.3 km/h
2822 15-04-2017 14:30:00 12.4 C 8.85 g/m*3 12.4 C 12.9 km/h
2823 15-04-2017 14:35:00 12.4 C 8.85 g/m*3 12.4 C 11.3 km/h
2824 15-04-2017 14:40:00 12.4 C 8.85 g/m*3 12.4 C 11.3 km/h
2825 15-04-2017 14:45:00 12.5 C 8.8 g/m*3 12.5 C 11.3 km/h
Sensor: Nr:Datum:Temp:Abs-Feuchte:Windchill:Wind:
Aussen-T/F 2826 15-04-2017 14:50:00 12.4 C 8.74 g/m*3 12.4 C 14.5 km/h
2827 15-04-2017 14:55:00 12.3 C 8.8 g/m*3 12.3 C 8.1 km/h
2828 15-04-2017 15:00:00 12.3 C 9.01 g/m*3 12.3 C 6.4 km/h
2829 15-04-2017 15:05:00 12.1 C 8.9 g/m*3 12.1 C 9.7 km/h
2830 15-04-2017 15:10:00 11.8 C 8.84 g/m*3 11.8 C 30.6 km/h
2831 15-04-2017 15:15:00 10.9 C 8.36 g/m*3 7.61 C 32.2 km/h
2832 15-04-2017 15:20:00 10.3 C 8.24 g/m*3 7.27 C 25.7 km/h
2833 15-04-2017 15:25:00 9.7 C 8.02 g/m*3 6.77 C 22.5 km/h
2834 15-04-2017 15:30:00 9.3 C 7.91 g/m*3 7.33 C 12.9 km/h
2835 15-04-2017 15:35:00 9.2 C 7.95 g/m*3 7.46 C 11.3 km/h
2836 15-04-2017 15:40:00 9.3 C 8.18 g/m*3 9.3 C 3.2 km/h
2837 15-04-2017 15:45:00 9.6 C 8.43 g/m*3 9.6 C 3.2 km/h
2838 15-04-2017 15:50:00 9.7 C 8.48 g/m*3 9.7 C 4.8 km/h
2839 15-04-2017 15:55:00 9.9 C 8.68 g/m*3 9.9 C 0 km/h
2840 15-04-2017 16:00:00 10.2 C 8.85 g/m*3 10.2 C 0 km/h
2841 15-04-2017 16:05:00 10.3 C 8.91 g/m*3 10.3 C 0 km/h
2842 15-04-2017 16:10:00 10.5 C 9.02 g/m*3 10.5 C 0 km/h
2843 15-04-2017 16:15:00 10.4 C 8.87 g/m*3 9.16 C 9.7 km/h
2844 15-04-2017 16:20:00 10.4 C 8.87 g/m*3 10.4 C 3.2 km/h
2845 15-04-2017 16:25:00 10.4 C 8.87 g/m*3 10.4 C 1.6 km/h
2846 15-04-2017 16:30:00 10.5 C 8.92 g/m*3 10.5 C 3.2 km/h
2847 15-04-2017 16:35:00 10.3 C 8.71 g/m*3 8.16 C 16.1 km/h
2848 15-04-2017 16:40:00 10.2 C 8.47 g/m*3 9.22 C 8.1 km/h
2849 15-04-2017 16:45:00 10.2 C 8.56 g/m*3 9.22 C 8.1 km/h
2850 15-04-2017 16:50:00 10.2 C 8.56 g/m*3 8.92 C 9.7 km/h
Sensor: Nr:Datum:Temp:Abs-Feuchte:Windchill:Wind:
Aussen-T/F 2851 15-04-2017 16:55:00 10.1 C 8.42 g/m*3 9.1 C 8.1 km/h
2852 15-04-2017 17:00:00 9.9 C 8.03 g/m*3 8.06 C 12.9 km/h
2853 15-04-2017 17:05:00 9.9 C 7.84 g/m*3 7.32 C 19.3 km/h
2854 15-04-2017 17:10:00 10.1 C 7.85 g/m*3 7.57 C 19.3 km/h
2855 15-04-2017 17:15:00 10.1 C 7.94 g/m*3 10.1 C 4.8 km/h
2856 15-04-2017 17:20:00 10.2 C 8.18 g/m*3 10.2 C 4.8 km/h
2857 15-04-2017 17:25:00 10.2 C 8.18 g/m*3 10.2 C 1.6 km/h
2858 15-04-2017 17:30:00 10.2 C 8.28 g/m*3 10.2 C 0 km/h
2859 15-04-2017 17:35:00 10.2 C 8.28 g/m*3 10.2 C 3.2 km/h
2860 15-04-2017 17:40:00 10.3 C 8.52 g/m*3 10.3 C 0 km/h
2861 15-04-2017 17:45:00 10.4 C 8.38 g/m*3 10.4 C 4.8 km/h
2862 15-04-2017 17:50:00 10.4 C 8.29 g/m*3 10.4 C 4.8 km/h
2863 15-04-2017 17:55:00 10.5 C 8.24 g/m*3 9.95 C 6.4 km/h
2864 15-04-2017 18:00:00 10.6 C 8.2 g/m*3 8.92 C 12.9 km/h
2865 15-04-2017 18:05:00 10.7 C 8.15 g/m*3 10.18 C 6.4 km/h
2866 15-04-2017 18:10:00 10.8 C 8.01 g/m*3 10.29 C 6.4 km/h
2867 15-04-2017 18:15:00 10.9 C 7.96 g/m*3 10.04 C 8.1 km/h
2868 15-04-2017 18:20:00 10.9 C 7.86 g/m*3 9.28 C 12.9 km/h
2869 15-04-2017 18:25:00 11 C 7.81 g/m*3 9.4 C 12.9 km/h
2870 15-04-2017 18:30:00 11 C 8.11 g/m*3 9.88 C 9.7 km/h
2871 15-04-2017 18:35:00 10.9 C 8.06 g/m*3 10.04 C 8.1 km/h
2872 15-04-2017 18:40:00 10.8 C 7.61 g/m*3 9.16 C 12.9 km/h
2873 15-04-2017 18:45:00 10.8 C 7.71 g/m*3 9.64 C 9.7 km/h
2874 15-04-2017 18:50:00 10.9 C 7.76 g/m*3 9.51 C 11.3 km/h
2875 15-04-2017 18:55:00 10.9 C 7.46 g/m*3 9.28 C 12.9 km/h
Sensor: Nr:Datum:Temp:Abs-Feuchte:Windchill:Wind:
Aussen-T/F 2876 15-04-2017 19:00:00 10.9 C 7.46 g/m*3 9.51 C 11.3 km/h
2877 15-04-2017 19:05:00 10.8 C 7.22 g/m*3 9.64 C 9.7 km/h
2878 15-04-2017 19:10:00 10.8 C 7.31 g/m*3 9.16 C 12.9 km/h
2879 15-04-2017 19:15:00 10.8 C 7.22 g/m*3 9.64 C 9.7 km/h
2880 15-04-2017 19:20:00 10.8 C 7.22 g/m*3 9.16 C 12.9 km/h
2881 15-04-2017 19:25:00 10.8 C 7.02 g/m*3 9.64 C 9.7 km/h
2882 15-04-2017 19:30:00 10.7 C 7.07 g/m*3 9.52 C 9.7 km/h
2883 15-04-2017 19:35:00 10.7 C 7.17 g/m*3 10.18 C 6.4 km/h
2884 15-04-2017 19:40:00 10.6 C 7.03 g/m*3 9.4 C 9.7 km/h
2885 15-04-2017 19:45:00 10.6 C 7.12 g/m*3 9.4 C 9.7 km/h
2886 15-04-2017 19:50:00 10.6 C 6.93 g/m*3 9.14 C 11.3 km/h
2887 15-04-2017 19:55:00 10.7 C 6.88 g/m*3 9.52 C 9.7 km/h
2888 15-04-2017 20:00:00 10.7 C 7.07 g/m*3 10.18 C 6.4 km/h
2889 15-04-2017 20:05:00 10.7 C 6.97 g/m*3 8.84 C 14.5 km/h
2890 15-04-2017 20:10:00 10.7 C 7.07 g/m*3 9.81 C 8.1 km/h
2891 15-04-2017 20:15:00 10.6 C 7.03 g/m*3 10.6 C 4.8 km/h
2892 15-04-2017 20:20:00 10.6 C 7.12 g/m*3 10.6 C 4.8 km/h
2893 15-04-2017 20:25:00 10.4 C 6.94 g/m*3 8.9 C 11.3 km/h
2894 15-04-2017 20:30:00 10.3 C 6.99 g/m*3 9.04 C 9.7 km/h
2895 15-04-2017 20:35:00 10.2 C 6.95 g/m*3 8.92 C 9.7 km/h
2896 15-04-2017 20:40:00 10.1 C 7 g/m*3 9.48 C 6.4 km/h
2897 15-04-2017 20:45:00 10.1 C 7 g/m*3 9.48 C 6.4 km/h
2898 15-04-2017 20:50:00 10.1 C 7 g/m*3 9.1 C 8.1 km/h
2899 15-04-2017 20:55:00 9.9 C 6.91 g/m*3 8.87 C 8.1 km/h
2900 15-04-2017 21:00:00 9.9 C 6.82 g/m*3 8.56 C 9.7 km/h
Sensor: Nr:Datum:Temp:Abs-Feuchte:Windchill:Wind:
Aussen-T/F 2901 15-04-2017 21:05:00 9.9 C 6.72 g/m*3 8.56 C 9.7 km/h
2902 15-04-2017 21:10:00 10 C 6.77 g/m*3 8.42 C 11.3 km/h
2903 15-04-2017 21:15:00 10 C 6.77 g/m*3 9.37 C 6.4 km/h
2904 15-04-2017 21:20:00 9.9 C 6.82 g/m*3 8.87 C 8.1 km/h
2905 15-04-2017 21:25:00 9.9 C 6.72 g/m*3 8.56 C 9.7 km/h
2906 15-04-2017 21:30:00 9.9 C 6.82 g/m*3 8.87 C 8.1 km/h
2907 15-04-2017 21:35:00 9.8 C 6.77 g/m*3 8.18 C 11.3 km/h
2908 15-04-2017 21:40:00 9.8 C 6.68 g/m*3 8.18 C 11.3 km/h
2909 15-04-2017 21:45:00 9.7 C 6.64 g/m*3 9.02 C 6.4 km/h
2910 15-04-2017 21:50:00 9.7 C 6.64 g/m*3 8.33 C 9.7 km/h
2911 15-04-2017 21:55:00 9.6 C 6.78 g/m*3 8.91 C 6.4 km/h
2912 15-04-2017 22:00:00 9.5 C 6.64 g/m*3 8.79 C 6.4 km/h
2913 15-04-2017 22:05:00 9.4 C 6.78 g/m*3 9.4 C 4.8 km/h
2914 15-04-2017 22:10:00 9.3 C 6.56 g/m*3 9.3 C 4.8 km/h
2915 15-04-2017 22:15:00 9.3 C 6.65 g/m*3 8.56 C 6.4 km/h
2916 15-04-2017 22:20:00 9.2 C 6.79 g/m*3 9.2 C 3.2 km/h
2917 15-04-2017 22:25:00 9.1 C 6.65 g/m*3 8.33 C 6.4 km/h
2918 15-04-2017 22:30:00 9 C 6.7 g/m*3 8.21 C 6.4 km/h
2919 15-04-2017 22:35:00 8.9 C 6.39 g/m*3 6.23 C 17.7 km/h
2920 15-04-2017 22:40:00 8.9 C 6.31 g/m*3 7.69 C 8.1 km/h
2921 15-04-2017 22:45:00 8.9 C 6.48 g/m*3 8.9 C 4.8 km/h
2922 15-04-2017 22:50:00 8.9 C 6.31 g/m*3 7.69 C 8.1 km/h
2923 15-04-2017 22:55:00 8.9 C 6.31 g/m*3 7.37 C 9.7 km/h
2924 15-04-2017 23:00:00 8.9 C 6.39 g/m*3 8.1 C 6.4 km/h
2925 15-04-2017 23:05:00 8.8 C 6.27 g/m*3 8.8 C 4.8 km/h
Sensor: Nr:Datum:Temp:Abs-Feuchte:Windchill:Wind:
Aussen-T/F 2926 15-04-2017 23:10:00 8.8 C 6.18 g/m*3 7.58 C 8.1 km/h
2927 15-04-2017 23:15:00 8.7 C 6.31 g/m*3 8.7 C 4.8 km/h
2928 15-04-2017 23:20:00 8.4 C 6.36 g/m*3 8.4 C 1.6 km/h
2929 15-04-2017 23:25:00 8.2 C 6.36 g/m*3 8.2 C 4.8 km/h
2930 15-04-2017 23:30:00 7.9 C 6.32 g/m*3 7.9 C 3.2 km/h
2931 15-04-2017 23:35:00 7.6 C 6.28 g/m*3 7.6 C 1.6 km/h
2932 15-04-2017 23:40:00 7.4 C 6.28 g/m*3 7.4 C 4.8 km/h
2933 15-04-2017 23:45:00 7.2 C 6.28 g/m*3 7.2 C 3.2 km/h
2934 15-04-2017 23:50:00 7.1 C 6.24 g/m*3 7.1 C 0 km/h
2935 15-04-2017 23:55:00 7 C 6.2 g/m*3 7 C 3.2 km/h
2936 16-04-2017 00:00:00 6.9 C 6.16 g/m*3 6.9 C 1.6 km/h
2937 16-04-2017 00:05:00 6.8 C 6.12 g/m*3 6.8 C 0 km/h
2938 16-04-2017 00:10:00 6.7 C 6.08 g/m*3 6.7 C 1.6 km/h
2939 16-04-2017 00:15:00 6.6 C 6.11 g/m*3 6.6 C 1.6 km/h
2940 16-04-2017 00:20:00 6.6 C 6.11 g/m*3 6.6 C 3.2 km/h
2941 16-04-2017 00:25:00 6.6 C 6.11 g/m*3 6.6 C 1.6 km/h
2942 16-04-2017 00:30:00 6.5 C 6.07 g/m*3 6.5 C 1.6 km/h
2943 16-04-2017 00:35:00 6.4 C 6.04 g/m*3 6.4 C 0 km/h
2944 16-04-2017 00:40:00 6.4 C 6.11 g/m*3 6.4 C 1.6 km/h
2945 16-04-2017 00:45:00 6.4 C 6.04 g/m*3 6.4 C 0 km/h
2946 16-04-2017 00:50:00 6.3 C 6.07 g/m*3 6.3 C 1.6 km/h
2947 16-04-2017 00:55:00 6.3 C 6.07 g/m*3 6.3 C 1.6 km/h
2948 16-04-2017 01:00:00 6.3 C 6.07 g/m*3 6.3 C 1.6 km/h
2949 16-04-2017 01:05:00 6.3 C 6.14 g/m*3 6.3 C 1.6 km/h
2950 16-04-2017 01:10:00 6.3 C 6.14 g/m*3 6.3 C 3.2 km/h
Sensor: Nr:Datum:Temp:Abs-Feuchte:Windchill:Wind:
Aussen-T/F 2951 16-04-2017 01:15:00 6.2 C 6.18 g/m*3 6.2 C 1.6 km/h
2952 16-04-2017 01:20:00 6.1 C 6.14 g/m*3 6.1 C 1.6 km/h
2953 16-04-2017 01:25:00 5.9 C 6.13 g/m*3 5.9 C 0 km/h
2954 16-04-2017 01:30:00 5.8 C 6.09 g/m*3 5.8 C 1.6 km/h
2955 16-04-2017 01:35:00 5.7 C 6.12 g/m*3 5.7 C 1.6 km/h
2956 16-04-2017 01:40:00 5.6 C 6.15 g/m*3 5.6 C 1.6 km/h
2957 16-04-2017 01:45:00 5.6 C 6.15 g/m*3 5.6 C 3.2 km/h
2958 16-04-2017 01:50:00 5.5 C 6.11 g/m*3 5.5 C 1.6 km/h
2959 16-04-2017 01:55:00 5.5 C 6.11 g/m*3 5.5 C 1.6 km/h
2960 16-04-2017 02:00:00 5.4 C 6.07 g/m*3 5.4 C 1.6 km/h
2961 16-04-2017 02:05:00 5.4 C 6.14 g/m*3 5.4 C 0 km/h
2962 16-04-2017 02:10:00 5.3 C 6.1 g/m*3 5.3 C 0 km/h
2963 16-04-2017 02:15:00 5.3 C 6.1 g/m*3 5.3 C 0 km/h
2964 16-04-2017 02:20:00 5.1 C 6.02 g/m*3 5.1 C 0 km/h
2965 16-04-2017 02:25:00 5 C 5.98 g/m*3 5 C 0 km/h
2966 16-04-2017 02:30:00 4.9 C 5.94 g/m*3 4.9 C 0 km/h
2967 16-04-2017 02:35:00 4.8 C 5.97 g/m*3 4.8 C 3.2 km/h
2968 16-04-2017 02:40:00 4.7 C 5.93 g/m*3 4.7 C 1.6 km/h
2969 16-04-2017 02:45:00 4.6 C 5.89 g/m*3 4.6 C 3.2 km/h
2970 16-04-2017 02:50:00 4.5 C 5.92 g/m*3 4.5 C 1.6 km/h
2971 16-04-2017 02:55:00 4.5 C 5.92 g/m*3 4.5 C 1.6 km/h
2972 16-04-2017 03:00:00 4.4 C 5.88 g/m*3 4.4 C 4.8 km/h
2973 16-04-2017 03:05:00 4.4 C 5.88 g/m*3 4.4 C 0 km/h
2974 16-04-2017 03:10:00 4.4 C 5.88 g/m*3 4.4 C 1.6 km/h
2975 16-04-2017 03:15:00 4.4 C 5.88 g/m*3 4.4 C 1.6 km/h
Sensor: Nr:Datum:Temp:Abs-Feuchte:Windchill:Wind:
Aussen-T/F 2976 16-04-2017 03:20:00 4.4 C 5.88 g/m*3 4.4 C 1.6 km/h
2977 16-04-2017 03:25:00 4.4 C 5.94 g/m*3 4.4 C 1.6 km/h
2978 16-04-2017 03:30:00 4.5 C 5.92 g/m*3 4.5 C 4.8 km/h
2979 16-04-2017 03:35:00 4.5 C 5.92 g/m*3 4.5 C 3.2 km/h
2980 16-04-2017 03:40:00 4.5 C 5.92 g/m*3 4.5 C 3.2 km/h
2981 16-04-2017 03:45:00 4.5 C 5.92 g/m*3 4.5 C 3.2 km/h
2982 16-04-2017 03:50:00 4.5 C 5.92 g/m*3 4.5 C 4.8 km/h
2983 16-04-2017 03:55:00 4.5 C 5.85 g/m*3 4.5 C 4.8 km/h
2984 16-04-2017 04:00:00 4.5 C 5.85 g/m*3 4.5 C 3.2 km/h
2985 16-04-2017 04:05:00 4.4 C 5.81 g/m*3 4.4 C 3.2 km/h
2986 16-04-2017 04:10:00 4.6 C 5.89 g/m*3 3.13 C 6.4 km/h
2987 16-04-2017 04:15:00 4.7 C 5.93 g/m*3 3.25 C 6.4 km/h
2988 16-04-2017 04:20:00 4.7 C 5.93 g/m*3 4.7 C 4.8 km/h
2989 16-04-2017 04:25:00 4.7 C 5.86 g/m*3 3.25 C 6.4 km/h
2990 16-04-2017 04:30:00 4.8 C 5.9 g/m*3 3.36 C 6.4 km/h
2991 16-04-2017 04:35:00 4.8 C 5.9 g/m*3 2.49 C 9.7 km/h
2992 16-04-2017 04:40:00 4.8 C 5.9 g/m*3 4.8 C 4.8 km/h
2993 16-04-2017 04:45:00 4.8 C 5.9 g/m*3 4.8 C 4.8 km/h
2994 16-04-2017 04:50:00 4.8 C 5.9 g/m*3 4.8 C 4.8 km/h
2995 16-04-2017 04:55:00 4.7 C 5.8 g/m*3 3.25 C 6.4 km/h
2996 16-04-2017 05:00:00 4.7 C 5.86 g/m*3 4.7 C 3.2 km/h
2997 16-04-2017 05:05:00 4.7 C 5.8 g/m*3 4.7 C 4.8 km/h
2998 16-04-2017 05:10:00 4.7 C 5.8 g/m*3 4.7 C 4.8 km/h
2999 16-04-2017 05:15:00 4.6 C 5.76 g/m*3 4.6 C 3.2 km/h
3000 16-04-2017 05:20:00 4.6 C 5.82 g/m*3 3.13 C 6.4 km/h
Sensor: Nr:Datum:Temp:Abs-Feuchte:Windchill:Wind:
Aussen-T/F 3001 16-04-2017 05:25:00 4.6 C 5.82 g/m*3 4.6 C 3.2 km/h
3002 16-04-2017 05:30:00 4.5 C 5.78 g/m*3 4.5 C 3.2 km/h
3003 16-04-2017 05:35:00 4.4 C 5.75 g/m*3 4.4 C 3.2 km/h
3004 16-04-2017 05:40:00 4.3 C 5.71 g/m*3 2.78 C 6.4 km/h
3005 16-04-2017 05:45:00 4.2 C 5.67 g/m*3 4.2 C 1.6 km/h
3006 16-04-2017 05:50:00 4.2 C 5.67 g/m*3 4.2 C 1.6 km/h
3007 16-04-2017 05:55:00 4.1 C 5.7 g/m*3 4.1 C 3.2 km/h
3008 16-04-2017 06:00:00 4 C 5.66 g/m*3 4 C 3.2 km/h
3009 16-04-2017 06:05:00 3.9 C 5.62 g/m*3 3.9 C 1.6 km/h
3010 16-04-2017 06:10:00 3.9 C 5.62 g/m*3 3.9 C 3.2 km/h
3011 16-04-2017 06:15:00 3.8 C 5.65 g/m*3 2.21 C 6.4 km/h
3012 16-04-2017 06:20:00 3.8 C 5.65 g/m*3 3.8 C 1.6 km/h
3013 16-04-2017 06:25:00 3.8 C 5.65 g/m*3 1.29 C 9.7 km/h
3014 16-04-2017 06:30:00 3.8 C 5.65 g/m*3 3.8 C 1.6 km/h
3015 16-04-2017 06:35:00 3.9 C 5.68 g/m*3 3.9 C 1.6 km/h
3016 16-04-2017 06:40:00 4 C 5.72 g/m*3 1.93 C 8.1 km/h
3017 16-04-2017 06:45:00 4.1 C 5.76 g/m*3 4.1 C 1.6 km/h
3018 16-04-2017 06:50:00 4.1 C 5.76 g/m*3 4.1 C 3.2 km/h
3019 16-04-2017 06:55:00 4.2 C 5.8 g/m*3 4.2 C 3.2 km/h
3020 16-04-2017 07:00:00 4.2 C 5.8 g/m*3 4.2 C 3.2 km/h
3021 16-04-2017 07:05:00 4.3 C 5.84 g/m*3 4.3 C 3.2 km/h
3022 16-04-2017 07:10:00 4.3 C 5.84 g/m*3 4.3 C 3.2 km/h
3023 16-04-2017 07:15:00 4.4 C 5.88 g/m*3 4.4 C 4.8 km/h
3024 16-04-2017 07:20:00 4.4 C 5.88 g/m*3 4.4 C 3.2 km/h
3025 16-04-2017 07:25:00 4.5 C 5.92 g/m*3 4.5 C 3.2 km/h
Sensor: Nr:Datum:Temp:Abs-Feuchte:Windchill:Wind:
Aussen-T/F 3026 16-04-2017 07:30:00 4.6 C 5.96 g/m*3 4.6 C 1.6 km/h
3027 16-04-2017 07:35:00 4.7 C 6 g/m*3 4.7 C 1.6 km/h
3028 16-04-2017 07:40:00 4.8 C 6.04 g/m*3 3.36 C 6.4 km/h
3029 16-04-2017 07:45:00 4.8 C 5.97 g/m*3 4.8 C 3.2 km/h
3030 16-04-2017 07:50:00 4.9 C 6.08 g/m*3 4.9 C 4.8 km/h
3031 16-04-2017 07:55:00 5.1 C 6.09 g/m*3 5.1 C 3.2 km/h
3032 16-04-2017 08:00:00 5.2 C 6.06 g/m*3 5.2 C 3.2 km/h
3033 16-04-2017 08:05:00 5.3 C 6.03 g/m*3 3.46 C 8.1 km/h
3034 16-04-2017 08:10:00 5.6 C 6.15 g/m*3 5.6 C 4.8 km/h
3035 16-04-2017 08:15:00 5.7 C 6.12 g/m*3 4.4 C 6.4 km/h
3036 16-04-2017 08:20:00 5.8 C 6.16 g/m*3 5.8 C 4.8 km/h
3037 16-04-2017 08:25:00 6 C 6.24 g/m*3 4.75 C 6.4 km/h
3038 16-04-2017 08:30:00 6.2 C 6.25 g/m*3 4.52 C 8.1 km/h
3039 16-04-2017 08:35:00 6.3 C 6.29 g/m*3 5.1 C 6.4 km/h
3040 16-04-2017 08:40:00 6.4 C 6.33 g/m*3 5.21 C 6.4 km/h
3041 16-04-2017 08:45:00 6.6 C 6.42 g/m*3 4.99 C 8.1 km/h
3042 16-04-2017 08:50:00 6.7 C 6.46 g/m*3 5.56 C 6.4 km/h
3043 16-04-2017 08:55:00 6.9 C 6.39 g/m*3 4.68 C 11.3 km/h
3044 16-04-2017 09:00:00 7.2 C 6.44 g/m*3 7.2 C 4.8 km/h
3045 16-04-2017 09:05:00 7.4 C 6.44 g/m*3 6.37 C 6.4 km/h
3046 16-04-2017 09:10:00 7.7 C 6.49 g/m*3 5.94 C 9.7 km/h
3047 16-04-2017 09:15:00 7.9 C 6.57 g/m*3 6.94 C 6.4 km/h
3048 16-04-2017 09:20:00 8.1 C 6.57 g/m*3 6.75 C 8.1 km/h
3049 16-04-2017 09:25:00 8.2 C 6.53 g/m*3 6.25 C 11.3 km/h
3050 16-04-2017 09:30:00 8.3 C 6.66 g/m*3 7.41 C 6.4 km/h
Sensor: Nr:Datum:Temp:Abs-Feuchte:Windchill:Wind:
Aussen-T/F 3051 16-04-2017 09:35:00 8.4 C 6.62 g/m*3 7.11 C 8.1 km/h
3052 16-04-2017 09:40:00 8.6 C 6.62 g/m*3 7.34 C 8.1 km/h
3053 16-04-2017 09:45:00 8.7 C 6.66 g/m*3 8.7 C 4.8 km/h
3054 16-04-2017 09:50:00 8.8 C 6.7 g/m*3 8.8 C 4.8 km/h
3055 16-04-2017 09:55:00 8.9 C 6.75 g/m*3 8.9 C 4.8 km/h
3056 16-04-2017 10:00:00 9.1 C 6.83 g/m*3 9.1 C 4.8 km/h
3057 16-04-2017 10:05:00 9.3 C 6.92 g/m*3 9.3 C 4.8 km/h
3058 16-04-2017 10:10:00 9.4 C 6.69 g/m*3 7.46 C 12.9 km/h
3059 16-04-2017 10:15:00 9.4 C 6.69 g/m*3 8.68 C 6.4 km/h
3060 16-04-2017 10:20:00 9.4 C 6.6 g/m*3 8.68 C 6.4 km/h
3061 16-04-2017 10:25:00 9.4 C 6.6 g/m*3 9.4 C 4.8 km/h
3062 16-04-2017 10:30:00 9.4 C 6.78 g/m*3 9.4 C 4.8 km/h
3063 16-04-2017 10:35:00 9.4 C 6.69 g/m*3 9.4 C 4.8 km/h
3064 16-04-2017 10:40:00 9.4 C 6.6 g/m*3 7.7 C 11.3 km/h
3065 16-04-2017 10:45:00 9.4 C 6.51 g/m*3 7.97 C 9.7 km/h
3066 16-04-2017 10:50:00 9.5 C 6.74 g/m*3 8.09 C 9.7 km/h
3067 16-04-2017 10:55:00 9.6 C 6.5 g/m*3 8.52 C 8.1 km/h
3068 16-04-2017 11:00:00 9.7 C 6.55 g/m*3 8.33 C 9.7 km/h
3069 16-04-2017 11:05:00 9.7 C 6.82 g/m*3 8.33 C 9.7 km/h
3070 16-04-2017 11:10:00 9.6 C 6.87 g/m*3 9.6 C 3.2 km/h
3071 16-04-2017 11:15:00 9.4 C 6.96 g/m*3 9.4 C 1.6 km/h
3072 16-04-2017 11:20:00 9.4 C 6.87 g/m*3 9.4 C 4.8 km/h
3073 16-04-2017 11:25:00 9.4 C 6.96 g/m*3 9.4 C 3.2 km/h
3074 16-04-2017 11:30:00 9.4 C 6.96 g/m*3 9.4 C 1.6 km/h
3075 16-04-2017 11:35:00 9.5 C 6.83 g/m*3 9.5 C 1.6 km/h
Sensor: Nr:Datum:Temp:Abs-Feuchte:Windchill:Wind:
Aussen-T/F 3076 16-04-2017 11:40:00 9.5 C 7.01 g/m*3 9.5 C 4.8 km/h
3077 16-04-2017 11:45:00 9.5 C 6.92 g/m*3 8.09 C 9.7 km/h
3078 16-04-2017 11:50:00 9.5 C 6.92 g/m*3 8.79 C 6.4 km/h
3079 16-04-2017 11:55:00 9.4 C 6.87 g/m*3 8.28 C 8.1 km/h
3080 16-04-2017 12:00:00 9.4 C 6.87 g/m*3 9.4 C 4.8 km/h
3081 16-04-2017 12:05:00 9.5 C 6.92 g/m*3 9.5 C 4.8 km/h
3082 16-04-2017 12:10:00 9.4 C 6.87 g/m*3 9.4 C 4.8 km/h
3083 16-04-2017 12:15:00 9.4 C 6.96 g/m*3 9.4 C 3.2 km/h
3084 16-04-2017 12:20:00 9.3 C 6.92 g/m*3 9.3 C 1.6 km/h
3085 16-04-2017 12:25:00 9.3 C 7.1 g/m*3 9.3 C 4.8 km/h
3086 16-04-2017 12:30:00 9.4 C 6.6 g/m*3 7.97 C 9.7 km/h
3087 16-04-2017 12:35:00 9.7 C 6.55 g/m*3 9.7 C 4.8 km/h
3088 16-04-2017 12:40:00 10.2 C 6.47 g/m*3 10.2 C 4.8 km/h
3089 16-04-2017 12:45:00 10.4 C 6.65 g/m*3 9.83 C 6.4 km/h
3090 16-04-2017 12:50:00 10.6 C 6.73 g/m*3 10.6 C 3.2 km/h
3091 16-04-2017 12:55:00 10.6 C 6.34 g/m*3 9.69 C 8.1 km/h
3092 16-04-2017 13:00:00 10.7 C 6.09 g/m*3 9.26 C 11.3 km/h
3093 16-04-2017 13:05:00 10.9 C 6.27 g/m*3 9.28 C 12.9 km/h
3094 16-04-2017 13:10:00 10.9 C 6.07 g/m*3 9.28 C 12.9 km/h
3095 16-04-2017 13:15:00 11.1 C 6.25 g/m*3 11.1 C 14.5 km/h
3096 16-04-2017 13:20:00 11.1 C 6.25 g/m*3 11.1 C 14.5 km/h
3097 16-04-2017 13:25:00 11.1 C 6.14 g/m*3 11.1 C 11.3 km/h
3098 16-04-2017 13:30:00 11.2 C 5.98 g/m*3 11.2 C 14.5 km/h
3099 16-04-2017 13:35:00 11.2 C 6.18 g/m*3 11.2 C 19.3 km/h
3100 16-04-2017 13:40:00 11.1 C 6.25 g/m*3 11.1 C 19.3 km/h
Sensor: Nr:Datum:Temp:Abs-Feuchte:Windchill:Wind:
Aussen-T/F 3101 16-04-2017 13:45:00 11 C 6.11 g/m*3 9.02 C 16.1 km/h
3102 16-04-2017 13:50:00 11.1 C 6.45 g/m*3 11.1 C 11.3 km/h
3103 16-04-2017 13:55:00 11.2 C 6.39 g/m*3 11.2 C 11.3 km/h
3104 16-04-2017 14:00:00 11.3 C 6.43 g/m*3 11.3 C 11.3 km/h
3105 16-04-2017 14:05:00 11.2 C 6.28 g/m*3 11.2 C 20.9 km/h
3106 16-04-2017 14:10:00 11.2 C 6.39 g/m*3 11.2 C 20.9 km/h
3107 16-04-2017 14:15:00 11.1 C 6.35 g/m*3 11.1 C 9.7 km/h
3108 16-04-2017 14:20:00 10.9 C 6.37 g/m*3 9.28 C 12.9 km/h
3109 16-04-2017 14:25:00 10.8 C 6.23 g/m*3 8.45 C 19.3 km/h
3110 16-04-2017 14:30:00 10.6 C 6.15 g/m*3 8.92 C 12.9 km/h
3111 16-04-2017 14:35:00 10.4 C 6.46 g/m*3 8.9 C 11.3 km/h
3112 16-04-2017 14:40:00 10.3 C 6.42 g/m*3 7.82 C 19.3 km/h
3113 16-04-2017 14:45:00 10.2 C 6.28 g/m*3 8.43 C 12.9 km/h
3114 16-04-2017 14:50:00 10.2 C 6.19 g/m*3 7.86 C 17.7 km/h
3115 16-04-2017 14:55:00 10 C 6.01 g/m*3 7.98 C 14.5 km/h
3116 16-04-2017 15:00:00 9.8 C 6.59 g/m*3 7.94 C 12.9 km/h
3117 16-04-2017 15:05:00 9.3 C 6.74 g/m*3 8.16 C 8.1 km/h
3118 16-04-2017 15:10:00 9.1 C 7.01 g/m*3 9.1 C 3.2 km/h
3119 16-04-2017 15:15:00 8.9 C 7.1 g/m*3 8.9 C 0 km/h
3120 16-04-2017 15:20:00 8.9 C 7.18 g/m*3 8.9 C 0 km/h
3121 16-04-2017 15:25:00 8.9 C 7.27 g/m*3 8.9 C 1.6 km/h
3122 16-04-2017 15:30:00 9.1 C 7.36 g/m*3 9.1 C 1.6 km/h
3123 16-04-2017 15:35:00 9.2 C 7.23 g/m*3 9.2 C 0 km/h
3124 16-04-2017 15:40:00 9.4 C 7.15 g/m*3 9.4 C 1.6 km/h
3125 16-04-2017 15:45:00 9.4 C 7.15 g/m*3 9.4 C 3.2 km/h
Sensor: Nr:Datum:Temp:Abs-Feuchte:Windchill:Wind:
Aussen-T/F 3126 16-04-2017 15:50:00 9.5 C 7.01 g/m*3 8.09 C 9.7 km/h
3127 16-04-2017 15:55:00 9.4 C 6.78 g/m*3 7.46 C 12.9 km/h
3128 16-04-2017 16:00:00 9.4 C 6.6 g/m*3 7.7 C 11.3 km/h
3129 16-04-2017 16:05:00 9.5 C 6.55 g/m*3 8.4 C 8.1 km/h
3130 16-04-2017 16:10:00 9.6 C 6.6 g/m*3 8.21 C 9.7 km/h
3131 16-04-2017 16:15:00 9.7 C 6.64 g/m*3 8.33 C 9.7 km/h
3132 16-04-2017 16:20:00 9.7 C 6.73 g/m*3 8.63 C 8.1 km/h
3133 16-04-2017 16:25:00 9.7 C 6.45 g/m*3 8.63 C 8.1 km/h
3134 16-04-2017 16:30:00 9.8 C 6.59 g/m*3 9.14 C 6.4 km/h
3135 16-04-2017 16:35:00 9.9 C 6.63 g/m*3 9.25 C 6.4 km/h
3136 16-04-2017 16:40:00 9.9 C 6.72 g/m*3 9.9 C 4.8 km/h
3137 16-04-2017 16:45:00 10 C 6.67 g/m*3 10 C 4.8 km/h
3138 16-04-2017 16:50:00 10.1 C 6.71 g/m*3 10.1 C 3.2 km/h
3139 16-04-2017 16:55:00 10.2 C 6.76 g/m*3 10.2 C 3.2 km/h
3140 16-04-2017 17:00:00 10.2 C 6.76 g/m*3 9.22 C 8.1 km/h
3141 16-04-2017 17:05:00 10.3 C 6.7 g/m*3 9.34 C 8.1 km/h
3142 16-04-2017 17:10:00 10.3 C 6.61 g/m*3 9.34 C 8.1 km/h
3143 16-04-2017 17:15:00 10.4 C 6.84 g/m*3 9.83 C 6.4 km/h
3144 16-04-2017 17:20:00 10.6 C 6.73 g/m*3 9.69 C 8.1 km/h
3145 16-04-2017 17:25:00 10.7 C 6.88 g/m*3 10.7 C 4.8 km/h
3146 16-04-2017 17:30:00 10.8 C 6.62 g/m*3 10.8 C 3.2 km/h
3147 16-04-2017 17:35:00 10.8 C 6.13 g/m*3 9.93 C 8.1 km/h
3148 16-04-2017 17:40:00 10.9 C 6.27 g/m*3 8.9 C 16.1 km/h
3149 16-04-2017 17:45:00 11.2 C 5.98 g/m*3 11.2 C 9.7 km/h
3150 16-04-2017 17:50:00 11.4 C 6.16 g/m*3 11.4 C 11.3 km/h
Sensor: Nr:Datum:Temp:Abs-Feuchte:Windchill:Wind:
Aussen-T/F 3151 16-04-2017 17:55:00 11.5 C 5.99 g/m*3 11.5 C 14.5 km/h
3152 16-04-2017 18:00:00 11.3 C 6.02 g/m*3 11.3 C 8.1 km/h
3153 16-04-2017 18:05:00 11.2 C 5.98 g/m*3 11.2 C 11.3 km/h
3154 16-04-2017 18:10:00 11.1 C 6.35 g/m*3 11.1 C 9.7 km/h
3155 16-04-2017 18:15:00 10.7 C 6.58 g/m*3 9.26 C 11.3 km/h
3156 16-04-2017 18:20:00 10.2 C 6.57 g/m*3 8.22 C 14.5 km/h
3157 16-04-2017 18:25:00 9.9 C 6.63 g/m*3 8.87 C 8.1 km/h
3158 16-04-2017 18:30:00 9.8 C 6.59 g/m*3 9.14 C 6.4 km/h
3159 16-04-2017 18:35:00 9.7 C 6.73 g/m*3 8.63 C 8.1 km/h
3160 16-04-2017 18:40:00 9.6 C 6.69 g/m*3 8.21 C 9.7 km/h
3161 16-04-2017 18:45:00 9.6 C 6.69 g/m*3 8.52 C 8.1 km/h
3162 16-04-2017 18:50:00 9.6 C 6.78 g/m*3 8.21 C 9.7 km/h
3163 16-04-2017 18:55:00 9.5 C 6.64 g/m*3 7.58 C 12.9 km/h
3164 16-04-2017 19:00:00 9.6 C 6.69 g/m*3 8.52 C 8.1 km/h
3165 16-04-2017 19:05:00 9.7 C 6.82 g/m*3 8.63 C 8.1 km/h
3166 16-04-2017 19:10:00 9.9 C 6.82 g/m*3 8.87 C 8.1 km/h
3167 16-04-2017 19:15:00 10.2 C 6.76 g/m*3 10.2 C 3.2 km/h
3168 16-04-2017 19:20:00 10.2 C 6.76 g/m*3 10.2 C 0 km/h
3169 16-04-2017 19:25:00 10.3 C 6.9 g/m*3 10.3 C 0 km/h
3170 16-04-2017 19:30:00 10.2 C 6.76 g/m*3 9.6 C 6.4 km/h
3171 16-04-2017 19:35:00 10.1 C 6.71 g/m*3 10.1 C 3.2 km/h
3172 16-04-2017 19:40:00 9.9 C 6.82 g/m*3 9.9 C 0 km/h
3173 16-04-2017 19:45:00 9.8 C 6.87 g/m*3 9.8 C 0 km/h
3174 16-04-2017 19:50:00 9.7 C 6.91 g/m*3 9.7 C 0 km/h
3175 16-04-2017 19:55:00 9.4 C 6.87 g/m*3 9.4 C 0 km/h
Sensor: Nr:Datum:Temp:Abs-Feuchte:Windchill:Wind:
Aussen-T/F 3176 16-04-2017 20:00:00 9.2 C 6.88 g/m*3 9.2 C 0 km/h
3177 16-04-2017 20:05:00 8.8 C 6.79 g/m*3 8.8 C 0 km/h
3178 16-04-2017 20:10:00 8.6 C 6.79 g/m*3 8.6 C 0 km/h
3179 16-04-2017 20:15:00 8.4 C 6.79 g/m*3 8.4 C 1.6 km/h
3180 16-04-2017 20:20:00 8.3 C 6.74 g/m*3 8.3 C 1.6 km/h
3181 16-04-2017 20:25:00 8.1 C 6.74 g/m*3 8.1 C 0 km/h
3182 16-04-2017 20:30:00 7.9 C 6.65 g/m*3 7.9 C 0 km/h
3183 16-04-2017 20:35:00 7.7 C 6.65 g/m*3 7.7 C 0 km/h
3184 16-04-2017 20:40:00 7.6 C 6.61 g/m*3 7.6 C 0 km/h
3185 16-04-2017 20:45:00 7.4 C 6.6 g/m*3 7.4 C 0 km/h
3186 16-04-2017 20:50:00 7.2 C 6.52 g/m*3 7.2 C 0 km/h
3187 16-04-2017 20:55:00 7 C 6.51 g/m*3 7 C 0 km/h
3188 16-04-2017 21:00:00 6.8 C 6.42 g/m*3 6.8 C 0 km/h
3189 16-04-2017 21:05:00 6.7 C 6.46 g/m*3 6.7 C 0 km/h
3190 16-04-2017 21:10:00 6.5 C 6.37 g/m*3 6.5 C 0 km/h
3191 16-04-2017 21:15:00 6.4 C 6.33 g/m*3 6.4 C 3.2 km/h
3192 16-04-2017 21:20:00 6.4 C 6.26 g/m*3 6.4 C 3.2 km/h
3193 16-04-2017 21:25:00 6.4 C 6.18 g/m*3 6.4 C 1.6 km/h
3194 16-04-2017 21:30:00 6.4 C 6.18 g/m*3 6.4 C 3.2 km/h
3195 16-04-2017 21:35:00 6.3 C 6.14 g/m*3 6.3 C 1.6 km/h
3196 16-04-2017 21:40:00 6.3 C 6.14 g/m*3 6.3 C 1.6 km/h
3197 16-04-2017 21:45:00 6.3 C 6.22 g/m*3 6.3 C 0 km/h
3198 16-04-2017 21:50:00 6.2 C 6.18 g/m*3 6.2 C 1.6 km/h
3199 16-04-2017 21:55:00 6.2 C 6.18 g/m*3 6.2 C 3.2 km/h
3200 16-04-2017 22:00:00 6.2 C 6.18 g/m*3 6.2 C 3.2 km/h
Sensor: Nr:Datum:Temp:Abs-Feuchte:Windchill:Wind:
Aussen-T/F 3201 16-04-2017 22:05:00 6.2 C 6.18 g/m*3 6.2 C 3.2 km/h
3202 16-04-2017 22:10:00 6.2 C 6.18 g/m*3 6.2 C 3.2 km/h
3203 16-04-2017 22:15:00 6.2 C 6.1 g/m*3 6.2 C 1.6 km/h
3204 16-04-2017 22:20:00 6.3 C 6 g/m*3 6.3 C 0 km/h
3205 16-04-2017 22:25:00 6.4 C 5.96 g/m*3 6.4 C 4.8 km/h
3206 16-04-2017 22:30:00 6.5 C 5.92 g/m*3 6.5 C 0 km/h
3207 16-04-2017 22:35:00 6.7 C 6.08 g/m*3 6.7 C 0 km/h
3208 16-04-2017 22:40:00 6.7 C 6 g/m*3 6.7 C 1.6 km/h
3209 16-04-2017 22:45:00 6.7 C 6 g/m*3 6.7 C 1.6 km/h
3210 16-04-2017 22:50:00 6.7 C 6 g/m*3 6.7 C 1.6 km/h
3211 16-04-2017 22:55:00 6.5 C 5.92 g/m*3 6.5 C 0 km/h
3212 16-04-2017 23:00:00 6.3 C 5.85 g/m*3 6.3 C 0 km/h
3213 16-04-2017 23:05:00 6.2 C 5.88 g/m*3 6.2 C 0 km/h
3214 16-04-2017 23:10:00 5.9 C 5.84 g/m*3 5.9 C 1.6 km/h